logo
Games tagged Shoot 'Em Up
# Game Release date
Price
Score rank
(Userscore / Metascore)
Owners
Players
Playtime (Median)
Developer(s)
Publisher(s)
1 HYPER DEMON Sep 19, 2022 $14.99N/A (N/A/88%)200,000 .. 500,0000%00:00 (00:00)SorathSorath
2 Cuphead Sep 29, 2017 $19.99N/A (N/A/88%)5,000,000 .. 10,000,0000.85%03:10 (01:35)Studio MDHR Entertainment Inc.Studio MDHR Entertainment Inc.
3 Raw Data Oct 5, 2017 $39.99N/A (N/A/87%)100,000 .. 200,0000%00:00 (00:00)SurviosSurvios
4 Valfaris Oct 10, 2019 $24.99N/A (N/A/86%)200,000 .. 500,0000%00:00 (00:00)Steel MantisBig Sugar
5 HUNTDOWN May 12, 2021 $19.99N/A (N/A/85%)100,000 .. 200,0000%00:00 (00:00)Easy Trigger GamesCoffee Stain Publishing
6 Hell is Other Demons May 20, 2019 $9.99N/A (N/A/85%)20,000 .. 50,0000%00:00 (00:00)Cuddle Monster GamesCuddle Monster Games
7 NeverAwake Sep 28, 2022 $19.99N/A (N/A/84%)0 .. 20,0000%00:00 (00:00)Neotro Inc.Phoenixx Inc.
8 Valfaris: Mecha Therion Nov 21, 2023 $19.99N/A (N/A/83%)0 .. 20,0000%00:00 (00:00)Steel MantisBig Sugar, East2West Games
9 Mega City Force Jul 28, 2023 $14.99N/A (N/A/82%)20,000 .. 50,0000%00:00 (00:00)Undreamed GamesRavenage Games
10 Atari 50: The Anniversary Celebration Nov 11, 2022 $39.99N/A (N/A/82%)50,000 .. 100,0000%00:00 (00:00)Digital EclipseAtari
11 Octogeddon Feb 8, 2018 $8.88N/A (N/A/82%)50,000 .. 100,0000%00:00 (00:00)All Yes GoodAll Yes Good
12 OTXO Apr 20, 2023 $14.99N/A (N/A/81%)100,000 .. 200,0000%00:00 (00:00)Lateralis Heavy IndustriesSuper Rare Originals
13 DRAINUS May 22, 2022 $14.99N/A (N/A/81%)50,000 .. 100,0000%00:00 (00:00)Team Ladybug, WSS playgroundWSS playground, PLAYISM
14 Patch Quest Mar 2, 2023 $14.99N/A (N/A/80%)100,000 .. 200,0000%00:00 (00:00)Lychee Game LabsCurve Games
15 Guns, Gore and Cannoli 2 Mar 2, 2018 $12.99N/A (N/A/80%)200,000 .. 500,0000%00:00 (00:00)Rogueside, ClaeysbrothersRogueside
16 Savant - Ascent REMIX Sep 29, 2023 $9.99N/A (N/A/79%)20,000 .. 50,0000%00:00 (00:00)D-Pad StudioD-Pad Studio
17 The Knight Witch Nov 29, 2022 $6.79N/A (N/A/79%)20,000 .. 50,0000%00:00 (00:00)Super Mega TeamTeam17
18 Blazing Chrome Jul 11, 2019 $16.99N/A (N/A/79%)100,000 .. 200,0000%00:00 (00:00)JoyMasherThe Arcade Crew, CE-Asia
19 Space Invaders Extreme Feb 12, 2018 $19.99N/A (N/A/79%)20,000 .. 50,0000%00:00 (00:00)TAITO CORP.KOMODO, TAITO CORP.
20 Project Warlock Dec 6, 2018 $12N/A (N/A/78%)200,000 .. 500,0000%00:00 (00:00)Buckshot SoftwareRetrovibe, gaming company
21 Akka Arrh Feb 21, 2023 $19.99N/A (N/A/77%)0 .. 20,0000%00:00 (00:00)Llamasoft Ltd.Atari
22 Warhammer 40,000: Shootas, Blood & Teef Oct 20, 2022 $19.99N/A (N/A/77%)100,000 .. 200,0000%00:00 (00:00)RoguesideRogueside
23 After the Fall Dec 9, 2021 $29.99N/A (N/A/76%)50,000 .. 100,0000%00:00 (00:00)Vertigo GamesVertigo Games
24 Journey To The Savage Planet Jan 28, 2021 $7.49N/A (N/A/76%)500,000 .. 1,000,0000%00:00 (00:00)Typhoon505 Games
25 Tempest 4000 Jul 17, 2018 $19.99N/A (N/A/76%)20,000 .. 50,0000%00:00 (00:00)Llamasoft Ltd.Atari
26 God's Trigger Apr 18, 2019 $14.99N/A (N/A/75%)100,000 .. 200,0000%00:00 (00:00)One More LevelTechland Publishing
27 Double Kick Heroes Aug 13, 2020 $19.99N/A (N/A/73%)0 .. 20,0000%00:00 (00:00)Headbang ClubHeadbang Club, Hound Picked Games, WhisperGames, Kakehashi
28 Tesla vs Lovecraft Jan 26, 2018 $14.99N/A (N/A/73%)0 .. 20,0000%00:00 (00:00)10tons Ltd10tons Ltd
29 POSTAL: Brain Damaged Jun 9, 2022 $19.99N/A (N/A/71%)200,000 .. 500,0000%00:00 (00:00)Hyperstrange, CreativeForge GamesRunning With Scissors, Hyperstrange
30 I Hate Running Backwards May 22, 2018 $14.99N/A (N/A/71%)20,000 .. 50,0000%00:00 (00:00)Binx Games, Croteam Incubator, CroteamDevolver Digital
31 Bartlow's Dread Machine Sep 29, 2020 $5.99N/A (N/A/70%)0 .. 20,0000%00:00 (00:00)Beep Games, Inc., TribetoyBeep Games, Inc.
32 Kill It With Fire Aug 13, 2020 $12.99N/A (N/A/68%)50,000 .. 100,0000%00:00 (00:00)Casey Donnellan Games LLCtinyBuild
33 The Hong Kong Massacre Jan 21, 2019 $3.99N/A (N/A/68%)100,000 .. 200,0000%00:00 (00:00)VRESKIUntold Tales
34 Alien Shooter 2 - New Era Jun 15, 2022 $9.99N/A (N/A/67%)50,000 .. 100,0000%00:00 (00:00)Sigma Team Inc.Sigma Team Inc.
35 198X Jun 20, 2019 $9.99N/A (N/A/63%)20,000 .. 50,0000%00:00 (00:00)Hi-Bit StudiosHi-Bit Studios
36 HYPERGUN Aug 23, 2018 $9.99N/A (N/A/62%)0 .. 20,0000%00:00 (00:00)NVYVE® StudiosNVYVE® Studios
37 AIRHEART - Tales of broken Wings Jul 24, 2018 $14.99N/A (N/A/62%)50,000 .. 100,0000%00:00 (00:00)Blindflug Studios AGBlindflug Studios AG
38 Desert Child Dec 11, 2018 $11.99N/A (N/A/60%)20,000 .. 50,0000%00:00 (00:00)Oscar BrittainAkupara Games
39 Creepy Road May 18, 2018 $9.99N/A (N/A/58%)50,000 .. 100,0000%00:00 (00:00)Groovy MilkGroovy Milk, GrabTheGames
40 LIGHT Apr 5, 2018 $0.99N/A (N/A/49%)0 .. 20,0000%00:00 (00:00)Indie LightIndie Light
41 Chicken Invaders Universe Dec 15, 2022 FreeN/A (N/A)100,000 .. 200,0000%00:00 (00:00)InterAction studiosInterAction studios
42 Pongarena Jan 31, 2022 FreeN/A (N/A)100,000 .. 200,0000%00:00 (00:00)DreamirlDreamirl
43 Angry Angry Shark Jan 1, 2022 FreeN/A (N/A)0 .. 20,0000%00:00 (00:00)James OEGG
44 Last Soul - Prologue Oct 19, 2021 FreeN/A (N/A)20,000 .. 50,0000%00:00 (00:00)Wulum Creative Technology Ltd.Wulum Creative Technology Ltd.
45 Super Squad Jun 25, 2021 FreeN/A (N/A)20,000 .. 50,0000%00:00 (00:00)Bad Fox StudiosBad Fox Studios
46 Tadpole Tales Mar 12, 2021 FreeN/A (N/A)100,000 .. 200,0000%00:00 (00:00)Andrei Cretu, Giacomo Autili, Tomer BarneaPinnical Studio
47 Space Survival Mar 10, 2021 FreeN/A (N/A)0 .. 20,0000%00:00 (00:00)Ali Soltanian Fard JahromiSoltanian Games
48 Star Squadron: Student Driver Mar 5, 2021 FreeN/A (N/A)20,000 .. 50,0000%00:00 (00:00)Mark ArenzMark Arenz
49 Motor Assailant: Prologue Mar 2, 2021 FreeN/A (N/A)100,000 .. 200,0000%00:00 (00:00)DSW GamesDSW Games
50 SunSenSim Feb 22, 2021 FreeN/A (N/A)100,000 .. 200,0000%00:00 (00:00)studeiistudeii.us
51 Video Realms Feb 14, 2021 FreeN/A (N/A)20,000 .. 50,0000%00:00 (00:00)Allen CaneZenrok Studios
52 Security Guy vs AI: The Dawn of AI Jan 24, 2021 FreeN/A (N/A)20,000 .. 50,0000%00:00 (00:00)Alexander Bogdanov, Alexandrina SvitsynaAlexander Bogdanov
53 Orion: The Eternal Punishment Jan 5, 2021 FreeN/A (N/A)100,000 .. 200,0000%00:00 (00:00)Frogames SLJuan Gabriel Gomila
54 OMFG: One Million Fatal Guns Jan 5, 2021 FreeN/A (N/A)200,000 .. 500,0000%00:00 (00:00)Gun Hit WondersDigiPen Institute of Technology
55 Covert Commando Dec 25, 2020 FreeN/A (N/A)0 .. 20,0000%00:00 (00:00)Four Pixels GamesFour Pixels Games
56 Astro Sentai Jarbonder Dec 14, 2020 FreeN/A (N/A)50,000 .. 100,0000%00:00 (00:00)ipei_retlandipei_retland
57 Ninja Hanrei Nov 30, 2020 FreeN/A (N/A)50,000 .. 100,0000%00:00 (00:00)DynKenDynKen
58 Is It Wrong to Try to Shoot 'em Up Girls in a Dungeon? Nov 25, 2020 FreeN/A (N/A)20,000 .. 50,0000%00:00 (00:00)MAGES. Inc.PQube
59 SpaceCrash Nov 16, 2020 FreeN/A (N/A)20,000 .. 50,0000%00:00 (00:00)Yannick LaubscherSnotax Games
60 All-Time Battle Oct 24, 2020 FreeN/A (N/A)50,000 .. 100,0000%00:00 (00:00)Broken Bunny Studios, IncBroken Bunny Studios, Inc
61 Shotgun Witch Oct 23, 2020 FreeN/A (N/A)50,000 .. 100,0000%00:00 (00:00)Asephy, Dementori, JchocoAsephy
62 Project Amalthea: Battlegrounds Oct 12, 2020 FreeN/A (N/A)100,000 .. 200,0000%00:00 (00:00)RunServerRunServer
63 Surviv.io - 2D Battle Royale Sep 24, 2020 N/AN/A (N/A)100,000 .. 200,0000%00:00 (00:00)Kongregate, Inc.Kongregate, Inc.
64 READY AIM FIRE Sep 14, 2020 FreeN/A (N/A)50,000 .. 100,0000%00:00 (00:00)VRillARVRillAR
65 Mist of the Undead Sep 9, 2020 FreeN/A (N/A)500,000 .. 1,000,0000%00:00 (00:00)Hayden, RothmanHayden , Rothman
66 Circle Tank Sep 7, 2020 FreeN/A (N/A)0 .. 20,0000%00:00 (00:00)Squid Related GamesSquid Related Games
67 The Tower Of TigerQiuQiu Sep 1, 2020 FreeN/A (N/A)0 .. 20,0000%00:00 (00:00)TigerQiuQiuTigerQiuQiu
68 Lucky Burst Aug 18, 2020 N/AN/A (N/A)0 .. 20,0000%00:00 (00:00)STGamzSTGamz
69 Space Probes Aug 15, 2020 FreeN/A (N/A)0 .. 20,0000%00:00 (00:00)Website ModernWebsite Modern
70 CHRONOSHOT Aug 7, 2020 N/AN/A (N/A)200,000 .. 500,0000%00:00 (00:00)Quickfire LabsQuickfire Labs
71 DEAD Jul 31, 2020 FreeN/A (N/A)20,000 .. 50,0000%00:00 (00:00)George HennenGigastructure
72 Asteroids 44 (For Four) Jul 29, 2020 FreeN/A (N/A)20,000 .. 50,0000%00:00 (00:00)Grzegorz KoryckiGrzegorz Korycki
73 Humans V Zombies Jul 29, 2020 FreeN/A (N/A)20,000 .. 50,0000%00:00 (00:00)Pasha Utt, Jong Jiang KwangEgg Splat Studios
74 UpBoll Jul 29, 2020 FreeN/A (N/A)0 .. 20,0000%00:00 (00:00)Morningstar StudiosMorningstar Studios
75 Nekopter Jul 18, 2020 FreeN/A (N/A)0 .. 20,0000%00:00 (00:00)WampyWampy
76 Space Battle Jul 6, 2020 FreeN/A (N/A)20,000 .. 50,0000%00:00 (00:00)Adrián CorbalánAdrián Corbalán
77 Cosmic Zephyr DX Jun 24, 2020 N/AN/A (N/A)0 .. 20,0000%00:00 (00:00)Dylan CassidyDylan Cassidy
78 Stream Smash Jun 18, 2020 FreeN/A (N/A)20,000 .. 50,0000%00:00 (00:00)Attack MoveAttack Move
79 We Surround You Jun 14, 2020 FreeN/A (N/A)0 .. 20,0000%00:00 (00:00)Alexander FeinsteinAlexander Feinstein
80 Reconstruction May 30, 2020 N/AN/A (N/A)0 .. 20,0000%00:00 (00:00)ARMSArms
81 Retrograde Arena May 28, 2020 FreeN/A (N/A)50,000 .. 100,0000%00:00 (00:00)FreemergencyNeon Doctrine
82 Not Their Will May 24, 2020 FreeN/A (N/A)0 .. 20,0000%00:00 (00:00)Geosphere GamesGeosphere Games
83 東方催狐譚 ~ Servants of Harvest Wish May 16, 2020 FreeN/A (N/A)50,000 .. 100,0000%00:00 (00:00)Dream CompassDream Compass
84 CoronaFighter Apr 19, 2020 FreeN/A (N/A)50,000 .. 100,0000%00:00 (00:00)Aaron W. Calhoun, Noah W. CalhounSelf
85 Rainbows, toilets & unicorns! Apr 17, 2020 FreeN/A (N/A)50,000 .. 100,0000%00:00 (00:00)Fantastico StudioFantastico Studio
86 Spacen: The Beginning Apr 10, 2020 FreeN/A (N/A)0 .. 20,0000%00:00 (00:00)ECHTNICE GmbHECHTNICE GmbH
87 Crucible Apr 3, 2020 FreeN/A (N/A)20,000 .. 50,0000%00:00 (00:00)TriScaleDigiPen Institute of Technology
88 Glare fall Apr 1, 2020 FreeN/A (N/A)0 .. 20,0000%00:00 (00:00)KurenaibookKurenaibook
89 Andarigas Mar 26, 2020 N/AN/A (N/A)0 .. 20,0000%00:00 (00:00)Midgardian Games LLCMidgardian Games LLC
90 Deadtime Defenders Feb 18, 2020 N/AN/A (N/A)0 .. 20,0000%00:00 (00:00)Ravenous Games Inc.Ravenous Games Inc.
91 Planet Cracker Jan 30, 2020 FreeN/A (N/A)20,000 .. 50,0000%00:00 (00:00)Nemoto KeisukeNemoto Keisuke
92 The War Enders Evolution Jan 19, 2020 FreeN/A (N/A)0 .. 20,0000%00:00 (00:00)Crystal Heart's StudioCrystal Heart's Studio
93 Steambirds Alliance Aug 22, 2019 N/AN/A (N/A)200,000 .. 500,0000%00:00 (00:00)Spry Fox LLCSpry Fox LLC
94 Tiger Fighter 1931 Tora!Tora!Tora! Aug 13, 2019 FreeN/A (N/A)20,000 .. 50,0000%00:00 (00:00)TigerQiuQiuTigerQiuQiu
95 Tiger Fighter 1931 Tora!Tora! Aug 13, 2019 FreeN/A (N/A)20,000 .. 50,0000%00:00 (00:00)TigerQiuQiuTigerQiuQiu
96 Vectrix Aug 13, 2019 FreeN/A (N/A)20,000 .. 50,0000%00:00 (00:00)Poco a PocoDigiPen Institute of Technology
97 Touhou Multi Scroll Shooting Aug 8, 2019 FreeN/A (N/A)0 .. 20,0000%00:00 (00:00)Skydash studioSkydash studio
98 Touhou Fantasia / 东方梦想曲 Jul 19, 2019 FreeN/A (N/A)100,000 .. 200,0000%00:00 (00:00)SlimeSmileSlimeSmile
99 Defend The Keep Jul 15, 2019 N/AN/A (N/A)0 .. 20,0000%00:00 (00:00)Ville HappoVille Happo
100 Captain Starshot Jul 9, 2019 FreeN/A (N/A)50,000 .. 100,0000%00:00 (00:00)Double Door GamesDouble Door Games, Breda University of Applied Sciences
101 Jun 26, 2019 $4.99N/A (N/A)0 .. 20,0000%00:00 (00:00)Ultimo GamesUltimo Games
102 Tiger Tank 59 Ⅰ Volcano May 24, 2019 FreeN/A (N/A)0 .. 20,0000%00:00 (00:00)TigerQiuQiuTigerQiuQiu
103 Steambirds Alliance Beta May 24, 2019 N/AN/A (N/A)20,000 .. 50,0000%00:00 (00:00)Spry Fox LLCSpry Fox LLC
104 Prologue for a Vacant Kingdom Apr 18, 2019 FreeN/A (N/A)20,000 .. 50,0000%00:00 (00:00)shrushru
105 Crome: Before Purgatory Jan 29, 2019 FreeN/A (N/A)0 .. 20,0000%00:00 (00:00)Stumphead Games LLCStumphead Games LLC
106 BLASTER LiLO Dec 28, 2018 N/AN/A (N/A)0 .. 20,0000%00:00 (00:00)Fabio CardiniFabio Cardini
107 Mobile Wars X Dec 28, 2018 FreeN/A (N/A)20,000 .. 50,0000%00:00 (00:00)NAPE GAMESNAPE GAMES
108 Gamma Bros Dec 10, 2018 FreeN/A (N/A)20,000 .. 50,0000%00:00 (00:00)PixeljamPixeljam
109 Wings of Virtus Dec 3, 2018 FreeN/A (N/A)0 .. 20,0000%00:00 (00:00)Ragiva GamesRagiva Games
110 Tiger Striker Oct 1, 2018 FreeN/A (N/A)0 .. 20,0000%00:00 (00:00)TigerQiuQiuTigerQiuQiu
111 Huge Enemy - Worldbreakers Sep 7, 2018 FreeN/A (N/A)0 .. 20,0000%00:00 (00:00)Huge Enemy ProductionHuge Enemy Production
112 Gauge Of Rage Sep 5, 2018 FreeN/A (N/A)0 .. 20,0000%00:00 (00:00)Dave Myers, WubsGamesWubsGames
113 The Real Laser Ball Aug 21, 2018 FreeN/A (N/A)0 .. 20,0000%00:00 (00:00)Holmsario GamesHolmsario Games
114 Tiger Fighter 1931 Aug 15, 2018 FreeN/A (N/A)0 .. 20,0000%00:00 (00:00)TigerQiuQiuTigerQiuQiu
115 AstroViking Aug 10, 2018 FreeN/A (N/A)0 .. 20,0000%00:00 (00:00)Artii Games LLCArtii Games LLC
116 Tiger Tank 59 Ⅰ Jul 23, 2018 FreeN/A (N/A)0 .. 20,0000%00:00 (00:00)TigerQiuQiuTigerQiuQiu
117 Ashes of the Ark Jun 27, 2018 FreeN/A (N/A)0 .. 20,0000%00:00 (00:00)SuperSecretSuperSecret
118 HellCat Jun 15, 2018 FreeN/A (N/A)20,000 .. 50,0000%00:00 (00:00)Verbal ChambersVerbal Chambers
119 TimeTekker Jun 7, 2018 FreeN/A (N/A)20,000 .. 50,0000%00:00 (00:00)Artii Games LLCArtii Games LLC
120 Deadly Tropics Apr 23, 2018 N/AN/A (N/A)0 .. 20,0000%00:00 (00:00)CX DistributionCX Distribution
121 Apr 21, 2018 FreeN/A (N/A)20,000 .. 50,0000%00:00 (00:00)Jochen Heizmann, Emmanuel Henné, IntermediawareAsylum Square
122 Poppy's Nightmare Apr 18, 2018 FreeN/A (N/A)0 .. 20,0000%00:00 (00:00)DigiPen Europe-BilbaoDigiPen Institute of Technology
123 >Mars Taken Mar 23, 2018 N/AN/A (N/A)0 .. 20,0000%00:00 (00:00)CX DistributionCX Distribution
124 Alien Crusader Mar 9, 2018 FreeN/A (N/A)20,000 .. 50,0000%00:00 (00:00)ZydroneZydrone
125 Dark Old Sun Mar 7, 2018 FreeN/A (N/A)0 .. 20,0000%00:00 (00:00)SN!Somos NerdsSN!Somos Nerds
126 Shooty Skies Mar 6, 2018 FreeN/A (N/A)200,000 .. 500,0000%00:00 (00:00)Mighty GamesMighty Games
127 Terra Feminarum Feb 28, 2018 FreeN/A (N/A)0 .. 20,0000%00:00 (00:00)Polar Night GamesPolar Night Games
128 Armada: Modern Tanks Feb 7, 2018 FreeN/A (N/A)50,000 .. 100,0000%00:00 (00:00)XDEVS LTDXDEVS LTD
129 Spark Nov 10, 2017 FreeN/A (N/A)0 .. 20,0000%00:00 (00:00)Knightmare Games, LimitedKnightmare Games, Limited
130 Quantum Pilot Oct 20, 2017 N/AN/A (N/A)0 .. 20,0000%00:00 (00:00)Quantum ProductionsQuantum Productions
131 EON Trooper Jun 18, 2024 $4.49N/A (N/A)0 .. 20,0000%00:00 (00:00)Square WheelSquare Wheel
132 Lucky Shot Jun 14, 2024 $1.99N/A (N/A)0 .. 20,0000%00:00 (00:00)Atomic GamesAtomic Games
133 The Falling Car Jun 10, 2024 $39.99N/A (N/A)0 .. 20,0000%00:00 (00:00)bam14bam14
134 Shade Silver Jun 10, 2024 $2.99N/A (N/A)0 .. 20,0000%00:00 (00:00)Chris AllenChris Allen
135 Hero Vs 1000 Jun 7, 2024 $2.99N/A (N/A)0 .. 20,0000%00:00 (00:00)AlienXAlienX
136 Miko Sniper Jun 7, 2024 $3.99N/A (N/A)0 .. 20,0000%00:00 (00:00)さめGamesholo Indie
137 Coal Road Jun 7, 2024 $3.99N/A (N/A)0 .. 20,0000%00:00 (00:00)BUstationBUstation
138 Coastal Defense Jun 7, 2024 $1.99N/A (N/A)0 .. 20,0000%00:00 (00:00)Weeti RantanenWeeti Rantanen
139 Shoot Star Jun 6, 2024 $4.99N/A (N/A)0 .. 20,0000%00:00 (00:00)natamigamenatamigame
140 SpaceBase Power-天基火力 Jun 6, 2024 $4.24N/A (N/A)0 .. 20,0000%00:00 (00:00)domiiyodomiiyo
141 Twinworld Survivor Jun 5, 2024 $4.99N/A (N/A)20,000 .. 50,0000%00:00 (00:00)Ghostplay GamesGhostplay Games
142 ROIDERS Jun 5, 2024 $4.99N/A (N/A)0 .. 20,0000%00:00 (00:00)Melonic GamesMelonic Games
143 QUADBOTS: THE RISE OF CHRONO Jun 5, 2024 $7.99N/A (N/A)0 .. 20,0000%00:00 (00:00)MANDARA StudiosMANDARA Studios
144 Cosmotroid Jun 5, 2024 $6.99N/A (N/A)20,000 .. 50,0000%00:00 (00:00)ACKOSMIC GamesACKOSMIC Games
145 Astro Attack Jun 2, 2024 $2.99N/A (N/A)0 .. 20,0000%00:00 (00:00)Blocky PixelBlocky Pixel
146 Black Journey to the West Jun 2, 2024 $4.99N/A (N/A)0 .. 20,0000%00:00 (00:00)LinxianLinxian
147 Luck's Labyrinth May 31, 2024 $2.99N/A (N/A)0 .. 20,0000%00:00 (00:00)CrabDancerCrabDancer
148 Kill The Cute May 31, 2024 $4.99N/A (N/A)0 .. 20,0000%00:00 (00:00)Witchcraft EntertainmentWitchcraft Entertainment
149 Vnesis May 31, 2024 $13.99N/A (N/A)20,000 .. 50,0000%00:00 (00:00)iLetCreativityiLetCreativity
150 Frog 'n' Roll May 30, 2024 $3.99N/A (N/A)0 .. 20,0000%00:00 (00:00)Olive BranchOlive Branch
151 The Last Warmage May 30, 2024 $4.99N/A (N/A)0 .. 20,0000%00:00 (00:00)Bullet Ant GamesBullet Ant Games
152 Blocks and Bones May 30, 2024 $9.99N/A (N/A)0 .. 20,0000%00:00 (00:00)HawkSandwichHawkSandwich
153 Fallen Force May 30, 2024 $0.99N/A (N/A)0 .. 20,0000%00:00 (00:00)Simon Carny, ARTillery StudioSimon Carny, ARTillery Studio
154 Hellcome May 30, 2024 $6.99N/A (N/A)0 .. 20,0000%00:00 (00:00)Game Dev GarageGame Dev Garage
155 Switch Range May 29, 2024 $1.99N/A (N/A)0 .. 20,0000%00:00 (00:00)Elear2kGamePlanet
156 Blood Metal May 28, 2024 FreeN/A (N/A)0 .. 20,0000%00:00 (00:00)Bluedrake42, Drakeling LabsWonderlust Games
157 Fight To The Death May 25, 2024 $2.99N/A (N/A)0 .. 20,0000%00:00 (00:00)AmritaAmrita
158 Ruiga Pirates May 24, 2024 $4.99N/A (N/A)0 .. 20,0000%00:00 (00:00)Valentware Games LTDValentware Games LTD
159 Mercenaries of the Kingdom: First Blood May 24, 2024 $12.99N/A (N/A)0 .. 20,0000%00:00 (00:00)Insane DreamersInsane Dreamers
160 DEVIL BLADE REBOOT May 23, 2024 $15.99N/A (N/A)0 .. 20,0000%00:00 (00:00)SHIGATAKE GAMESSHIGATAKE GAMES
161 ZSG May 21, 2024 $1.99N/A (N/A)0 .. 20,0000%00:00 (00:00)Viggo StromvallViggo Stromvall
162 Publish or Perish May 21, 2024 $1.99N/A (N/A)0 .. 20,0000%00:00 (00:00)Tapped MangoTapped Mango
163 Rasant May 21, 2024 $1.99N/A (N/A)20,000 .. 50,0000%00:00 (00:00)Cledson Lopes Marta de OliveiraCledman Games
164 Cyberpulse May 21, 2024 $14.99N/A (N/A)0 .. 20,0000%00:00 (00:00)Scherzo GamesDigital Tribe
165 Prism Indigo DX May 20, 2024 $4.99N/A (N/A)0 .. 20,0000%00:00 (00:00)Altrix StudiosAltrix Studios
166 Roboom May 19, 2024 $4.99N/A (N/A)20,000 .. 50,0000%00:00 (00:00)Robogame StudiosRobogame Studios
167 Space Horde Attack May 17, 2024 $6.99N/A (N/A)0 .. 20,0000%00:00 (00:00)GameProdTeamGameProdTeam
168 Colony : Part I The Moon Castle May 16, 2024 $9.99N/A (N/A)20,000 .. 50,0000%00:00 (00:00)Samet MUMCUMumcu Games
169 PENGURU May 13, 2024 $3.99N/A (N/A)0 .. 20,0000%00:00 (00:00)Humbara Game StudioHumbara Game Studio
170 MechCrisis May 13, 2024 $1.99N/A (N/A)0 .. 20,0000%00:00 (00:00)Team_BugTeam_Bug
171 Fruits of Fury May 12, 2024 $3.99N/A (N/A)0 .. 20,0000%00:00 (00:00)BabyfaceJamesBabyfaceJames
172 Darkchaser: Battletide May 8, 2024 $4.49N/A (N/A)0 .. 20,0000%00:00 (00:00)DB StudioLuckycalf
173 Rainbow Cotton May 8, 2024 $19.99N/A (N/A)0 .. 20,0000%00:00 (00:00)KRITZELKRATZ 3000ININ
174 STAR SHREDDERS May 2, 2024 $0.99N/A (N/A)0 .. 20,0000%00:00 (00:00)Sharkbowl GamesSharkbowl Games
175 Wild West Blast May 1, 2024 $9.99N/A (N/A)0 .. 20,0000%00:00 (00:00)Beaver Fever GamesBeaver Fever Games
176 Touhou Lensed Night Sky, Kaseigai Apr 26, 2024 $14.99N/A (N/A)0 .. 20,0000%00:00 (00:00)Fire LandFire Land
177 TriggerHeart EXELICA Apr 25, 2024 $29.99N/A (N/A)0 .. 20,0000%00:00 (00:00)Cosmo MachiaCosmo Machia
178 Scarecrow vs Big Butt Birds Apr 22, 2024 $0.99N/A (N/A)0 .. 20,0000%00:00 (00:00)1000832931 ONTARIO INC.1000832931 ONTARIO INC.
179 Exosuit Apr 22, 2024 $1.99N/A (N/A)0 .. 20,0000%00:00 (00:00)Emergency ExitEmergency Exit
180 Recycle it! Apr 19, 2024 $29.99N/A (N/A)0 .. 20,0000%00:00 (00:00)ThriftThrift
181 FoolHut Pack - 3 games in 1 Apr 19, 2024 $3.01N/A (N/A)0 .. 20,0000%00:00 (00:00)BolHutBolHut
182 Hex.Plan.X Apr 19, 2024 $6.99N/A (N/A)0 .. 20,0000%00:00 (00:00)Pixel FandangoPixel Fandango
183 Comet Clash Apr 19, 2024 $7.99N/A (N/A)0 .. 20,0000%00:00 (00:00)bitshift.studiobitshift.studio
184 ASTROLANCER Apr 18, 2024 $5.99N/A (N/A)0 .. 20,0000%00:00 (00:00)Studio HexeyeStudio Hexeye
185 Shikhondo: Youkai Rampage Apr 17, 2024 $14.99N/A (N/A)0 .. 20,0000%00:00 (00:00)DeerFarmCFK Co., Ltd.
186 Knights & Guns Apr 17, 2024 $3.99N/A (N/A)0 .. 20,0000%00:00 (00:00)Baltoro GamesBaltoro Games
187 Kill It With Fire 2 Apr 16, 2024 $14.99N/A (N/A)50,000 .. 100,0000%00:00 (00:00)Casey Donnellan Games LLCtinyBuild
188 Solar Survivors Apr 16, 2024 $4.99N/A (N/A)0 .. 20,0000%00:00 (00:00)BoxFox StudiosBoxFox Studios
189 BioGun Apr 16, 2024 $19.99N/A (N/A)20,000 .. 50,0000%00:00 (00:00)Dapper Dog DigitalRavenage Games
190 Silicon War:Blitz Apr 15, 2024 $4.99N/A (N/A)0 .. 20,0000%00:00 (00:00)Initial F StudioInitial F Studio
191 Quack Attack Apr 15, 2024 $9.99N/A (N/A)0 .. 20,0000%00:00 (00:00)IllutriumIllutrium
192 Witchcraft Survivors Apr 13, 2024 $4.99N/A (N/A)0 .. 20,0000%00:00 (00:00)Catpix StudiosCatpix Studios
193 NewMe NuMe LuMe: Alien Wars Apr 12, 2024 $2.99N/A (N/A)0 .. 20,0000%00:00 (00:00)Ho RaBiiHo RaBii
194 Mow That Lawn Apr 12, 2024 $2.99N/A (N/A)0 .. 20,0000%00:00 (00:00)Suburban CodestewSuburban Codestew
195 Whale Captain Apr 9, 2024 $3.99N/A (N/A)0 .. 20,0000%00:00 (00:00)Tyrannosaurus GamesTyrannosaurus Games
196 Water Festa Apr 8, 2024 $4.99N/A (N/A)0 .. 20,0000%00:00 (00:00)sTeloXzXNKLV
197 Grind Stormer Apr 8, 2024 $7.99N/A (N/A)0 .. 20,0000%00:00 (00:00)Bitwave Games, ToaplanBitwave Games
198 Cast Out Colony Apr 8, 2024 $8.99N/A (N/A)0 .. 20,0000%00:00 (00:00)WooshidoWooshido
199 1080p Apr 5, 2024 $2.99N/A (N/A)0 .. 20,0000%00:00 (00:00)RollCreatorsRollCreators
200 SUSHIDO Apr 3, 2024 $2.99N/A (N/A)0 .. 20,0000%00:00 (00:00)ChimerabotChimerabot
201 Seren Nova Apr 3, 2024 $5.99N/A (N/A)0 .. 20,0000%00:00 (00:00)Galaeth GamesGalaeth Games
202 GunGuru Apr 3, 2024 $4.99N/A (N/A)0 .. 20,0000%00:00 (00:00)DarkwareDarkware
203 Bass Invaders Mar 25, 2024 $14.99N/A (N/A)20,000 .. 50,0000%00:00 (00:00)Subtle Blend SoftwareSubtle Blend Software
204 Suicide Runners Mar 25, 2024 $9.99N/A (N/A)0 .. 20,0000%00:00 (00:00)JTWJTW
205 ASTRONAVE Mar 17, 2024 $0.99N/A (N/A)0 .. 20,0000%00:00 (00:00)Doug B.Doug B.
206 Potato Salad Mar 16, 2024 $2.99N/A (N/A)0 .. 20,0000%00:00 (00:00)GZ StormGZ Storm
207 Let's be a Tiger Mar 14, 2024 $29.99N/A (N/A)0 .. 20,0000%00:00 (00:00)Anthony Russo
208 Llamasoft: The Jeff Minter Story Mar 13, 2024 $23.99N/A (N/A)0 .. 20,0000%00:00 (00:00)Digital EclipseDigital Eclipse
209 Knife To Meet You Mar 13, 2024 $14.99N/A (N/A)0 .. 20,0000%00:00 (00:00)Mate MagyarMate Magyar
210 Contra: Operation Galuga Mar 12, 2024 $39.99N/A (N/A)50,000 .. 100,0000%00:00 (00:00)WayForwardKONAMI
211 Tank Survivor Mar 12, 2024 $9.99N/A (N/A)0 .. 20,0000%00:00 (00:00)King StoneKing Stone
212 ElbmarKs Mar 12, 2024 $3.99N/A (N/A)0 .. 20,0000%00:00 (00:00)Mantislia GamesMantislia Games
213 13 Seconds Mar 8, 2024 $3.99N/A (N/A)0 .. 20,0000%00:00 (00:00)Studio LEFStudio LEF
214 Xatrom Command Mar 8, 2024 $5.99N/A (N/A)0 .. 20,0000%00:00 (00:00)9Ratones, LEAF TEAM GAMESRatalaika Games S.L.
215 MAGIC CHAOS Mar 8, 2024 $6.99N/A (N/A)0 .. 20,0000%00:00 (00:00)SUPER STARMINEPhoenixx Inc.
216 God Of Death Mar 7, 2024 $2.99N/A (N/A)0 .. 20,0000%00:00 (00:00)IRunIRun
217 Pixel Descent Mar 6, 2024 $5.99N/A (N/A)0 .. 20,0000%00:00 (00:00)JC BaileyJC Bailey
218 Astral Vangard Mar 5, 2024 $2.99N/A (N/A)20,000 .. 50,0000%00:00 (00:00)Mithronix GamesMithronix Games
219 VERZEUS Mar 4, 2024 $4.79N/A (N/A)0 .. 20,0000%00:00 (00:00)RETSUZANHenteko Doujin
220 THUNDER STRIKER Mar 4, 2024 $4.79N/A (N/A)0 .. 20,0000%00:00 (00:00)RETSUZANHenteko Doujin
221 Spell Disk Mar 1, 2024 $14.99N/A (N/A)50,000 .. 100,0000%00:00 (00:00)Sunpeak GamesSunpeak Games
222 Ace Pilot Pacific Mar 1, 2024 $9.99N/A (N/A)0 .. 20,0000%00:00 (00:00)Hubert CachatHC
223 捜査官の試練INVESTIGATOR TRIALS Feb 29, 2024 $3.99N/A (N/A)0 .. 20,0000%00:00 (00:00)GreenTeaGameGreenTeaGame
224 NeverGoingHome Feb 27, 2024 $3.99N/A (N/A)0 .. 20,0000%00:00 (00:00)StarSystemStudiosStarSystemStudios
225 HOP TOP Feb 27, 2024 $4.99N/A (N/A)0 .. 20,0000%00:00 (00:00)MiraclePenguin Pop Games, LLC
226 River Attack Feb 15, 2024 $4.99N/A (N/A)0 .. 20,0000%00:00 (00:00)Immersive GamesImmersive Games
227 XELAN FORCE Feb 13, 2024 $8.99N/A (N/A)0 .. 20,0000%00:00 (00:00)PIXEL CO., LTDPIXEL CO., LTD
228 super bad hero Feb 8, 2024 $5.99N/A (N/A)0 .. 20,0000%00:00 (00:00)The Light of ScienceThe Light of Science
229 Hook Line & Sinker Feb 7, 2024 $4.99N/A (N/A)0 .. 20,0000%00:00 (00:00)Studio Denshin (伝心)Studio Denshin (伝心)
230 Space Garbage Feb 6, 2024 $4.99N/A (N/A)0 .. 20,0000%00:00 (00:00)TSJ GamesTSJ Games
231 Space Strider Feb 3, 2024 $2.99N/A (N/A)0 .. 20,0000%00:00 (00:00)Frost Moon GamesFrost Moon Games
232 Milkman Mayhem Feb 2, 2024 $4.99N/A (N/A)20,000 .. 50,0000%00:00 (00:00)TaterTLKTaterTLK
233 Team Disorder Feb 1, 2024 $0.77N/A (N/A)0 .. 20,0000%00:00 (00:00)Heatwave GamesHeatwave Games & Consulting LLC
234 Binding of Elements Feb 1, 2024 $6.99N/A (N/A)0 .. 20,0000%00:00 (00:00)BeafchiefBeafchief
235 Energy Fighters Feb 1, 2024 $9.99N/A (N/A)0 .. 20,0000%00:00 (00:00)Paul ConnorPaul Connor
236 Fixeight Feb 1, 2024 $7.99N/A (N/A)0 .. 20,0000%00:00 (00:00)Bitwave Games, ToaplanBitwave Games
237 Vimana Feb 1, 2024 $7.99N/A (N/A)0 .. 20,0000%00:00 (00:00)Bitwave Games, ToaplanBitwave Games
238 Batsugun Feb 1, 2024 $7.99N/A (N/A)0 .. 20,0000%00:00 (00:00)Bitwave Games, ToaplanBitwave Games
239 Tiger Heli Feb 1, 2024 $7.99N/A (N/A)0 .. 20,0000%00:00 (00:00)Bitwave Games, ToaplanBitwave Games
240 Lands of Rage Feb 1, 2024 $4.99N/A (N/A)0 .. 20,0000%00:00 (00:00)JabagamingJabagaming
241 INFECTED - Super Soldier Project Jan 30, 2024 $5.99N/A (N/A)0 .. 20,0000%00:00 (00:00)FassiGamesFassiGames
242 Always Surrender Jan 29, 2024 $3.99N/A (N/A)0 .. 20,0000%00:00 (00:00)The Covert Sheep ExampleThe Covert Sheep Example
243 SaiBorRai Jan 26, 2024 $2.99N/A (N/A)0 .. 20,0000%00:00 (00:00)Hyrax GamesHyrax Games
244 Cosmic Slime Defense Jan 24, 2024 $8.99N/A (N/A)0 .. 20,0000%00:00 (00:00)JCVRJCVR
245 Buster's TD Jan 23, 2024 $9.99N/A (N/A)0 .. 20,0000%00:00 (00:00)Otis AndersonRobot Future
246 ZAKESTA-Z Jan 19, 2024 $4.99N/A (N/A)0 .. 20,0000%00:00 (00:00)zakichizakichi
247 SHINORUBI Jan 19, 2024 $24.99N/A (N/A)200,000 .. 500,0000%00:00 (00:00)Last Boss 88Last Boss 88
248 Noxious Weeds Jan 9, 2024 $4.99N/A (N/A)0 .. 20,0000%00:00 (00:00)Solar Eclipse GamesSolar Eclipse Games
249 zombie sanctuary:Juliet Jan 7, 2024 $1.99N/A (N/A)0 .. 20,0000%00:00 (00:00)7miaogame7miaogame
250 Cubyte Jan 7, 2024 FreeN/A (N/A)0 .. 20,0000%00:00 (00:00)Terracotta StudiosTerracotta Studios
251 Desolate Realms Jan 6, 2024 $3.99N/A (N/A)0 .. 20,0000%00:00 (00:00)EgoEgo
252 Veg out Crew FPS Jan 6, 2024 $4.99N/A (N/A)0 .. 20,0000%00:00 (00:00)Guy KimptonGuy Kimpton
253 Error 259 Jan 5, 2024 $7.99N/A (N/A)0 .. 20,0000%00:00 (00:00)Lucius BraunsteinStefano_Gaming
254 Project XSTING Jan 5, 2024 $7.99N/A (N/A)0 .. 20,0000%00:00 (00:00)Saucy MelonSaucy Melon
255 Stealth Assault: Urban Strike Jan 5, 2024 $2.99N/A (N/A)20,000 .. 50,0000%00:00 (00:00)HapGamesHapGames
256 Boaty Tanks 2 Jan 5, 2024 $9.99N/A (N/A)0 .. 20,0000%00:00 (00:00)EpiXR Games UGEpiXR Games UG
257 Radio Free Europa Jan 4, 2024 $7.99N/A (N/A)0 .. 20,0000%00:00 (00:00)Scott McCluskyCoffee Puck Games
258 Alex Jones: NWO Wars Jan 3, 2024 $17.76N/A (N/A)20,000 .. 50,0000%00:00 (00:00)NWO Wars TeamNWO Wars Team
259 ∀stralbringer -Shaded Arkarium- Jan 2, 2024 $8.99N/A (N/A)0 .. 20,0000%00:00 (00:00)Endless ShirafuEndless Shirafu
260 Evasion from cluster 42 Dec 31, 2023 $5.99N/A (N/A)0 .. 20,0000%00:00 (00:00)Eric Behme, Oliver MüllerNone
261 Runic Survivor Dec 31, 2023 $2.99N/A (N/A)0 .. 20,0000%00:00 (00:00)STEELDUCK StudiosSTEELDUCK Studios
262 Raven Fighter Dec 29, 2023 $9.99N/A (N/A)0 .. 20,0000%00:00 (00:00)KY StudioKY Studio
263 Maskonauts: Chat'Attack Dec 28, 2023 $5.99N/A (N/A)100,000 .. 200,0000%00:00 (00:00)quanty banditquanty bandit
264 DunJumb Dec 26, 2023 $2.99N/A (N/A)0 .. 20,0000%00:00 (00:00)JumbStudsJumbStuds
265 Moorhuhn Invasion - Crazy Chicken Invasion Dec 22, 2023 $4.99N/A (N/A)0 .. 20,0000%00:00 (00:00)Higgs Games GmbH, GeekPit StudioHiggs Games GmbH
266 Paper Work Dec 22, 2023 $3N/A (N/A)0 .. 20,0000%00:00 (00:00)DreamworldRealitygaming
267 Catnight Dec 22, 2023 $4.99N/A (N/A)0 .. 20,0000%00:00 (00:00)Rubber CrocRubber Croc
268 Kitty Survivors: Rogues of Catmere Dec 20, 2023 $2.99N/A (N/A)0 .. 20,0000%00:00 (00:00)Little Horror StudiosLittle Horror Studios
269 Cygnus Enterprises Dec 19, 2023 $24.99N/A (N/A)20,000 .. 50,0000%00:00 (00:00)Team MiaoziTeam Miaozi
270 No More Snow Dec 18, 2023 $7.99N/A (N/A)0 .. 20,0000%00:00 (00:00)BarzdaBarzda
271 Westale: Peelgrimage Dec 17, 2023 $4.99N/A (N/A)20,000 .. 50,0000%00:00 (00:00)两把刷子工作室2P Games
272 Tameshi Dec 14, 2023 $5.99N/A (N/A)0 .. 20,0000%00:00 (00:00)171Dev171Dev
273 Endless Furry TD - Tower Defense Dec 12, 2023 $0.99N/A (N/A)0 .. 20,0000%00:00 (00:00)Tegridy Made GamesTegridy Made Games
274 AWA 2024 Dec 12, 2023 $4.99N/A (N/A)20,000 .. 50,0000%00:00 (00:00)OMNIDREAM CREATIONSOMNIDREAM CREATIONS
275 Roguenarok Dec 12, 2023 $4.99N/A (N/A)20,000 .. 50,0000%00:00 (00:00)fishbumpdevfishbumpdev
276 Schism Dec 11, 2023 $8.99N/A (N/A)0 .. 20,0000%00:00 (00:00)Fami2 Left Thumbs
277 1 Million Zombies Dec 10, 2023 $9.99N/A (N/A)0 .. 20,0000%00:00 (00:00)Chubby Kiwi GamesChubby Kiwi
278 Petit Petit Petit Dec 6, 2023 $12.99N/A (N/A)20,000 .. 50,0000%00:00 (00:00)Data Art,Inc., MOSS Co., Ltd.Data Art,Inc., MOSS Co., Ltd.
279 Bad Egg Dec 6, 2023 $3.99N/A (N/A)0 .. 20,0000%00:00 (00:00)Blue Wizard DigitalBlue Wizard Digital
280 Inverse Ninjas VS. The Public Domain Dec 5, 2023 $4.99N/A (N/A)0 .. 20,0000%00:00 (00:00)Herosoft, Trainwreck StudiosHerosoft, Trainwreck Studios
281 They Are Hundreds: Prepped Dec 5, 2023 $0.99N/A (N/A)20,000 .. 50,0000%00:00 (00:00)Jacob KendallJacob Kendall
282 Laboratory X-29 Dec 4, 2023 $7.49N/A (N/A)0 .. 20,0000%00:00 (00:00)BlayzbyFill GamesBlayzbyFill Games
283 Regular Spacecraft - Defending the Mothership Dec 4, 2023 $0.99N/A (N/A)0 .. 20,0000%00:00 (00:00)Angry PixelAngry Pixel
284 Complete Dec 4, 2023 $11.99N/A (N/A)0 .. 20,0000%00:00 (00:00)Reborn InteractiveReborn Interactive
285 BloodDome99 Dec 4, 2023 $2.99N/A (N/A)0 .. 20,0000%00:00 (00:00)Halftone GamingHalftone Gaming
286 Girl Gunner 枪之少女 Dec 2, 2023 $4.99N/A (N/A)0 .. 20,0000%00:00 (00:00)MoonStudioMoonStudio
287 The Maze Contract Dec 2, 2023 $3.99N/A (N/A)0 .. 20,0000%00:00 (00:00)Synthetic FormsSynthetic Forms
288 Alice and The Ancients Dec 1, 2023 $4.99N/A (N/A)0 .. 20,0000%00:00 (00:00)FDCellFDCell
289 Raincouver Dec 1, 2023 $3.99N/A (N/A)0 .. 20,0000%00:00 (00:00)PalfreyGamesPalfreyGames
290 Pew Pew Squad Dec 1, 2023 $0.59N/A (N/A)0 .. 20,0000%00:00 (00:00)DanicitiDaniciti
291 Breaking Survivors Nov 30, 2023 $3.99N/A (N/A)0 .. 20,0000%00:00 (00:00)Axel BornAxel Born
292 Guardian: Planet Defense Nov 30, 2023 $3.99N/A (N/A)0 .. 20,0000%00:00 (00:00)Eager LemurEager Lemur
293 Apocalypse Party Nov 30, 2023 $9.99N/A (N/A)200,000 .. 500,0000%00:00 (00:00)Breaker GamesBreaker Games, Kepler Ghost
294 DemonCountdown Nov 30, 2023 $1.99N/A (N/A)0 .. 20,0000%00:00 (00:00)VicAgent, Víctor PlasinVicAgent
295 Cy: Cyberpunk Survivors Nov 29, 2023 $4.99N/A (N/A)0 .. 20,0000%00:00 (00:00)Morgan CarawayEldritch Tentacles Games
296 Hazelnut Hex Nov 29, 2023 $7.99N/A (N/A)0 .. 20,0000%00:00 (00:00)ChunderfinsChunderfins
297 Topspace Nov 25, 2023 $2.99N/A (N/A)0 .. 20,0000%00:00 (00:00)Topspace CrewTopspace Crew
298 Evil Diary Nov 24, 2023 $4.99N/A (N/A)0 .. 20,0000%00:00 (00:00)9Ratones, Angelo GamedevRatalaika Games S.L.
299 Galaxy Bricks Nov 23, 2023 $4.99N/A (N/A)0 .. 20,0000%00:00 (00:00)Emerald Knight Interactive LLCEmerald Knight Interactive LLC
300 Pixel Gun Master Nov 22, 2023 $9.99N/A (N/A)0 .. 20,0000%00:00 (00:00)HyperCube Corp.HyperCube Corp.
301 Final Exerion Nov 22, 2023 $14.99N/A (N/A)0 .. 20,0000%00:00 (00:00)Happymeal Inc.CITY CONNECTION
302 Splat Arena Nov 21, 2023 $1.99N/A (N/A)0 .. 20,0000%00:00 (00:00)StarSystemStudiosStarSystemStudios
303 Survivors Last Stand Nov 20, 2023 $1.99N/A (N/A)0 .. 20,0000%00:00 (00:00)Fortcullis GamesFortcullis Games
304 Battle Rockets Nov 20, 2023 $9.99N/A (N/A)0 .. 20,0000%00:00 (00:00)Gumbo MachineGumbo Machine, LLC
305 Touch Force Nov 19, 2023 $0.99N/A (N/A)20,000 .. 50,0000%00:00 (00:00)www.superstargames.co.ukGolocobiz Limited
306 The Line TD Nov 18, 2023 $4.99N/A (N/A)0 .. 20,0000%00:00 (00:00)Gliding Star Games文刀山宗
307 Xaphan - Battle Simulator Nov 18, 2023 FreeN/A (N/A)0 .. 20,0000%00:00 (00:00)One of manyOne of many
308 Adventure Tanks Nov 17, 2023 $9.99N/A (N/A)0 .. 20,0000%00:00 (00:00)EpiXR Games UGEpiXR Games UG
309 Warp Tango Nov 17, 2023 $1.99N/A (N/A)0 .. 20,0000%00:00 (00:00)Madsaur GamesMadsaur Games
310 Hyperlight Survivor Nov 17, 2023 $4.99N/A (N/A)0 .. 20,0000%00:00 (00:00)WittGamesWittGames
311 Edge Of Dead: Under A Uranium Sky Nov 16, 2023 $10.99N/A (N/A)0 .. 20,0000%00:00 (00:00)Inferno Muse InteractiveInferno Muse Interactive
312 Lizard Survivors: Battle for Hyperborea Nov 16, 2023 $0.99N/A (N/A)100,000 .. 200,0000%00:00 (00:00)Ephemeral InteractionAgafonoff
313 Skybreakers Nov 15, 2023 $6.29N/A (N/A)50,000 .. 100,0000%00:00 (00:00)Bingo StudioETime Studio, Merlion Games
314 GUNFIELD Nov 15, 2023 $3.99N/A (N/A)0 .. 20,0000%00:00 (00:00)ShivShiv
315 Hell Throne Nov 15, 2023 $15.99N/A (N/A)0 .. 20,0000%00:00 (00:00)BoomBitBoomBit
316 UFO ROBOT GRENDIZER – The Feast of the Wolves Nov 14, 2023 $19.99N/A (N/A)20,000 .. 50,0000%00:00 (00:00)EndroadMicroids
317 Poly Nov 14, 2023 FreeN/A (N/A)0 .. 20,0000%00:00 (00:00)Joe RickwoodEgg Carton Games
318 Hitler is my crush Nov 14, 2023 $0.99N/A (N/A)0 .. 20,0000%00:00 (00:00)DarkLight StudioDarkLight Studio
319 Cody's Nightmare Nov 13, 2023 $4.99N/A (N/A)0 .. 20,0000%00:00 (00:00)Afternoon GamesAfternoon Games
320 Heli-Cats Nov 13, 2023 $14.99N/A (N/A)0 .. 20,0000%00:00 (00:00)DrearyWearyDrearyWeary
321 Boing Bang Adventure Nov 13, 2023 $2.15N/A (N/A)0 .. 20,0000%00:00 (00:00)PitigamedevPitigamedev
322 Guns and Rush Nov 10, 2023 $4.99N/A (N/A)0 .. 20,0000%00:00 (00:00)MYPMYP
323 Big Fat Battle Nov 10, 2023 FreeN/A (N/A)0 .. 20,0000%00:00 (00:00)Robot SquidRobot Squid
324 Nociception ~ Voltaic Marketplace Nov 10, 2023 $4.99N/A (N/A)0 .. 20,0000%00:00 (00:00)Ethereal AirportSawney Arnett
325 Zombie Builder Defense 2 Nov 10, 2023 $9.99N/A (N/A)20,000 .. 50,0000%00:00 (00:00)Noham GamesNoham Games
326 Red Eye Nov 10, 2023 $0.99N/A (N/A)0 .. 20,0000%00:00 (00:00)Ghost_RUS GamesGhost_RUS Games
327 Monkey Splash!! Nov 10, 2023 $5.99N/A (N/A)0 .. 20,0000%00:00 (00:00)Solar FlareSolar Flare
328 Fox4Elite Nov 9, 2023 $18.99N/A (N/A)0 .. 20,0000%00:00 (00:00)Plato Game DevelopmentPlato Game Development
329 Berzerk: Recharged Nov 9, 2023 $9.99N/A (N/A)20,000 .. 50,0000%00:00 (00:00)SneakyBoxAtari
330 Liquid Space Dimension Nov 8, 2023 $4.99N/A (N/A)0 .. 20,0000%00:00 (00:00)Ben KramerPuppet Fox
331 Dark Invasion VR: Doomsday Nov 8, 2023 $12.99N/A (N/A)20,000 .. 50,0000%00:00 (00:00)Vadim Silver, Bastian PetersenVadim Silver, Bastian Petersen
332 Fellowship Nov 7, 2023 $6.99N/A (N/A)0 .. 20,0000%00:00 (00:00)Elraim StudioElraim Studio
333 TYPECAST Nov 7, 2023 $4.99N/A (N/A)0 .. 20,0000%00:00 (00:00)Gutter Arcade, Official ElectricGutter Arcade, Official Electric
334 空间大作战 Space Operation Nov 6, 2023 $2.99N/A (N/A)0 .. 20,0000%00:00 (00:00)天马工作室天马工作室
335 A-GIRL Nov 2, 2023 $0.99N/A (N/A)0 .. 20,0000%00:00 (00:00)makabakamakabaka
336 Radiant Silvergun Nov 2, 2023 $19.99N/A (N/A)0 .. 20,0000%00:00 (00:00)Live Wire, TreasureLive Wire
337 Slime 3K: Rise Against Despot Nov 2, 2023 $4.99N/A (N/A)50,000 .. 100,0000%00:00 (00:00)Konfa GamestinyBuild
338 Alien Hominid Invasion Nov 1, 2023 $19.99N/A (N/A)100,000 .. 200,0000%00:00 (00:00)The BehemothThe Behemoth
339 The Firm Nov 1, 2023 $5.99N/A (N/A)0 .. 20,0000%00:00 (00:00)My Digital GardenDP Image Design
340 Alien Hominid HD Nov 1, 2023 $11.99N/A (N/A)0 .. 20,0000%00:00 (00:00)The BehemothThe Behemoth
341 Too Many Cooks Nov 1, 2023 $4.99N/A (N/A)0 .. 20,0000%00:00 (00:00)Dr Jammy GamesDr Jammy Games
342 Wanted Shadows Oct 31, 2023 $1.49N/A (N/A)0 .. 20,0000%00:00 (00:00)Radhood OriginalsRadhood Publishing
343 Talented Oct 30, 2023 $3.99N/A (N/A)20,000 .. 50,0000%00:00 (00:00)TurtleFox GamesTurtleFox Games
344 WFD Oct 30, 2023 $7.99N/A (N/A)0 .. 20,0000%00:00 (00:00)HelloVRHelloVR
345 The Phoenix Initiative Oct 30, 2023 $5.99N/A (N/A)0 .. 20,0000%00:00 (00:00)Nobody CaresNobody Cares
346 Necromancers' Arena Oct 30, 2023 $14.99N/A (N/A)20,000 .. 50,0000%00:00 (00:00)Slime GamesSlime Games
347 Paper Dash - Ghost Hunt Oct 30, 2023 $9.99N/A (N/A)0 .. 20,0000%00:00 (00:00)EpiXR Games UGEpiXR Games UG
348 Police Heroes Oct 28, 2023 $2.99N/A (N/A)0 .. 20,0000%00:00 (00:00)Starmaster StudioStarmaster Studio
349 World War ToonZ Oct 28, 2023 $14.99N/A (N/A)0 .. 20,0000%00:00 (00:00)Erenst Meyer, Marcel HomanLockdown Studios
350 Marsh Oct 27, 2023 $4.99N/A (N/A)0 .. 20,0000%00:00 (00:00)TeeGKTeeGK
351 Chase Survivors Oct 26, 2023 $2.99N/A (N/A)0 .. 20,0000%00:00 (00:00)Minicactus GamesMinicactus Games
352 VISCO Collection Oct 26, 2023 $19.99N/A (N/A)0 .. 20,0000%00:00 (00:00)QUByte InteractiveQUByte Interactive, PixelHeart
353 Pudding Oct 24, 2023 $3.99N/A (N/A)0 .. 20,0000%00:00 (00:00)KatatemaKatatema
354 Squid Commando Oct 21, 2023 $19.99N/A (N/A)0 .. 20,0000%00:00 (00:00)ogsoftgamesogsoftgames
355 Witches' Hallow Oct 20, 2023 $3.99N/A (N/A)20,000 .. 50,0000%00:00 (00:00)League FactoryLeague Factory, Game Ventures Network
356 X-Force Under Attack Oct 20, 2023 $5.99N/A (N/A)0 .. 20,0000%00:00 (00:00)Cube GamesCube Games
357 Chaos on Wheels Oct 19, 2023 $14.99N/A (N/A)0 .. 20,0000%00:00 (00:00)Acodeon d.o.o.Acodeon Gaming LLC
358 Hero Survival Oct 18, 2023 $5.99N/A (N/A)0 .. 20,0000%00:00 (00:00)PigeonDevMeridian4
359 Popcorn Rocket Oct 17, 2023 $4.99N/A (N/A)20,000 .. 50,0000%00:00 (00:00)Battle Geek Plus, L.L.C.Battle Geek Plus, L.L.C.
360 Defense Cards Oct 15, 2023 $1.99N/A (N/A)0 .. 20,0000%00:00 (00:00)ZhangTianFeng, Morningstar StudiosMorningstar Studios
361 Gun World VR Oct 15, 2023 $15.99N/A (N/A)0 .. 20,0000%00:00 (00:00)Alto InteractiveAlto Interactive
362 Captain Goose Oct 14, 2023 $2.99N/A (N/A)0 .. 20,0000%00:00 (00:00)DiaMMax GamesDiaMMax Games
363 Boaty Tanks Oct 13, 2023 $9.99N/A (N/A)0 .. 20,0000%00:00 (00:00)EpiXR Games UGEpiXR Games UG
364 Sonny The Mad Man: Casual Arcade Shooter Oct 12, 2023 $2.99N/A (N/A)0 .. 20,0000%00:00 (00:00)The Lonely DeveloperHapGames
365 RedRaptor Oct 11, 2023 $4.99N/A (N/A)0 .. 20,0000%00:00 (00:00)Novax Games, Eastasiasoft LimitedEastasiasoft Limited
366 Astrosmash Oct 11, 2023 $14.99N/A (N/A)0 .. 20,0000%00:00 (00:00)BBG Entertainment GmbHBBG Entertainment GmbH
367 Spellsphere Oct 10, 2023 $4.99N/A (N/A)0 .. 20,0000%00:00 (00:00)Sledge169Sledge169
368 Special Ops: Operation Assault Oct 10, 2023 $5.99N/A (N/A)0 .. 20,0000%00:00 (00:00)Merla GamesMerla Games
369 Zodiac - Hellish Memory Oct 10, 2023 $4.99N/A (N/A)0 .. 20,0000%00:00 (00:00)JOZGamerJOZGames
370 Defendor Oct 9, 2023 $0.99N/A (N/A)0 .. 20,0000%00:00 (00:00)almostApixelalmostApixel
371 VAPOR TANKS Oct 9, 2023 $9.99N/A (N/A)0 .. 20,0000%00:00 (00:00)Basement Dweller GamesBasement Dweller Games
372 Tankitos Oct 8, 2023 $10.99N/A (N/A)0 .. 20,0000%00:00 (00:00)Bl0ckDaveBl0ckDave Studio
373 Raioh Oct 6, 2023 $6.99N/A (N/A)0 .. 20,0000%00:00 (00:00)Ontake WorkshopOntake Workshop
374 GAIA Survivors Oct 5, 2023 $2.99N/A (N/A)50,000 .. 100,0000%00:00 (00:00)TORITEN GAMESilyumi Co., Ltd.
375 Warf Oct 3, 2023 $4.99N/A (N/A)0 .. 20,0000%00:00 (00:00)CatchyCatchy
376 Battleship Oct 3, 2023 $3.99N/A (N/A)0 .. 20,0000%00:00 (00:00)Matthew LalandeDualbooted
377 Iron Dungeon Oct 3, 2023 $9.99N/A (N/A)0 .. 20,0000%00:00 (00:00)R_GamesMeridian4, R_Games
378 Habroxia Oct 3, 2023 $7.99N/A (N/A)0 .. 20,0000%00:00 (00:00)Lillymo GamesLillymo Games
379 Deputinization Sep 30, 2023 $5.97N/A (N/A)0 .. 20,0000%00:00 (00:00)Myttsi ZabavMyttsi Zabav
380 Prison Colony: A Convict's Tale Sep 29, 2023 $3.99N/A (N/A)0 .. 20,0000%00:00 (00:00)Björn GansterBjörn Ganster
381 Shape Shifter: Formations Sep 29, 2023 $6.99N/A (N/A)0 .. 20,0000%00:00 (00:00)Castec StudiosCastec Studios
382 Hat'venture Sep 29, 2023 $1.49N/A (N/A)0 .. 20,0000%00:00 (00:00)Geloz GamesGeloz Games
383 System Critical 2 Sep 28, 2023 $19.99N/A (N/A)0 .. 20,0000%00:00 (00:00)Old FormulasOld Formulas
384 The War Enders: First Strike | 终战:初击 Sep 28, 2023 $14.99N/A (N/A)0 .. 20,0000%00:00 (00:00)Crystal Heart's StudioCrystal Heart's Studio
385 Battlegrounds : At Enemy Gates Sep 28, 2023 $4.99N/A (N/A)0 .. 20,0000%00:00 (00:00)SmartOliveGamesSmartOliveGames
386 Terrain Explorer Sep 27, 2023 $2.99N/A (N/A)0 .. 20,0000%00:00 (00:00)Li YinLi Yin
387 ReLinked Sep 26, 2023 $1.99N/A (N/A)20,000 .. 50,0000%00:00 (00:00)Sempiternal RainSempiternal Rain
388 Highway Rampage Sep 25, 2023 $5.99N/A (N/A)0 .. 20,0000%00:00 (00:00)Lasso GamesLasso Games
389 Attack of the Karens Sep 25, 2023 $4.99N/A (N/A)0 .. 20,0000%00:00 (00:00)Studio PrimitiveStudio Primitive
390 Ray’z Arcade Chronology Sep 25, 2023 $49.99N/A (N/A)0 .. 20,0000%00:00 (00:00)M2 Co.,LTDTAITO CORP.
391 Cyber Mission Sep 25, 2023 $9.99N/A (N/A)0 .. 20,0000%00:00 (00:00)Gamenergy studioGamenergy studio
392 Tanks, But No Tanks Sep 25, 2023 $7.99N/A (N/A)0 .. 20,0000%00:00 (00:00)Set Sail GamesSet Sail Games
393 Last Devil - Family Friendly Sep 25, 2023 $10.99N/A (N/A)0 .. 20,0000%00:00 (00:00)ado, Sand TravelerMango Council
394 Chores of Corruption Sep 25, 2023 $4.99N/A (N/A)0 .. 20,0000%00:00 (00:00)Black HareBlack Hare
395 Time Wasters Sep 25, 2023 $4.99N/A (N/A)200,000 .. 500,0000%00:00 (00:00)Proton StudioProton Studio
396 Railgunners Sep 25, 2023 $2.99N/A (N/A)0 .. 20,0000%00:00 (00:00)Expresso Studios, Heavy SheepExpresso Studios
397 Rogue City: Casual Top Down Shooter Sep 25, 2023 $1.99N/A (N/A)0 .. 20,0000%00:00 (00:00)HapGamesHapGames
398 Maze Shooter Sep 24, 2023 $2.17N/A (N/A)0 .. 20,0000%00:00 (00:00)Li YinLi Yin
399 Gunslinger Sep 23, 2023 $5.99N/A (N/A)0 .. 20,0000%00:00 (00:00)雷氪沉浸雷氪沉浸
400 Missiles Away Sep 22, 2023 $1.99N/A (N/A)0 .. 20,0000%00:00 (00:00)KızılejderhaNext in Game
401 Chickado Sep 22, 2023 $2.99N/A (N/A)0 .. 20,0000%00:00 (00:00)Bugy GamesBugy Games
402 Bulanci Sep 21, 2023 FreeN/A (N/A)0 .. 20,0000%00:00 (00:00)SleepTeamSleepTeam
403 PAYDAY 3 Sep 21, 2023 $39.99N/A (N/A)2,000,000 .. 5,000,00010%00:37 (00:23)Starbreeze StudiosDeep Silver
404 Monster War 3D Sep 20, 2023 $10.99N/A (N/A)0 .. 20,0000%00:00 (00:00)Azamat OrazbayevAzamat Orazbayev
405 Trapped In Here With Me Sep 19, 2023 $0.99N/A (N/A)0 .. 20,0000%00:00 (00:00)James KorinJames Korin
406 Polyfury Sep 18, 2023 $8.99N/A (N/A)0 .. 20,0000%00:00 (00:00)Wayfarer GamesWayfarer Games
407 Eldritch Exterminators Sep 18, 2023 $4.99N/A (N/A)0 .. 20,0000%00:00 (00:00)Ephern GamesEphern Games
408 Save The World Sep 17, 2023 $2.99N/A (N/A)0 .. 20,0000%00:00 (00:00)Wang Yin RenWang Yin Ren
409 FireKrackers Sep 17, 2023 $0.99N/A (N/A)0 .. 20,0000%00:00 (00:00)Bankai SoftwareBankai Software
410 Symmodance Sep 15, 2023 $2.99N/A (N/A)0 .. 20,0000%00:00 (00:00)Mehmet Melih SoltMehmet Melih Solt
411 Golf VS Zombies Sep 15, 2023 $4.99N/A (N/A)0 .. 20,0000%00:00 (00:00)Sleepwalking PotatoesUntold Tales, Hyperstrange
412 HotDog TD Sep 14, 2023 $2.99N/A (N/A)0 .. 20,0000%00:00 (00:00)Vitalify AsiaVitalify Asia
413 REMEDIUM Sep 14, 2023 $17.99N/A (N/A)100,000 .. 200,0000%00:00 (00:00)Sobaka StudioESDigital Games
414 KAIKAN Sep 14, 2023 $4.08N/A (N/A)0 .. 20,0000%00:00 (00:00)zakichizakichi
415 GAZZLERS Sep 14, 2023 $9.99N/A (N/A)20,000 .. 50,0000%00:00 (00:00)Bolt Blaster GamesOdders Lab
416 Deep Nest Sep 13, 2023 $4.99N/A (N/A)0 .. 20,0000%00:00 (00:00)Grumpy DragonGrumpy Dragon
417 The Sheriff's Town Sep 13, 2023 $1.99N/A (N/A)0 .. 20,0000%00:00 (00:00)VutuneVutune
418 God Of Weapons Sep 12, 2023 $5.99N/A (N/A)100,000 .. 200,0000%00:00 (00:00)Archmage LabsArchmage Games Studio
419 只管战斗 Unorthodox game Sep 9, 2023 $4.99N/A (N/A)0 .. 20,0000%00:00 (00:00)ZHANG YIYAO-DAN
420 Bounty of One Sep 8, 2023 $6.99N/A (N/A)50,000 .. 100,0000%00:00 (00:00)OptizOnionOptizOnion
421 Undercroft warriors Sep 8, 2023 $2.99N/A (N/A)0 .. 20,0000%00:00 (00:00)FuzzyFuzzy
422 Raiden III x MIKADO MANIAX Sep 7, 2023 $29.99N/A (N/A)0 .. 20,0000%00:00 (00:00)MOSSNIS America, Inc.
423 Spectrum Forces Sep 7, 2023 $5.99N/A (N/A)0 .. 20,0000%00:00 (00:00)PUNKCAKE DelicieuxPUNKCAKE Delicieux
424 Revenge of ILCOIN Sep 6, 2023 $9.99N/A (N/A)0 .. 20,0000%00:00 (00:00)FOCKA GAMES, ILCOIN GAMESFOCKA GAMES
425 Enchanted Portals Sep 5, 2023 $19.99N/A (N/A)20,000 .. 50,0000%00:00 (00:00)Xixo Games StudioXixo Games Studio
426 EGG DROP Sep 5, 2023 FreeN/A (N/A)0 .. 20,0000%00:00 (00:00)GasGod GamesGasGod Games
427 Getting Out Alive Sep 4, 2023 $5.99N/A (N/A)0 .. 20,0000%00:00 (00:00)Sumant BagTrendbySumant
428 Damocles Gaze Sep 1, 2023 $5.99N/A (N/A)0 .. 20,0000%00:00 (00:00)PUNKCAKE DelicieuxPUNKCAKE Delicieux
429 Holua's Arcades Sep 1, 2023 $4.99N/A (N/A)0 .. 20,0000%00:00 (00:00)Raven Travel StudiosRaven Travel Studios
430 Hero of Fate Sep 1, 2023 $2.99N/A (N/A)50,000 .. 100,0000%00:00 (00:00)Planescape Game StudioWise Games
431 Gastro Force Sep 1, 2023 $6.99N/A (N/A)0 .. 20,0000%00:00 (00:00)Somepx, Fernando AraujoRatalaika Games S.L.
432 Rilla Shotgun Aug 31, 2023 $7.99N/A (N/A)0 .. 20,0000%00:00 (00:00)Burnt Tomato StudioBurnt Tomato Studio
433 Fun with the Fitzgeralds Aug 30, 2023 $7.99N/A (N/A)0 .. 20,0000%00:00 (00:00)Draydur StudioDraydur Studio
434 SCRUMLORDS Aug 29, 2023 $0.99N/A (N/A)0 .. 20,0000%00:00 (00:00)Ginger Bean InteractiveGinger Bean Interactive
435 Zombie Survivor: Undead City Attack Aug 25, 2023 $5.99N/A (N/A)50,000 .. 100,0000%00:00 (00:00)HapGamesHapGames
436 Elemental Survivors Aug 25, 2023 $4.99N/A (N/A)0 .. 20,000100%01:13 (01:13)Samobee GamesSamobee Games
437 The Void Aug 25, 2023 $1.99N/A (N/A)0 .. 20,0000%00:00 (00:00)CaptionshinerCaptionshiner
438 The Rewind Factory Aug 25, 2023 $4.99N/A (N/A)20,000 .. 50,0000%00:00 (00:00)Fire DevFire Entertainment
439 Fire Shark Aug 24, 2023 $7.99N/A (N/A)0 .. 20,0000%00:00 (00:00)Bitwave Games, ToaplanBitwave Games
440 Flying Shark Aug 24, 2023 $7.99N/A (N/A)0 .. 20,0000%00:00 (00:00)Bitwave Games, ToaplanBitwave Games
441 Jetpack Kiwi Aug 24, 2023 $2.15N/A (N/A)20,000 .. 50,0000%00:00 (00:00)PitigamedevPitigamedev
442 Slap Fight Aug 24, 2023 $7.99N/A (N/A)0 .. 20,0000%00:00 (00:00)Bitwave Games, ToaplanBitwave Games
443 Hellfire Aug 24, 2023 $7.99N/A (N/A)0 .. 20,0000%00:00 (00:00)Bitwave Games, ToaplanBitwave Games
444 Rotten Apple Aug 24, 2023 $14.99N/A (N/A)0 .. 20,0000%00:00 (00:00)VRilliant StudiosVRilliant Studios
445 Killon Aug 23, 2023 $10.99N/A (N/A)50,000 .. 100,0000%00:00 (00:00)Luois GamesLuois Games
446 X Invader Aug 23, 2023 $4.99N/A (N/A)20,000 .. 50,0000%00:00 (00:00)ALLAF GAMESALLAF GAMES
447 DEAD END MISSION Aug 21, 2023 $3.99N/A (N/A)0 .. 20,0000%00:00 (00:00)RednapGamesRednapGames
448 Paper Planet Aug 21, 2023 $14.99N/A (N/A)20,000 .. 50,0000%00:00 (00:00)Doodlegames2 Left Thumbs
449 Guardians of Lodino Forest Aug 21, 2023 $2.99N/A (N/A)50,000 .. 100,0000%00:00 (00:00)Adrien DITTRICKVoxPop Games, Inc.
450 Whisker Squadron: Survivor Aug 21, 2023 $11.24N/A (N/A)0 .. 20,0000%00:00 (00:00)Flippfly LLCFlippfly LLC
451 Kill The Crows Aug 20, 2023 $4.99N/A (N/A)50,000 .. 100,000100%00:25 (00:25)5minlab Corp.5minlab Corp.
452 Skyfighter Arcade Aug 19, 2023 $4.99N/A (N/A)50,000 .. 100,0000%00:00 (00:00)Two Kings 22Two Kings 22
453 GanaBlade Aug 19, 2023 $4.99N/A (N/A)0 .. 20,0000%00:00 (00:00)Liao Kai, LKK GAMELiao Kai
454 Retchid Aug 18, 2023 $24.99N/A (N/A)0 .. 20,0000%00:00 (00:00)From Beneath SoftwareFrom Beneath Software
455 Galaxy Kingdoms Aug 18, 2023 $6.99N/A (N/A)0 .. 20,0000%00:00 (00:00)Pretoriano_devColiseum Studio
456 Shooting Game Builder Aug 17, 2023 $24.99N/A (N/A)0 .. 20,0000%00:00 (00:00)SB_Games_PublicSB_Games_Public
457 Hot Guns: International Missions Aug 17, 2023 $2.99N/A (N/A)0 .. 20,0000%00:00 (00:00)Quantized Bitl0wpoly
458 M.E.R.C. Genesis Aug 16, 2023 $7.99N/A (N/A)0 .. 20,0000%00:00 (00:00)Evil BunnehEvil Bunneh
459 Darker Skies: Remastered for PC Aug 16, 2023 $11.99N/A (N/A)0 .. 20,0000%00:00 (00:00)Steel Arts Software Ltd.Steel Arts Software Ltd.
460 Voidside Aug 16, 2023 $7.99N/A (N/A)0 .. 20,0000%00:00 (00:00)Jack Rafferty (A.K.A. Spacepiano)Spacepiano Games
461 Five Days of Hell Aug 15, 2023 $0.99N/A (N/A)20,000 .. 50,0000%00:00 (00:00)FasnepFasnep
462 Ogo Aug 14, 2023 $4.99N/A (N/A)0 .. 20,0000%00:00 (00:00)Tubby Turtle StudiosTubby Turtle Studios
463 Touhou Juuouen 〜 Unfinished Dream of All Living Ghost. Aug 13, 2023 $14.99N/A (N/A)50,000 .. 100,0000%00:00 (00:00)上海アリス幻樂団Mediascape Co., Ltd.
464 EON Fighter Aug 13, 2023 $5.99N/A (N/A)0 .. 20,0000%00:00 (00:00)Square WheelSquare Wheel
465 Chaotic Pursuit Aug 11, 2023 $2.99N/A (N/A)0 .. 20,0000%00:00 (00:00)VutuneVutune
466 Oblivion Eagle Aug 9, 2023 $9.99N/A (N/A)0 .. 20,0000%00:00 (00:00)Nick DonnoliNick Donnoli
467 Air Offense Command Aug 8, 2023 $6.99N/A (N/A)0 .. 20,0000%00:00 (00:00)Ensit MediaTrickBunny
468 Swarmcade Aug 8, 2023 $4.99N/A (N/A)0 .. 20,0000%00:00 (00:00)Giggles GamesGiggles Games
469 OMA - One Man Army Aug 8, 2023 $2.99N/A (N/A)0 .. 20,0000%00:00 (00:00)TA StudiosTA Studios
470 HiveCorp Aug 8, 2023 $7.99N/A (N/A)0 .. 20,0000%00:00 (00:00)Counterspell StudiosCounterspell Studios
471 Escape From Nalaxion Aug 7, 2023 $0.99N/A (N/A)0 .. 20,0000%00:00 (00:00)Tom's Feral Cat GamesTom's Feral Cat Games
472 Red Titans Aug 7, 2023 $4.99N/A (N/A)0 .. 20,0000%00:00 (00:00)TEAM Black Hat Robot TEAM Black Hat Robot
473 Soul Stalker Aug 4, 2023 $4.99N/A (N/A)0 .. 20,0000%00:00 (00:00)Radhood AdvanceRadhood Publishing
474 AirBorne Sea Aug 4, 2023 $9.99N/A (N/A)50,000 .. 100,0000%00:00 (00:00)WerFEST SoftwareWerFEST Software
475 Super Space Club Aug 4, 2023 $14.99N/A (N/A)0 .. 20,0000%00:00 (00:00)GrahamOfLegendGrahamOfLegend
476 Refidenptio Aug 4, 2023 $4.99N/A (N/A)0 .. 20,0000%00:00 (00:00)Nezashiron GamesNezashiron Games
477 Lethal Operation Episode 3 Lethal Arms of Justice Aug 3, 2023 $17.99N/A (N/A)0 .. 20,0000%00:00 (00:00)DaisessenDaisessen
478 Princess Survivors Aug 3, 2023 $14.99N/A (N/A)0 .. 20,0000%00:00 (00:00)azucatazucat
479 Antecrypt Aug 3, 2023 $5.99N/A (N/A)0 .. 20,0000%00:00 (00:00)PUNKCAKE DélicieuxPUNKCAKE Délicieux
480 Diebrary Aug 1, 2023 $4.99N/A (N/A)0 .. 20,0000%00:00 (00:00)Other Ocean InteractiveOther Ocean Group
481 BeatShot Aug 1, 2023 $4.99N/A (N/A)0 .. 20,0000%00:00 (00:00)Markoleptic GamesMarkoleptic Games
482 Moolii's Dreamland Aug 1, 2023 $7.99N/A (N/A)0 .. 20,0000%00:00 (00:00)WOWOH CATOKJOY
483 Bloc-Age: Path of the Oracle Jul 31, 2023 $24.99N/A (N/A)0 .. 20,0000%00:00 (00:00)Atomic Hick SoftwareAtomic Hick Software
484 Flesh Jul 31, 2023 $9.99N/A (N/A)0 .. 20,0000%00:00 (00:00)PollapeePollapee
485 MF-01 Aerostrike Jul 31, 2023 $5.99N/A (N/A)0 .. 20,0000%00:00 (00:00)LMG3864 GamesLMG3864 Games
486 Forest Frenzy Jul 29, 2023 $2.99N/A (N/A)0 .. 20,0000%00:00 (00:00)Tegridy Made GamesTegridy Made Games
487 Demonic Supremacy Jul 28, 2023 $6.99N/A (N/A)0 .. 20,0000%00:00 (00:00)ChiliDog InteractiveChiliDog Interactive
488 Nova Strike Jul 27, 2023 $9.99N/A (N/A)0 .. 20,0000%00:00 (00:00)Sanuk GamesNacon
489 SPACEJUMP Jul 27, 2023 $8.99N/A (N/A)20,000 .. 50,0000%00:00 (00:00)jUNKIEHandMade Games
490 HYPER METEOR Jul 27, 2023 $7.99N/A (N/A)0 .. 20,0000%00:00 (00:00)Vertex PopVertex Pop
491 Wanted Guns Jul 27, 2023 $4.99N/A (N/A)0 .. 20,0000%00:00 (00:00)Iridon Interactive, Nerlaska StudiosSkeleton Crew Labs
492 Zombie Hunter: D-Day Jul 26, 2023 $8.99N/A (N/A)50,000 .. 100,0000%00:00 (00:00)CLE GamesCFK Co., Ltd.
493 Flock of the Low God Jul 26, 2023 $9.99N/A (N/A)0 .. 20,0000%00:00 (00:00)Top Right CornerTRC DMI
494 Full Moon Rush Jul 25, 2023 $4.99N/A (N/A)0 .. 20,0000%00:00 (00:00)SilkwormMeridian4
495 Probo Rush Jul 25, 2023 $4.99N/A (N/A)0 .. 20,0000%00:00 (00:00)SilkwormMeridian4
496 Super Catboy Jul 24, 2023 $4.99N/A (N/A)0 .. 20,0000%00:00 (00:00)PixelpogoAssemble Entertainment
497 Recordance Jul 24, 2023 $3.99N/A (N/A)0 .. 20,0000%00:00 (00:00)NICKPARSONS3DNICKPARSONS3D
498 Return Jul 24, 2023 $1.99N/A (N/A)0 .. 20,0000%00:00 (00:00)Yeni, TG Lee, Seyoung YangYeni
499 Escape Condition Jul 23, 2023 $12.99N/A (N/A)0 .. 20,0000%00:00 (00:00)Steve BroomeSteve Broome, Obsed, L.L.C.
500 Away Times Jul 20, 2023 $0.99N/A (N/A)0 .. 20,0000%00:00 (00:00)Noob8890Noob8890
501 Darkzan Arena Jul 20, 2023 $9.99N/A (N/A)0 .. 20,0000%00:00 (00:00)MrBoscheinenMrBoscheinen
502 Zombie Exterminator Jul 20, 2023 $1.99N/A (N/A)0 .. 20,0000%00:00 (00:00)Huhi GamesHuhi Games
503 Doomsday Jetlag Jul 19, 2023 $6.99N/A (N/A)0 .. 20,0000%00:00 (00:00)New England InteractiveNew England Interactive
504 Super Tank Attack Jul 19, 2023 $0.99N/A (N/A)0 .. 20,0000%00:00 (00:00)Tudou GamesTudou Games
505 Roto Force Jul 18, 2023 $7.99N/A (N/A)0 .. 20,0000%00:00 (00:00)Accidently AwesomePID Games, East2West Games
506 Re-Bounder Jul 18, 2023 $2.99N/A (N/A)0 .. 20,0000%00:00 (00:00)Gremlin GraphicsPixel Games UK
507 I HATE (other) Animals! Jul 17, 2023 $0.99N/A (N/A)0 .. 20,0000%00:00 (00:00)art-0art-0
508 MUA Jul 17, 2023 $9.99N/A (N/A)0 .. 20,0000%00:00 (00:00)BangsFactoryBangsFactory
509 Shape Shipter Jul 17, 2023 $5.99N/A (N/A)0 .. 20,0000%00:00 (00:00)Jorge T. VargasJorge T. Vargas
510 Aldro Jul 14, 2023 $4.99N/A (N/A)0 .. 20,0000%00:00 (00:00)Six Point Studios LLCSix Point Studios LLC
511 Goobies Jul 14, 2023 $5.99N/A (N/A)50,000 .. 100,0000%00:00 (00:00)KnifesKnifes
512 Escape from Demon Island Jul 14, 2023 $1.99N/A (N/A)0 .. 20,0000%00:00 (00:00)川流游戏川流游戏
513 Dark Past Darker Future Jul 14, 2023 $3.99N/A (N/A)0 .. 20,0000%00:00 (00:00)Storm Man Games, Keegan SpeidelStorm Man Games
514 Swarm Survivor Jul 14, 2023 $4.99N/A (N/A)0 .. 20,0000%00:00 (00:00)MegalOh! GamesPandaroo Interactive
515 Ricky's Furry Duck Hunt Jul 13, 2023 $0.99N/A (N/A)0 .. 20,0000%00:00 (00:00)Ricky Rat ComicsRicky Rat Comics
516 Crazy Flasher 7 Mercenary Empire(stand-alone Version) Jul 8, 2023 $3.99N/A (N/A)20,000 .. 50,0000%00:00 (00:00)Andy LawAndy Law
517 Feeble Light Jul 7, 2023 $4.99N/A (N/A)0 .. 20,0000%00:00 (00:00)Panda Indie Studio, Eastasiasoft LimitedEastasiasoft Limited
518 Drag the Dead Jul 7, 2023 $19.99N/A (N/A)0 .. 20,0000%00:00 (00:00)DavidMurdoch.ArtDavidMurdoch.Art
519 Waspkeeper Jul 7, 2023 $0.99N/A (N/A)0 .. 20,0000%00:00 (00:00)LGVLGV
520 Mars Survivors Jul 5, 2023 $3.49N/A (N/A)0 .. 20,0000%00:00 (00:00)Leguas IntrepidasLeguas Intrepidas
521 Bricks Breaker | Uncatchable Homers Master Jul 5, 2023 $4.99N/A (N/A)0 .. 20,0000%00:00 (00:00)Ahmad Abbass, Shahin AbbaasUniMeta
522 Monster Rampage VR Jul 4, 2023 $9.99N/A (N/A)0 .. 20,0000%00:00 (00:00)Alice Games FZEAlice Games FZE
523 Light Speed Ride Out Jul 3, 2023 $4.99N/A (N/A)0 .. 20,0000%00:00 (00:00)brimselGamesbrimselGames
524 Crazy Rabbits Jun 30, 2023 $3.99N/A (N/A)0 .. 20,0000%00:00 (00:00)PigletStudios, BaconDevPiglet Studios, BaconDev
525 Typing Bullets Jun 30, 2023 $1.99N/A (N/A)0 .. 20,0000%00:00 (00:00)cipcip
526 Hell Trigger Jun 29, 2023 $9.99N/A (N/A)0 .. 20,0000%00:00 (00:00)Michael Richard LannonMichael Richard Lannon
527 Re-Loaded Jun 29, 2023 $7.99N/A (N/A)0 .. 20,0000%00:00 (00:00)Gremlin Interactive, Jordan Freeman GroupFunbox Media Ltd, ZOOM Platform Media
528 Martian Panic Jun 29, 2023 $14.99N/A (N/A)20,000 .. 50,0000%00:00 (00:00)NYX Digital LtdFunbox Media Ltd
529 Pew Pew Rocket! Jun 26, 2023 $0.99N/A (N/A)0 .. 20,0000%00:00 (00:00)StarSystemStudiosStarSystemStudioS, HOGuru Games!
530 Where is Mr Cloud Jun 25, 2023 $0.59N/A (N/A)0 .. 20,0000%00:00 (00:00)AbysconAbyscon
531 Gravity Waves Jun 23, 2023 $4.99N/A (N/A)20,000 .. 50,0000%00:00 (00:00)James WilderJames Wilder
532 CREATURES Jun 23, 2023 $11.24N/A (N/A)20,000 .. 50,0000%00:00 (00:00)RaxPlay, CREATURESRaxPlay, CREATURES
533 Epic Pandemonium Jun 23, 2023 $5.99N/A (N/A)0 .. 20,0000%00:00 (00:00)Animas GamesSolid Ediciones
534 Cardiac Powder Jun 22, 2023 $2.99N/A (N/A)0 .. 20,0000%00:00 (00:00)EdalbungEdalbung
535 Ayako's Mission Jun 22, 2023 $0.99N/A (N/A)0 .. 20,0000%00:00 (00:00)Anamik MajumdarAnamik Majumdar
536 My Home/Zombie Center Jun 21, 2023 $2.99N/A (N/A)0 .. 20,0000%00:00 (00:00)onazimaimaionazimaimai
537 LUMbA: HANGOVER Jun 20, 2023 $4.99N/A (N/A)0 .. 20,0000%00:00 (00:00)Team LumbaTeam Lumba
538 Invaders from the Third Dimension Jun 19, 2023 $0.99N/A (N/A)50,000 .. 100,0000%00:00 (00:00)Nile River Software LLCNile River Software LLC
539 Biomech Hell Jun 19, 2023 $4.89N/A (N/A)0 .. 20,0000%00:00 (00:00)SEEPSEEP
540 Wild West Pistolero Jun 19, 2023 $0.99N/A (N/A)0 .. 20,0000%00:00 (00:00)Mario BeeMario Bee
541 Tank And Roll Jun 19, 2023 $1.99N/A (N/A)0 .. 20,0000%00:00 (00:00)EdnakNPEdnakNP
542 TROUBLE JUICE Jun 19, 2023 $4.99N/A (N/A)0 .. 20,0000%00:00 (00:00)dietzribidietzribi
543 Chronicles of Vipers Jun 19, 2023 $2.99N/A (N/A)0 .. 20,0000%00:00 (00:00)Brenntkopf Studio KharkivBrenntkopf Studio Publishing
544 Senpai Arena Jun 16, 2023 $3.99N/A (N/A)0 .. 20,0000%00:00 (00:00)StrelitziaGamesStrelitziaGames
545 Kenny 7 Jun 16, 2023 FreeN/A (N/A)0 .. 20,0000%00:00 (00:00)Tryph studioTryph studio
546 Nevultra Jun 15, 2023 $5.99N/A (N/A)0 .. 20,0000%00:00 (00:00)Zoblin MultimediaZoblin Multimedia
547 Heavy Metal Titans Jun 15, 2023 $0.99N/A (N/A)0 .. 20,0000%00:00 (00:00)Squashed Bug Games, LLCSquashed Bug Games, LLC
548 ProtoCorgi Jun 15, 2023 $6.99N/A (N/A)0 .. 20,0000%00:00 (00:00)Kemono GamesRavenscourt
549 Drums Rock Jun 14, 2023 $19.99N/A (N/A)0 .. 20,0000%00:00 (00:00)Garage51Garage51
550 |][-@I7 in vitro #デッド・インヴィトロ Jun 13, 2023 $1.99N/A (N/A)0 .. 20,0000%00:00 (00:00)きゅぷら研究室きゅぷら研究室
551 OVERWHELMED Jun 13, 2023 $4.99N/A (N/A)0 .. 20,0000%00:00 (00:00)Blukulélé StudioBlukulélé Studio
552 Marabundle Jun 12, 2023 $9.99N/A (N/A)0 .. 20,0000%00:00 (00:00)Astral Game Studio, Clops Game Studio, Ops Game Studio, Wired Dreams StudioAMAGAMES
553 Voidigo Jun 8, 2023 $18.99N/A (N/A)100,000 .. 200,0000%00:00 (00:00)semiworksemiwork
554 Army of Ruin Jun 8, 2023 $7.99N/A (N/A)50,000 .. 100,0000%00:00 (00:00)Milkstone StudiosMilkstone Studios
555 20 Minutes Till Dawn Jun 8, 2023 $4.99N/A (N/A)1,000,000 .. 2,000,0002.33%01:03 (00:31)flanneErabit, flanne
556 Bavovna included! Jun 8, 2023 $6.99N/A (N/A)0 .. 20,0000%00:00 (00:00)Ironbellys CrewIronbellys Crew
557 Thrusta X Jun 6, 2023 $4.99N/A (N/A)0 .. 20,0000%00:00 (00:00)herd of pixelsherd of pixels
558 Eigengrau Jun 5, 2023 $9.99N/A (N/A)0 .. 20,0000%00:00 (00:00)Martin MauersicsMartin Mauersics
559 NANOFORCE tactical surgeon fighter Jun 4, 2023 $5.99N/A (N/A)0 .. 20,0000%00:00 (00:00)Alec's factoryAlec's factory
560 Stellar Echoes Jun 2, 2023 $1.99N/A (N/A)0 .. 20,0000%00:00 (00:00)Li YinLi Yin
561 That's My Space Jun 1, 2023 $4.99N/A (N/A)0 .. 20,0000%00:00 (00:00)Cezar Roveda CoelhoCezar Roveda Coelho
562 Big Byz Wars Jun 1, 2023 $12.99N/A (N/A)0 .. 20,0000%00:00 (00:00)Tommy Gun WalrusTommy Gun Walrus Studio
563 Firewall Jun 1, 2023 $0.99N/A (N/A)20,000 .. 50,0000%00:00 (00:00)Cyb3r_GamezCyb3r_Technologies
564 Monsters 'til Midnight May 31, 2023 $4.99N/A (N/A)0 .. 20,0000%00:00 (00:00)Retro DreamerRetro Dreamer
565 Just Skill Shooter May 31, 2023 $9.99N/A (N/A)0 .. 20,0000%00:00 (00:00)GamesforgamesGamesforgames
566 COSMICSTRIKE - The last Sub Sector May 30, 2023 $9.99N/A (N/A)0 .. 20,0000%00:00 (00:00)Pixel Horizon GamesPixel Horizon Games
567 Magical Fairy Force - Champion Edition May 29, 2023 $4.99N/A (N/A)0 .. 20,0000%00:00 (00:00)Phaser Cat Games LLCPhaser Cat Games LLC
568 Lord Of Terror May 28, 2023 $0.99N/A (N/A)0 .. 20,0000%00:00 (00:00)SimulatedFantasySimulatedFantasy
569 The Chronicles: Wasteland Assault May 27, 2023 $4.99N/A (N/A)0 .. 20,0000%00:00 (00:00)Golden Ox Studios, TecshieldGolden Ox Studios
570 Nyan-Nyan Punch! May 26, 2023 $0.99N/A (N/A)0 .. 20,0000%00:00 (00:00)NomaryPsychoFlux Entertainment
571 Crazy The Clown's Balloon Animal Massacre May 26, 2023 $0.99N/A (N/A)20,000 .. 50,0000%00:00 (00:00)Tom's Feral Cat GamesTom's Feral Cat Games
572 Hijack Overdrive May 26, 2023 $14.99N/A (N/A)0 .. 20,0000%00:00 (00:00)Meteor StudiosMeteor Studios
573 Pengun May 26, 2023 $2.99N/A (N/A)0 .. 20,0000%00:00 (00:00)TTeokLeaf, WojtekTTeokLeaf
574 Super Virus Defense May 26, 2023 $3.99N/A (N/A)0 .. 20,0000%00:00 (00:00)Mad Noodle StudiosMad Noodle Studios
575 ZOMBIAX EVIL May 25, 2023 $4.99N/A (N/A)20,000 .. 50,0000%00:00 (00:00)WGI GAMINGWGI GAMING
576 BATSUGUN Saturn Tribute Boosted May 24, 2023 $29.99N/A (N/A)0 .. 20,0000%00:00 (00:00)CITY CONNECTIONCITY CONNECTION
577 Super Astrovade May 24, 2023 $2.99N/A (N/A)0 .. 20,0000%00:00 (00:00)Matthew KelleyMatthew Kelley
578 AngelStrike May 24, 2023 $13.99N/A (N/A)0 .. 20,0000%00:00 (00:00)HomeLight GamesHomeLight Games
579 Eclipse Survivors May 24, 2023 $2.99N/A (N/A)0 .. 20,0000%00:00 (00:00)Oğuzhan EmirzeoğluOğuzhan Emirzeoğlu
580 Dojo Assault May 24, 2023 N/AN/A (N/A)20,000 .. 50,0000%00:00 (00:00)arcadestylearcadestyle
581 TOP DOG May 23, 2023 $9.99N/A (N/A)0 .. 20,0000%00:00 (00:00)MorfeoDevMorfeoDev
582 Glitch Busters: Stuck On You May 22, 2023 $19.99N/A (N/A)0 .. 20,0000%00:00 (00:00)Toylogic Inc.Skybound Games
583 Rocket Assault: Downhill Rush May 20, 2023 $9.99N/A (N/A)0 .. 20,0000%00:00 (00:00)Giovanni ElgertGiovanni Elgert
584 Dead City May 19, 2023 $6.99N/A (N/A)0 .. 20,0000%00:00 (00:00)NovalinkNovalink
585 Bullet Time Battle May 19, 2023 $1.99N/A (N/A)0 .. 20,0000%00:00 (00:00)Motion Game StudioMotion Game Studio
586 Rune It Out May 19, 2023 $3.99N/A (N/A)0 .. 20,0000%00:00 (00:00)Ill-Fated StudiosIll-Fated Studio
587 AQUA KITTY UDX May 18, 2023 $6.99N/A (N/A)0 .. 20,0000%00:00 (00:00)TIKIPODTIKIPOD
588 Hexapoda May 18, 2023 $12.99N/A (N/A)20,000 .. 50,0000%00:00 (00:00)TOMAGameStudioTOMAGameStudio
589 Magic Machine Gun May 17, 2023 $3.99N/A (N/A)0 .. 20,0000%00:00 (00:00)Claypot StudioClaypot Studio
590 Castle Of Alchemists May 17, 2023 $14.99N/A (N/A)20,000 .. 50,0000%00:00 (00:00)Team MachiavelliCatoptric Games, IndieArk
591 The American War May 17, 2023 $5.99N/A (N/A)0 .. 20,0000%00:00 (00:00)Posh Toffee GamesPosh Toffee Games
592 Scramble All Fighters May 16, 2023 $2.99N/A (N/A)0 .. 20,0000%00:00 (00:00)ihobo gamesGrindstone
593 Wee Tanks! May 16, 2023 $9.99N/A (N/A)20,000 .. 50,0000%00:00 (00:00)Studio KitStudio Kit
594 Burst Hero May 15, 2023 $2.99N/A (N/A)0 .. 20,0000%00:00 (00:00)YaYa GameYaYa Game
595 Primal Survivors May 12, 2023 $4.99N/A (N/A)0 .. 20,0000%00:00 (00:00)Old School Vibes, Gray BossOld School Vibes, Gray Boss
596 Redeemart: A Convenient Apocalypse May 12, 2023 $11.99N/A (N/A)0 .. 20,0000%00:00 (00:00)Whatever's Right StudiosWhatever's Right Studios
597 Assault On Proxima May 12, 2023 $9.99N/A (N/A)0 .. 20,0000%00:00 (00:00)Delta Video GamesDelta Video Games
598 Herodes May 11, 2023 $4.99N/A (N/A)0 .. 20,0000%00:00 (00:00)TecnoloGilsQUByte Interactive
599 Outpost May 11, 2023 $3.99N/A (N/A)20,000 .. 50,0000%00:00 (00:00)BananaDogGamesBananaDogGames
600 DIVINE PEARL: Survivors May 11, 2023 $4.99N/A (N/A)20,000 .. 50,0000%00:00 (00:00)Power Up to MaximumPower Up to Maximum
601 UFO: The Ranch May 9, 2023 $0.99N/A (N/A)0 .. 20,0000%00:00 (00:00)Pablo RodriguezAlternative Reality Games 2015
602 Swarm May 9, 2023 $24.99N/A (N/A)0 .. 20,0000%00:00 (00:00)Greensky GamesGreensky Games
603 Violent Selection May 6, 2023 $0.99N/A (N/A)0 .. 20,0000%00:00 (00:00)LGVLGV
604 Just Survive May 5, 2023 $0.99N/A (N/A)0 .. 20,0000%00:00 (00:00)BorittoOldSix
605 MUSCLE GIANTS May 5, 2023 $8.99N/A (N/A)0 .. 20,0000%00:00 (00:00)Y.KageyamaY.Kageyama
606 THE LAST HUMAN IS A BIKER May 4, 2023 $1.99N/A (N/A)0 .. 20,0000%00:00 (00:00)FLOWERFIELD GamesFLOWERFIELD Games
607 The Catapult VR May 4, 2023 $4.99N/A (N/A)0 .. 20,0000%00:00 (00:00)BYV GAMES LtdBYV GAMES Ltd
608 Guardians Survival May 4, 2023 $3.99N/A (N/A)0 .. 20,0000%00:00 (00:00)Calm FoxCalm Fox
609 Psionic Awake May 4, 2023 $4.99N/A (N/A)20,000 .. 50,0000%00:00 (00:00)Mighty CatINDIECN
610 The Power Latch Kid May 3, 2023 $2.99N/A (N/A)0 .. 20,0000%00:00 (00:00)Lazy Brain GamesLazy Brain Games, Zebra Zine
611 Lost To Riches May 1, 2023 $2.99N/A (N/A)20,000 .. 50,0000%00:00 (00:00)Null Exception StudiosNull Exception Studios
612 The Paper Arcade May 1, 2023 $5N/A (N/A)0 .. 20,0000%00:00 (00:00)3ichael 7ambert, A Rocket’s Intensity3ichael 7ambert
613 DUCKLYTE May 1, 2023 $0.49N/A (N/A)0 .. 20,0000%00:00 (00:00)LGVLGV
614 Zero-G-Racer : Drone FPV arcade game May 1, 2023 $9.99N/A (N/A)50,000 .. 100,0000%00:00 (00:00)Zero-G-RacerZero-G-Racer
615 Ninja Golf 2 Apr 30, 2023 $0.89N/A (N/A)0 .. 20,0000%00:00 (00:00)R.ChristianR.Christian
616 MECH PUNK Apr 29, 2023 $0.99N/A (N/A)0 .. 20,0000%00:00 (00:00)Mr. PinkMr. Pink
617 Super Kill-BOI 9000 Apr 27, 2023 $1.99N/A (N/A)0 .. 20,0000%00:00 (00:00)PlayWithFurciferPlayWithFurcifer
618 Sagittarius Apr 25, 2023 $7.99N/A (N/A)0 .. 20,0000%00:00 (00:00)Monsuta ABMonsuta AB
619 Verisim Skies Apr 24, 2023 $4.99N/A (N/A)0 .. 20,0000%00:00 (00:00)Carry-On GamesCarry-On Games
620 Samurai Survivors Apr 24, 2023 $4.99N/A (N/A)0 .. 20,0000%00:00 (00:00)WolderadoWolderado
621 PhaigeX: Hyperspace Survivors Apr 24, 2023 $4.99N/A (N/A)0 .. 20,0000%00:00 (00:00)Traitorean GamesTraitorean Games
622 Bullet Hell Monday: Black Apr 23, 2023 $8.99N/A (N/A)0 .. 20,0000%00:00 (00:00)Masayuki ItoMasayuki Ito
623 Hope's End Apr 21, 2023 FreeN/A (N/A)0 .. 20,0000%00:00 (00:00)Explorers Guild GamesExplorers Guild Games
624 Wild Dogs Apr 20, 2023 $9.99N/A (N/A)20,000 .. 50,0000%00:00 (00:00)2ndBoss2ndBoss
625 Dead Unending Apr 20, 2023 $9.99N/A (N/A)0 .. 20,0000%00:00 (00:00)Tyler HudsonTylario
626 SHOOTING STAR VR Apr 20, 2023 $14.99N/A (N/A)0 .. 20,0000%00:00 (00:00)Looksten Inc.Looksten Inc.
627 Soulvester VS Lil' Beezey Apr 17, 2023 $0.99N/A (N/A)0 .. 20,0000%00:00 (00:00)Chaz CarterMadeByChaz
628 ENERGY SURVIVORS Apr 17, 2023 $2.99N/A (N/A)0 .. 20,0000%00:00 (00:00)Robotizar GamesRobotizar Games
629 Dominus Solaris Apr 15, 2023 $2.49N/A (N/A)0 .. 20,0000%00:00 (00:00)DanubiumDanubium
630 Bosorka Apr 14, 2023 $5.99N/A (N/A)20,000 .. 50,0000%00:00 (00:00)Sengi GamesSengi Games
631 Auto Cast Apr 14, 2023 $4.99N/A (N/A)20,000 .. 50,0000%00:00 (00:00)Unassailable GamesUnassailable Games
632 We Will Get revenge Apr 14, 2023 $6.99N/A (N/A)20,000 .. 50,0000%00:00 (00:00)Jonathan Fortino Hernandez Silva, Lucila GiammatteoJonathan Fortino Hernandez Silva
633 The World of The Candy Girl Apr 14, 2023 $2.99N/A (N/A)0 .. 20,0000%00:00 (00:00)HVHV
634 Black Magic (C64/CPC/Spectrum) Apr 13, 2023 $4.99N/A (N/A)0 .. 20,0000%00:00 (00:00)Datasoft, Inc.Pixel Games UK
635 Dogfight Apr 13, 2023 $9.99N/A (N/A)0 .. 20,0000%00:00 (00:00)Katsu Entertainment LLCHound Picked Games
636 Ernesto's Asteroid Arcade Apr 13, 2023 $3N/A (N/A)0 .. 20,0000%00:00 (00:00)xen-42xen-42
637 Mike and the Zombies Apr 12, 2023 $0.99N/A (N/A)0 .. 20,0000%00:00 (00:00)Arthur de Souza VasconcelosUnleavened Games
638 Crimson Dawn Apr 11, 2023 $3.99N/A (N/A)200,000 .. 500,0000%00:00 (00:00)Purple LakePurple Lake
639 Simple Sky Apr 11, 2023 $2.99N/A (N/A)0 .. 20,0000%00:00 (00:00)I NodI Nod
640 Soundodger 2 Apr 10, 2023 $19.99N/A (N/A)0 .. 20,0000%00:00 (00:00)Studio BeanStudio Bean
641 Super Smash Asteroids Apr 10, 2023 $4.99N/A (N/A)0 .. 20,0000%00:00 (00:00)SwitchbackSwitchback
642 Farm Under Fire Apr 8, 2023 $0.99N/A (N/A)0 .. 20,0000%00:00 (00:00)Furious Production LTDFurious Production LTD
643 Hunter Project: Operation Survive Apr 7, 2023 $11.99N/A (N/A)0 .. 20,0000%00:00 (00:00)Spearhead Interactive, Griffon InteractiveSpearhead Interactive, Griffon Interactive
644 Scroter Apr 7, 2023 $1.99N/A (N/A)20,000 .. 50,0000%00:00 (00:00)Traviteam GamesTraviteam Games
645 Shooting Saucer Apr 6, 2023 $4.99N/A (N/A)0 .. 20,0000%00:00 (00:00)SinksAdventureSinksAdventure
646 Orbital Bombardment Apr 5, 2023 $1.99N/A (N/A)0 .. 20,0000%00:00 (00:00)Banibot GamesBanibot Games
647 Escape From The Sun Apr 3, 2023 $4.99N/A (N/A)0 .. 20,0000%00:00 (00:00)SpaceGamesSpaceGames
648 Mega Demon Blaster Apr 3, 2023 $3.99N/A (N/A)0 .. 20,0000%00:00 (00:00)AlfalouAlfalou
649 Brain Damage Apr 3, 2023 $0.99N/A (N/A)20,000 .. 50,0000%00:00 (00:00)GearlooseGearloose
650 Day of the dead Apr 3, 2023 $2.99N/A (N/A)0 .. 20,0000%00:00 (00:00)LingoGamesProductionLingoGamesProductions
651 Eaten by Darkness Apr 1, 2023 $0.99N/A (N/A)500,000 .. 1,000,0000%00:00 (00:00)Black Cardioid GamesBlack Cardioid Games
652 GunSuit Guardians Mar 31, 2023 $2.99N/A (N/A)0 .. 20,0000%00:00 (00:00)Matt GlanvilleMatt Glanville
653 Blind and Schizophrenic Mar 31, 2023 $0.99N/A (N/A)0 .. 20,0000%00:00 (00:00)ProgentiorWorksProgenitorWorks
654 Cycle Chaser H-5 Mar 31, 2023 $5.19N/A (N/A)20,000 .. 50,0000%00:00 (00:00)PD_CGTPD_CGT
655 REX Mar 31, 2023 $0.99N/A (N/A)0 .. 20,0000%00:00 (00:00)Control ZControl Z
656 Solbane Mar 31, 2023 $6.99N/A (N/A)0 .. 20,0000%00:00 (00:00)Odime GamesOdime Games
657 Anyaroth: The Queen's Tyranny Mar 30, 2023 $14.99N/A (N/A)0 .. 20,0000%00:00 (00:00)YggdraseedFirenut Games
658 Crystal Storm Mar 30, 2023 $2.99N/A (N/A)20,000 .. 50,0000%00:00 (00:00)LukifahTekuani Games
659 Keyboard Warrior Mar 30, 2023 $0.99N/A (N/A)0 .. 20,0000%00:00 (00:00)neohuunneohuun
660 Uragun Mar 30, 2023 $9.99N/A (N/A)50,000 .. 100,0000%00:00 (00:00)Kool2PlayKool2Play
661 Phantom Hunter Mar 29, 2023 $1.99N/A (N/A)0 .. 20,0000%00:00 (00:00)Mathew Tran, Frank LueckSilly Squid Games
662 Battle Tracks Mar 29, 2023 $19.99N/A (N/A)20,000 .. 50,0000%00:00 (00:00)Dreamfire Studios, 7ark GamesDreamfire Studios
663 Space Slaughter Mar 27, 2023 FreeN/A (N/A)50,000 .. 100,0000%00:00 (00:00)JeryJery
664 Schildmaid MX Mar 24, 2023 $14.99N/A (N/A)0 .. 20,0000%00:00 (00:00)HitP StudioHitP Studio
665 SHADE The Border Collie Flycatcher Mar 24, 2023 $2.02N/A (N/A)0 .. 20,0000%00:00 (00:00)fShark GamesfShark Games
666 WAR ON THE STREET Mar 20, 2023 $1.99N/A (N/A)20,000 .. 50,0000%00:00 (00:00)Rosa Special StudioRosa Special Studio
667 Eternal Hunt Mar 18, 2023 N/AN/A (N/A)0 .. 20,0000%00:00 (00:00)OLKAOLKA
668 Peppa Pig: World Adventures Mar 17, 2023 $39.99N/A (N/A)0 .. 20,0000%00:00 (00:00)Petoons StudioOutright Games Ltd.
669 Quantum Gravity Mar 17, 2023 $5.99N/A (N/A)0 .. 20,0000%00:00 (00:00)Ethernal StudioEthernal Studio
670 Running Riot Mar 17, 2023 $2.99N/A (N/A)0 .. 20,0000%00:00 (00:00)Party Moose GamesParty Moose Games
671 Death Road Mar 16, 2023 $3.99N/A (N/A)0 .. 20,0000%00:00 (00:00)Erawat GamesErawat Games
672 Pandora Mar 16, 2023 $9.99N/A (N/A)20,000 .. 50,0000%00:00 (00:00)Sucurema GmbHSucurema GmbH
673 TRASHMORFERS Mar 16, 2023 $7.99N/A (N/A)0 .. 20,0000%00:00 (00:00)Tzika P, Pantechou MMarViv
674 Space Warden Mar 16, 2023 $9.99N/A (N/A)0 .. 20,0000%00:00 (00:00)Branislav BanikBranislav Banik
675 Pacific Strafe Mar 16, 2023 $4.99N/A (N/A)0 .. 20,0000%00:00 (00:00)Insane SoftwareInsane Software
676 FUR Squadron Mar 16, 2023 $6.99N/A (N/A)0 .. 20,0000%00:00 (00:00)Raptor ClawRaptor Claw
677 A Blast From The Past Mar 15, 2023 $5.99N/A (N/A)0 .. 20,0000%00:00 (00:00)Happy Cactus Games LimitedHappy Cactus Games Limited
678 Aw Heck, WAR! Mar 15, 2023 $4.99N/A (N/A)0 .. 20,0000%00:00 (00:00)ENEN
679 Crafty Survivors Mar 15, 2023 $7.99N/A (N/A)20,000 .. 50,0000%00:00 (00:00)Flannel Bear GamesFlannel Bear Games
680 Uncle Kenny The Game Mar 15, 2023 $1.49N/A (N/A)0 .. 20,0000%00:00 (00:00)ShadowHedge GamesKevin Roback
681 Saint Patrick's Day Break Mar 14, 2023 $2.99N/A (N/A)0 .. 20,0000%00:00 (00:00)SmobileSmobile
682 Hexagonal Explods Mar 13, 2023 $1.99N/A (N/A)20,000 .. 50,0000%00:00 (00:00)lemoniedevlemoniedev
683 Gore Storm Mar 10, 2023 $2.99N/A (N/A)0 .. 20,0000%00:00 (00:00)GundoradoGundorado
684 Boulette Hell Mar 10, 2023 $14.99N/A (N/A)0 .. 20,0000%00:00 (00:00)Lucas Delvallet, Quentin DelvalletLucas Delvallet, Quentin Delvallet
685 Kinda Knirpsi Mar 10, 2023 $3.99N/A (N/A)0 .. 20,0000%00:00 (00:00)HerrGrievousHerrGrievous
686 Space Pirate King Mar 10, 2023 $5.99N/A (N/A)0 .. 20,0000%00:00 (00:00)TEASOFTTEASOFT
687 Super Block Crush Mar 10, 2023 $2.99N/A (N/A)0 .. 20,0000%00:00 (00:00)Aton GamesAton Games
688 DOOMSDAY SURVIVORS Mar 9, 2023 $3.99N/A (N/A)0 .. 20,0000%00:00 (00:00)surpass gamesurpass game
689 Tiny Troopers: Joint Ops XL Mar 9, 2023 $9.99N/A (N/A)0 .. 20,0000%00:00 (00:00)Epiphany Games, Kukouri Mobile EntertainmentWired Productions
690 PolyShot Mar 9, 2023 $0.99N/A (N/A)0 .. 20,0000%00:00 (00:00)TEKNOSOFTTEKNOSOFT
691 Tiny Troopers: Global Ops Mar 9, 2023 $19.99N/A (N/A)0 .. 20,0000%00:00 (00:00)Epiphany Games, Kukouri Mobile EntertainmentWired Productions
692 Steelborn Mar 7, 2023 $14.99N/A (N/A)20,000 .. 50,0000%00:00 (00:00)Vega Horizon StudioTake Aim Games
693 GUN KING Mar 3, 2023 $2.99N/A (N/A)0 .. 20,0000%00:00 (00:00)FROGBERTFROGBERT
694 misaligned Mar 3, 2023 $0.49N/A (N/A)0 .. 20,0000%00:00 (00:00)Michal KelisekMichal Kelisek
695 Moorhuhn Piraten - Crazy Chicken Pirates Mar 2, 2023 $4.99N/A (N/A)0 .. 20,0000%00:00 (00:00)Higgs Games GmbH, GeekPit StudioHiggs Games GmbH
696 Idol Hell Mar 2, 2023 $14.99N/A (N/A)0 .. 20,0000%00:00 (00:00)Ultimate DevelopersMAGIC Spell Studios
697 Star Survivor Mar 2, 2023 $4.99N/A (N/A)50,000 .. 100,0000%00:00 (00:00)SpaceOwl GamesSpaceOwl Games, Erabit
698 Presentiment of Death Mar 1, 2023 $14.99N/A (N/A)0 .. 20,0000%00:00 (00:00)XOCUSXOCUS
699 Unification Mar 1, 2023 $14.99N/A (N/A)20,000 .. 50,0000%00:00 (00:00)Troy SpencerCrushPoint Games
700 Gunpowder Punk Mar 1, 2023 $1.99N/A (N/A)0 .. 20,0000%00:00 (00:00)Electric MooseElectric Moose
701 Have a Bloody Goal Feb 28, 2023 $19.99N/A (N/A)0 .. 20,0000%00:00 (00:00)KdanssKdanss LLC
702 Verlet Ascend Feb 28, 2023 $6.99N/A (N/A)0 .. 20,0000%00:00 (00:00)Sagewind StudioStratera Games
703 Tear of Titans Feb 27, 2023 $3.99N/A (N/A)20,000 .. 50,0000%00:00 (00:00)Phocore Inc.Phocore Inc.
704 Otherwar Feb 27, 2023 $2.99N/A (N/A)0 .. 20,0000%00:00 (00:00)kantal collectiveUntold Tales, Hyperstrange
705 The Outer Space Bugs Feb 26, 2023 $1.99N/A (N/A)0 .. 20,0000%00:00 (00:00)Jhozao, SabitousJhozao
706 R-Lyke: Reverse Feb 26, 2023 $1.99N/A (N/A)0 .. 20,0000%00:00 (00:00)Harlequynne GamesHarlequynne Games
707 TetsunoEbi Feb 25, 2023 $0.99N/A (N/A)0 .. 20,0000%00:00 (00:00)鉄之海老制作班鉄之海老制作班
708 Pocky & Rocky Reshrined Feb 24, 2023 $29.99N/A (N/A)0 .. 20,0000%00:00 (00:00)NatsumeAtariNatsumeAtari
709 Bebok Invasion Feb 24, 2023 $4.99N/A (N/A)0 .. 20,0000%00:00 (00:00)MediakompMediakomp
710 Jash Feb 24, 2023 $4.99N/A (N/A)0 .. 20,0000%00:00 (00:00)ChokdeeGame (Sébastien)ChokdeeGame
711 PigShip and the Giant Wolf Feb 24, 2023 $7.99N/A (N/A)20,000 .. 50,0000%00:00 (00:00)Pixel Bones StudioPixel Bones Studio
712 GyroGunner Feb 24, 2023 $4.99N/A (N/A)0 .. 20,0000%00:00 (00:00)H.T.Project GamesH.T.Project Games
713 Final Fort Feb 21, 2023 $3.99N/A (N/A)0 .. 20,0000%00:00 (00:00)CloudDreamStudioCloudDreamStudio
714 Operation : ERONTA Feb 19, 2023 $1N/A (N/A)0 .. 20,0000%00:00 (00:00)Ihsan Bilgisayar Yazilim Ltd. StiIhsan Bilgisayar Yazilim Ltd. Sti
715 Fiery Rivaz Feb 19, 2023 $2.99N/A (N/A)0 .. 20,0000%00:00 (00:00)Tim NicolaiTim Nicolai
716 FIGHTING PUDDING Feb 18, 2023 $3.99N/A (N/A)0 .. 20,0000%00:00 (00:00)KUMAKUMA Software
717 Real Zombie War Simulator Feb 16, 2023 $0.99N/A (N/A)50,000 .. 100,0000%00:00 (00:00)Yusuf Islam Seyhan, Samet AcarInspector Studios
718 連縁无現里 ~ Misremembered Memories Feb 16, 2023 $4.99N/A (N/A)0 .. 20,0000%00:00 (00:00)MugenriMugenri
719 Overrun Survivors Feb 16, 2023 $6.99N/A (N/A)0 .. 20,0000%00:00 (00:00)Midquest GamesMidquest Games
720 The Wraith of the Galaxy Feb 15, 2023 $9.99N/A (N/A)0 .. 20,0000%00:00 (00:00)Whale Rock GamesWhale Rock Games
721 Twin Cobra Feb 14, 2023 $7.99N/A (N/A)0 .. 20,0000%00:00 (00:00)Bitwave Games, ToaplanBitwave Games
722 Zero Wing Feb 14, 2023 $7.99N/A (N/A)0 .. 20,0000%00:00 (00:00)Bitwave Games, ToaplanBitwave Games
723 ParaSHOTical ARKtiviBeatings Feb 14, 2023 $4.99N/A (N/A)0 .. 20,0000%00:00 (00:00)Code AvariceCode Avarice
724 Truxton Feb 14, 2023 $7.99N/A (N/A)0 .. 20,0000%00:00 (00:00)Bitwave Games, ToaplanBitwave Games
725 Out Zone Feb 14, 2023 $7.99N/A (N/A)0 .. 20,0000%00:00 (00:00)Bitwave Games, ToaplanBitwave Games
726 DR LIVESEY ROM AND DEATH EDITION Feb 13, 2023 $0.99N/A (N/A)500,000 .. 1,000,0000%00:00 (00:00)AgafonoffAgafonoff
727 Base Jump Feb 13, 2023 $0.99N/A (N/A)0 .. 20,0000%00:00 (00:00)Reea GamesReea Games
728 CryptoZoo Feb 11, 2023 $0.99N/A (N/A)0 .. 20,0000%00:00 (00:00)RyeBreadGamesRyeBreadGames
729 Zombie Prison Break Feb 10, 2023 $3.99N/A (N/A)0 .. 20,0000%00:00 (00:00)Sean MercerSean Mercer
730 Asteroid Defender! Feb 9, 2023 $0.99N/A (N/A)0 .. 20,0000%00:00 (00:00)Gray Wolf Interactive LLCGray Wolf Interactive LLC
731 The Cursed Knight Feb 9, 2023 $9.99N/A (N/A)20,000 .. 50,0000%00:00 (00:00)GGS Studio CreationBroke Studio
732 FIGHT PLANE 機戰 Feb 8, 2023 $1.99N/A (N/A)0 .. 20,0000%00:00 (00:00)King KongKing Kong Gaming
733 Army War: Shooting Simulator Feb 6, 2023 $0.99N/A (N/A)100,000 .. 200,0000%00:00 (00:00)Yusuf Islam Seyhan, Samet AcarInspector Studios
734 The Killer Feb 3, 2023 $2.99N/A (N/A)0 .. 20,0000%00:00 (00:00)GamesBrazGamesBraz
735 Destroiders Feb 3, 2023 $3.99N/A (N/A)0 .. 20,0000%00:00 (00:00)Andrew JacksonKnicker Twister Games
736 Bugs and Bullets Feb 3, 2023 $4.99N/A (N/A)0 .. 20,0000%00:00 (00:00)LudificorLudificor
737 Doodle TD Feb 3, 2023 $0.99N/A (N/A)0 .. 20,0000%00:00 (00:00)Two Horns Studios, Lunatic Studioslunatic studios
738 东方雪莲华 ~ Abyss Soul Lotus. Feb 2, 2023 $12.99N/A (N/A)0 .. 20,0000%00:00 (00:00)雨夜枫雪制作组, SlimeSmile雨夜枫雪制作组
739 Zombocity Feb 1, 2023 $24.99N/A (N/A)0 .. 20,0000%00:00 (00:00)Atomic Fabrik, Cristian ManolachiAtomic Fabrik, Cristian Manolachi
740 Metal Black S-Tribute Feb 1, 2023 $6.99N/A (N/A)0 .. 20,0000%00:00 (00:00)CITY CONNECTIONCITY CONNECTION
741 Risky Woods Feb 1, 2023 $8.99N/A (N/A)0 .. 20,0000%00:00 (00:00)Dinamic SoftwareBleem.Net, Piko Interactive LLC
742 Clockwork Survivors Jan 31, 2023 $5.99N/A (N/A)0 .. 20,0000%00:00 (00:00)Cool Smithy GamesCool Smithy Games
743 Raiden IV x MIKADO remix Jan 31, 2023 $29.99N/A (N/A)0 .. 20,0000%00:00 (00:00)MOSSNIS America, Inc.
744 Battle of Vukovar: Rain of Steel Jan 31, 2023 $9.99N/A (N/A)0 .. 20,0000%00:00 (00:00)Cro Game DevelopersCro Game Developers
745 Space Escaper Jan 30, 2023 $0.99N/A (N/A)0 .. 20,0000%00:00 (00:00)Pixel Space Studio HKPixel Space Studio HK
746 Break Everything - Park Jan 27, 2023 $199.99N/A (N/A)0 .. 20,0000%00:00 (00:00)HedeHede
747 Unusual Ghost Jan 27, 2023 $9.99N/A (N/A)0 .. 20,0000%00:00 (00:00)GamesforgamesGamesforgames
748 Deathtide Jan 26, 2023 $4.99N/A (N/A)0 .. 20,0000%00:00 (00:00)Luiz PascotoLuiz Pascoto
749 Flightpath Jan 26, 2023 $9.99N/A (N/A)0 .. 20,0000%00:00 (00:00)Illogic GamesIllogic Games
750 METEOR COMMANDER Jan 26, 2023 $0.99N/A (N/A)0 .. 20,0000%00:00 (00:00)Propulsion StudiosPropulsion Studios
751 Death in the Water 2 Jan 26, 2023 $19.99N/A (N/A)50,000 .. 100,0000%00:00 (00:00)Lighthouse Games StudioLighthouse Games Studio
752 Hell Slayer Jan 26, 2023 $2.99N/A (N/A)0 .. 20,0000%00:00 (00:00)Neolithic GamesNeolithic Games
753 Nebula Jan 25, 2023 $3.99N/A (N/A)0 .. 20,0000%00:00 (00:00)JuTek PixelJuTek Pixel
754 YOW Jan 25, 2023 $11.99N/A (N/A)0 .. 20,0000%00:00 (00:00)devpoint GmbHdevpoint GmbH
755 Sinister Jan 25, 2023 $0.99N/A (N/A)0 .. 20,0000%00:00 (00:00)MpjVMpjV
756 SO-108 Jan 20, 2023 $1.99N/A (N/A)0 .. 20,0000%00:00 (00:00)Disorder SoftwareDisorder Software
757 After Wave: Downfall Jan 19, 2023 $9.99N/A (N/A)0 .. 20,0000%00:00 (00:00)7 Raven Studios, SleepPlaying7 Raven Studios
758 Lil Baby Poop's NIGHTMARES Jan 19, 2023 $5.99N/A (N/A)0 .. 20,0000%00:00 (00:00)Soju and InkSoju and Ink
759 Graze Counter GM Jan 18, 2023 $8.99N/A (N/A)0 .. 20,0000%00:00 (00:00)Bikkuri SoftwareHenteko Doujin, Sanuk Inc.
760 Air Attack VR Jan 18, 2023 $6.99N/A (N/A)0 .. 20,0000%00:00 (00:00)EvvaconEvvacon
761 Boing Jan 18, 2023 $2.99N/A (N/A)0 .. 20,0000%00:00 (00:00)Crazy Retro GamesCrazy Retro Games
762 Pitch Silent Jan 17, 2023 $1.99N/A (N/A)0 .. 20,0000%00:00 (00:00)Scott CraigheadScott Craighead
763 Putin Destroys Alien Jan 16, 2023 $0.99N/A (N/A)0 .. 20,0000%00:00 (00:00)Boris the BearVlad Tech
764 Gunslinger Nova Jan 16, 2023 $5.99N/A (N/A)0 .. 20,0000%00:00 (00:00)instasivinstasiv
765 Alcyon Infinity Jan 16, 2023 $2.99N/A (N/A)20,000 .. 50,0000%00:00 (00:00)Ninja WorufuNinja Worufu
766 Inmortuae Metuunt: Rise of The Undead Jan 16, 2023 $2.99N/A (N/A)0 .. 20,0000%00:00 (00:00)DGP StudiosDGP Studios
767 Aurora's Journey and the Pitiful Lackey Jan 13, 2023 $14.95N/A (N/A)0 .. 20,0000%00:00 (00:00)the Not so Great teamthe Not so Great team
768 YOU ARE THE DINNER Jan 13, 2023 $9.99N/A (N/A)0 .. 20,0000%00:00 (00:00)INDIELLIGENTINDIELLIGENT
769 Power of Ten Jan 11, 2023 $11.99N/A (N/A)0 .. 20,0000%00:00 (00:00)Pew Times ThreePew Times Three
770 Planet TD Jan 6, 2023 $2.99N/A (N/A)20,000 .. 50,0000%00:00 (00:00)MD GamesNext in Game
771 COTTOn Rock'n'Roll -SUPERLATIVE NIGHT DREAMS- Jan 5, 2023 $24.99N/A (N/A)0 .. 20,0000%00:00 (00:00)Studio SaizensenSUCCESS Corp.
772 诡仙志异 Jan 5, 2023 $1.99N/A (N/A)0 .. 20,0000%00:00 (00:00)诡道诡道
773 2032: A New Threat Jan 5, 2023 $2.09N/A (N/A)0 .. 20,0000%00:00 (00:00)SVStudioIGSVStudioIG
774 XenoFeud Jan 2, 2023 $3.99N/A (N/A)0 .. 20,0000%00:00 (00:00)Downforce GamesDownforce Games
775 Mothership Forever Jan 2, 2023 $7.99N/A (N/A)0 .. 20,0000%00:00 (00:00)ProjectorGamesProjectorGames
776 Office Mayhem Jan 1, 2023 FreeN/A (N/A)0 .. 20,0000%00:00 (00:00)SUPREME GAUNTLET GAMESSUPREME GAUNTLET GAMES
777 Holiday Haywire Dec 30, 2022 $5.99N/A (N/A)0 .. 20,0000%00:00 (00:00)Partic GamesPartic Games
778 Caterpilla (Spectrum/VIC-20) Dec 30, 2022 $3.99N/A (N/A)0 .. 20,0000%00:00 (00:00)Ocean SoftwarePixel Games UK
779 Gunslinger Top down shooter Dec 29, 2022 $1.99N/A (N/A)0 .. 20,0000%00:00 (00:00)RayTrace InteractiveRayTrace Interactive
780 That's a lot of pixels! Dec 28, 2022 $2.99N/A (N/A)0 .. 20,0000%00:00 (00:00)thatsalotofpixelsthatsalotofpixels
781 Graceward - Complete Edition Dec 25, 2022 $8.99N/A (N/A)0 .. 20,0000%00:00 (00:00)Thinking of Cremation?Thinking of Cremation?
782 Brisk Square Dec 23, 2022 $9.99N/A (N/A)0 .. 20,0000%00:00 (00:00)OuterlynxOuterlynx
783 Bleeding Metal Rainbow Dec 22, 2022 $1N/A (N/A)0 .. 20,0000%00:00 (00:00)ButterflyButterfly Corporation
784 Rolling Gunner Dec 21, 2022 $19.99N/A (N/A)0 .. 20,0000%00:00 (00:00)Project Rolling Gunner, mebius.mebius.
785 Cosmo Clash Dec 21, 2022 $2.99N/A (N/A)0 .. 20,0000%00:00 (00:00)PUNY GamesPUNY Games
786 Ricky Recharge Dec 20, 2022 $4.99N/A (N/A)0 .. 20,0000%00:00 (00:00)Team RechargeTeam Recharge
787 Geometric Sniper - Z Dec 19, 2022 $4.99N/A (N/A)0 .. 20,0000%00:00 (00:00)YAW StudiosYAW Studios
788 Trouble In Space Dec 17, 2022 $4.99N/A (N/A)0 .. 20,0000%00:00 (00:00)choopch, Ron Nusboimchoopch
789 SoundStorm Dec 16, 2022 $12.99N/A (N/A)0 .. 20,0000%00:00 (00:00)Damian Hiltebrand, Franziska Renold, Nils KünzigDamian Hiltebrand
790 Gray Zone Dec 16, 2022 $19.99N/A (N/A)0 .. 20,0000%00:00 (00:00)EastWorksEastWorks
791 Legend of Feather Dec 16, 2022 $3.99N/A (N/A)0 .. 20,0000%00:00 (00:00)Planescape Game StudioPlanescape Game Studio
792 Last Shape Standing Dec 15, 2022 $8.99N/A (N/A)0 .. 20,0000%00:00 (00:00)Ember WorksEmber Works
793 Xmas Apocalypse Dec 15, 2022 $6.99N/A (N/A)0 .. 20,0000%00:00 (00:00)gypynktgypynkt
794 One Shot Challenge Dec 15, 2022 $4.99N/A (N/A)0 .. 20,0000%00:00 (00:00)Kick Rox TeamKick Rox Team
795 The Crackpet Show Dec 15, 2022 $16.99N/A (N/A)0 .. 20,0000%00:00 (00:00)Vixa GamesRavenage Games, Ripples Asia Venture
796 Cassiodora Dec 15, 2022 $14.99N/A (N/A)0 .. 20,0000%00:00 (00:00)Void StudiosPID Games
797 Akai Katana Shin Dec 14, 2022 $29.99N/A (N/A)0 .. 20,0000%00:00 (00:00)CITY CONNECTION, TAKE×0FFCITY CONNECTION
798 2 Many Pixels Dec 12, 2022 $1.99N/A (N/A)0 .. 20,0000%00:00 (00:00)Alex Le MesurierAlex Le Mesurier
799 Slay The Zone Dec 9, 2022 $4.99N/A (N/A)0 .. 20,0000%00:00 (00:00)To MayhemTo Mayhem
800 ExtremeRetroArena Dec 8, 2022 $2.99N/A (N/A)0 .. 20,0000%00:00 (00:00)Primrose TaylorNoxxProjects
801 Dissolved - Chapter One Dec 8, 2022 $9.99N/A (N/A)0 .. 20,0000%00:00 (00:00)Absorb RealityAbsorb Reality
802 Christmas Blaster Dec 7, 2022 $2.99N/A (N/A)20,000 .. 50,0000%00:00 (00:00)ArcadeNightmare StudioArcadeNightmare Studio
803 Gunlocked Dec 6, 2022 $4.99N/A (N/A)50,000 .. 100,0000%00:00 (00:00)FromLefcourtFromLefcourt
804 多比大冒险(Doobi's Adventure) Dec 6, 2022 $2.99N/A (N/A)0 .. 20,0000%00:00 (00:00)RainySquare GamesRainySquare Games
805 N₂O Dec 6, 2022 $7.99N/A (N/A)0 .. 20,0000%00:00 (00:00)Gremlin InteractivePixel Games UK
806 Swordship Dec 5, 2022 $19.99N/A (N/A)0 .. 20,0000%00:00 (00:00)Digital KingdomThunderful Publishing
807 PinCOL Dec 5, 2022 $3.99N/A (N/A)20,000 .. 50,0000%00:00 (00:00)Gianni LaschiGianni Laschi
808 Against All Odds Dec 3, 2022 $3.99N/A (N/A)0 .. 20,0000%00:00 (00:00)25 Crimson25 Crimson
809 Project Downfall Dec 1, 2022 N/AN/A (N/A)0 .. 20,0000%00:00 (00:00)MGP Studios, Solid9 StudioMGP Studios
810 Mike's Arcade Dec 1, 2022 $7.99N/A (N/A)0 .. 20,0000%00:00 (00:00)Mike SedoreMike Sedore
811 Space Yugoslav 2D Dec 1, 2022 $4.99N/A (N/A)0 .. 20,0000%00:00 (00:00)Affordable Care GamesAffordable Care Games
812 A2 Zygon Nov 30, 2022 $5.99N/A (N/A)20,000 .. 50,0000%00:00 (00:00)Connor GreskoConnor Gresko
813 sunny-place-2 Nov 30, 2022 $6.99N/A (N/A)0 .. 20,0000%00:00 (00:00)tjerntjern
814 Space Adventure Nov 29, 2022 $0.99N/A (N/A)0 .. 20,0000%00:00 (00:00)B2LB2L Games
815 Hologram Nov 28, 2022 $19.99N/A (N/A)0 .. 20,0000%00:00 (00:00)EnlighteneerEnlighteneer
816 Clown Of Duty Nov 26, 2022 $0.49N/A (N/A)0 .. 20,0000%00:00 (00:00)RIVERSIDE SPORTSRIVERSIDE SPORTS
817 Galactoids - Galactic Invaders Nov 25, 2022 $9.99N/A (N/A)0 .. 20,0000%00:00 (00:00)Jonni The DodgerJonni The Dodger
818 Starfighter Renegade Nov 25, 2022 $8.99N/A (N/A)0 .. 20,0000%00:00 (00:00)MadeOfDinosaursMadeOfDinosaurs
819 Catbusters Nov 24, 2022 $3.99N/A (N/A)0 .. 20,0000%00:00 (00:00)TekotronicsTekotronics
820 Martian Invaders Nov 24, 2022 $0.99N/A (N/A)0 .. 20,0000%00:00 (00:00)LoadUpGames.comLoadUpGames.com
821 Videopac Collection 1 Nov 24, 2022 $4.99N/A (N/A)0 .. 20,0000%00:00 (00:00)Philips P.O.V. Entertainment GroupPixel Games UK
822 Boom 2020 Nov 23, 2022 $0.99N/A (N/A)0 .. 20,0000%00:00 (00:00)Alander studioAlander studio
823 EvoluShip Nov 22, 2022 $4.99N/A (N/A)0 .. 20,0000%00:00 (00:00)JOZGamer, RFL Art, Hatus Quemuel, Aolriki, GustaIlustraJOZGames
824 SKY TOMB Nov 22, 2022 $2.99N/A (N/A)0 .. 20,0000%00:00 (00:00)BreadnButterCultBreadnButterCult
825 Beers and Boomerangs Nov 22, 2022 $4.99N/A (N/A)0 .. 20,0000%00:00 (00:00)Witty PlatypusSpelkollektivet
826 Gungrave G.O.R.E Nov 22, 2022 $4.79N/A (N/A)0 .. 20,0000%00:00 (00:00)Iggymob Co.,LtdPrime Matter
827 Kalzoon Nov 22, 2022 $7.49N/A (N/A)0 .. 20,0000%00:00 (00:00)8BITLABRAMRISK
828 Lab Inspect Nov 21, 2022 $8.74N/A (N/A)0 .. 20,0000%00:00 (00:00)8BITLABRAMRISK
829 Furry Killer Nov 19, 2022 $7.49N/A (N/A)0 .. 20,0000%00:00 (00:00)SujikoGigantGame-A
830 Myasoid Nov 19, 2022 $8.74N/A (N/A)20,000 .. 50,0000%00:00 (00:00)Youkunikazakovstudios  
831 Cyber Skirmish Nov 18, 2022 $0.99N/A (N/A)0 .. 20,0000%00:00 (00:00)hm-studios, Hubert MierzbiczakHubert Mierzbiczak
832 Poly Shoot Nov 18, 2022 $0.99N/A (N/A)20,000 .. 50,0000%00:00 (00:00)2drp2drp
833 Senli 307 Nov 18, 2022 $2.99N/A (N/A)0 .. 20,0000%00:00 (00:00)TamazusaTamazusa
834 Null G Nov 18, 2022 FreeN/A (N/A)0 .. 20,0000%00:00 (00:00)Jace Of Shadows Gaming LLCJace Of Shadows Gaming LLC
835 Gates of Zendocon Nov 17, 2022 $4.99N/A (N/A)0 .. 20,0000%00:00 (00:00)Epyx, Inc.Pixel Games UK
836 Crysis 3 Remastered Nov 17, 2022 $29.99N/A (N/A)500,000 .. 1,000,0000%00:00 (00:00)Crytek, Saber InteractiveCrytek
837 Muse&Barbarian Nov 17, 2022 $3.99N/A (N/A)0 .. 20,0000%00:00 (00:00)Happy MaxHappy Max
838 Self gunsbase 2D History Shooter Nov 17, 2022 $2.99N/A (N/A)20,000 .. 50,0000%00:00 (00:00)Abn Studio Inc.Abn Studio Inc.
839 Terra Flame Nov 17, 2022 $14.99N/A (N/A)0 .. 20,0000%00:00 (00:00)TERARIN GAMESTERARIN GAMES
840 Over-Run (The Day The World Ended) Nov 17, 2022 $2.99N/A (N/A)0 .. 20,0000%00:00 (00:00)Adam WaughmanBulldog Games
841 Crysis 2 Remastered Nov 17, 2022 $29.99N/A (N/A)1,000,000 .. 2,000,0000%00:00 (00:00)Crytek, Saber InteractiveCrytek
842 Thy Creature Nov 15, 2022 $19.99N/A (N/A)0 .. 20,0000%00:00 (00:00)Growing SeedsGrowing Seeds
843 Beat Hazard 3 Nov 14, 2022 $18.99N/A (N/A)20,000 .. 50,0000%00:00 (00:00)Cold Beam GamesCold Beam Games
844 Bleeding Abyss Nov 13, 2022 FreeN/A (N/A)0 .. 20,0000%00:00 (00:00)HopechoHopecho
845 Realms VR Nov 12, 2022 $0.99N/A (N/A)0 .. 20,0000%00:00 (00:00)Madman Games, RattlerCreedMadman Games
846 Sakura Sunshine Nov 11, 2022 $3.99N/A (N/A)0 .. 20,0000%00:00 (00:00)VampreiVamprei
847 Gunvein Nov 11, 2022 $17.99N/A (N/A)0 .. 20,0000%00:00 (00:00)NGDEVNGDEV
848 iO Inner Self - The Lava Planet VR Nov 11, 2022 FreeN/A (N/A)0 .. 20,0000%00:00 (00:00)SpaceboySpaceboy
849 Zarlor Mercenary Nov 10, 2022 $4.99N/A (N/A)0 .. 20,0000%00:00 (00:00)Epyx, Inc.Pixel Games UK
850 PUTRID SHOT ULTRA Nov 7, 2022 $2.99N/A (N/A)0 .. 20,0000%00:00 (00:00)Abhi SunduAbhi Sundu
851 Great Pilots Nov 7, 2022 $3.99N/A (N/A)0 .. 20,0000%00:00 (00:00)Keep Playing Games Inc.Keep Playing Games Inc.
852 Survival Academy Nov 7, 2022 N/AN/A (N/A)0 .. 20,0000%00:00 (00:00)GaniTaniORAK WORKSHOP
853 Fast or Dead VR Nov 4, 2022 $6.99N/A (N/A)0 .. 20,0000%00:00 (00:00)EvvaconEvvacon
854 Outshine Nov 3, 2022 $12.99N/A (N/A)0 .. 20,0000%00:00 (00:00)Fishing CactusFishing Cactus, PID Games
855 Sector Sweep Nov 3, 2022 $2.99N/A (N/A)0 .. 20,0000%00:00 (00:00)Moonlit S.A.Moonlit S.A.
856 Perish Song Nov 3, 2022 $7.99N/A (N/A)0 .. 20,0000%00:00 (00:00)Leach StudiosLeach Studios
857 Shin Galaxy - Alpha War Nov 3, 2022 $2.99N/A (N/A)0 .. 20,0000%00:00 (00:00)AJ To The MoonAJ To The Moon
858 Pathogen: Survival Nov 2, 2022 $4.99N/A (N/A)50,000 .. 100,0000%00:00 (00:00)SillySausageSillySausage
859 Danger Forever Nov 1, 2022 N/AN/A (N/A)20,000 .. 50,0000%00:00 (00:00)FireVector LLCMeridian4
860 Where is Earth? Oct 31, 2022 $6.99N/A (N/A)0 .. 20,0000%00:00 (00:00)Jovano SoftwareJovano Software
861 Waking Knightmare Oct 30, 2022 $2.99N/A (N/A)0 .. 20,0000%00:00 (00:00)Synectix GamesSynectix Games
862 Project Beril / 贝丽尔养成计划 Oct 28, 2022 $9.99N/A (N/A)0 .. 20,0000%00:00 (00:00)SlimeSmileSlimeSmile
863 Freedom Drive Oct 28, 2022 N/AN/A (N/A)0 .. 20,0000%00:00 (00:00)Bucket of GamesBucket of Games
864 Machine Gun Fury Oct 28, 2022 $11.99N/A (N/A)0 .. 20,0000%00:00 (00:00)Reset Games LtdReset Games Ltd
865 Saturn Quest: R. U. N. E. 3000 Oct 28, 2022 $5.99N/A (N/A)0 .. 20,0000%00:00 (00:00)Arkhouse TelegraphArkhouse Telegnosis
866 Park Rangers of The Undead Oct 26, 2022 $0.99N/A (N/A)0 .. 20,0000%00:00 (00:00)Nightingale StudiosNightingale Studios
867 Miss Kobayashi's Dragon Maid Burst Forth!! Choro-gon☆Breath DIRECTOR'S CUT Oct 26, 2022 $29.99N/A (N/A)0 .. 20,0000%00:00 (00:00)KAMINARI GAMES Inc.Bushiroad Inc.
868 Beasts Shall Rise Oct 26, 2022 $11.99N/A (N/A)0 .. 20,0000%00:00 (00:00)Goblin Games LtdGoblin Games Ltd
869 Covid Carl Oct 25, 2022 $3.99N/A (N/A)0 .. 20,0000%00:00 (00:00)Dumpster Fire Studio LLCDumpster Fire Studio LLC
870 Deadly Harvest Oct 24, 2022 $0.99N/A (N/A)0 .. 20,0000%00:00 (00:00)Long LostLong Lost
871 Last Gang Standing Oct 24, 2022 $10.99N/A (N/A)0 .. 20,0000%00:00 (00:00)Tailfin GamesTailfin Games
872 Ace Pilot Europe Oct 24, 2022 $1.49N/A (N/A)0 .. 20,0000%00:00 (00:00)Hubert cachatHC
873 Void Scrappers Oct 21, 2022 $3.99N/A (N/A)100,000 .. 200,0000%00:00 (00:00)8BitSkull8BitSkull
874 HARDDRIVE Oct 20, 2022 $4.99N/A (N/A)0 .. 20,0000%00:00 (00:00)Buttons LakeButtons Lake
875 Paper Nebula Oct 19, 2022 $9.99N/A (N/A)0 .. 20,0000%00:00 (00:00)Pixel BakeryPixel Bakery
876 RetroRange Oct 19, 2022 $1.99N/A (N/A)20,000 .. 50,0000%00:00 (00:00)788 Garage Studio788 Garage Studio
877 Slot Shots Pinball Collection Oct 18, 2022 $9.99N/A (N/A)0 .. 20,0000%00:00 (00:00)Pinblend StudiosPinblend Studios
878 Cult Of Babel Oct 17, 2022 N/AN/A (N/A)0 .. 20,0000%00:00 (00:00)Menacing Aura GamesMenacing Aura Games
879 Spellbearers Oct 14, 2022 $9.99N/A (N/A)0 .. 20,0000%00:00 (00:00)Whim Independent StudiosWhim Independent Studios
880 Beautiful Mystic Survivors Oct 14, 2022 $4.99N/A (N/A)100,000 .. 200,0000%00:00 (00:00)Fantasize GamesMango Council
881 Dead Second Oct 14, 2022 $14.99N/A (N/A)0 .. 20,0000%00:00 (00:00)Spunge Games Pty LtdSpunge Games Pty Ltd
882 Andromeda Survivors Oct 14, 2022 $2.99N/A (N/A)0 .. 20,0000%00:00 (00:00)DevDumbAleo Games
883 Touhou Library Survivors Oct 14, 2022 $4.99N/A (N/A)0 .. 20,0000%00:00 (00:00)Alexander TaylorAlexander Taylor
884 Cloaks and Capes Oct 14, 2022 $9.99N/A (N/A)0 .. 20,0000%00:00 (00:00)Destrakz GamesDestrakz Games
885 ICEwall Oct 14, 2022 $8.99N/A (N/A)0 .. 20,0000%00:00 (00:00)Erlend KirkeboeErlend Kirkeboe
886 Dead End City Oct 13, 2022 $14.99N/A (N/A)0 .. 20,0000%00:00 (00:00)Pixel Licker LLCPixel Licker LLC
887 Hunting grounds Oct 13, 2022 $4.99N/A (N/A)0 .. 20,0000%00:00 (00:00)Soomka GamesSoomka Games
888 Space FURY - The Phantom Menace Oct 11, 2022 $1.99N/A (N/A)0 .. 20,0000%00:00 (00:00)StrelitziaGamesStrelitziaGames
889 Zombie Spree: The Dawn Oct 11, 2022 $0.99N/A (N/A)0 .. 20,0000%00:00 (00:00)KRZYSZTOF NIEDZIELCZYKKRZYSZTOF NIEDZIELCZYK
890 Her Name Was Fire Oct 11, 2022 $3.99N/A (N/A)20,000 .. 50,0000%00:00 (00:00)Tissue InuTissue Inu
891 Square Rounds Oct 11, 2022 $0.99N/A (N/A)0 .. 20,0000%00:00 (00:00)Next Level Video Games LLCNext Level Video Games LLC
892 N-GON Oct 11, 2022 $3.99N/A (N/A)20,000 .. 50,0000%00:00 (00:00)quadapequadape
893 Astraea Oct 10, 2022 $2.99N/A (N/A)0 .. 20,0000%00:00 (00:00)AurumKitsuneAurumKitsune
894 Day of the Dino: Survival Oct 10, 2022 FreeN/A (N/A)100,000 .. 200,0000%00:00 (00:00)Disco EntertainmentDisco Entertainment
895 Exterminate Zombies: Get Paid Oct 10, 2022 $4.99N/A (N/A)0 .. 20,0000%00:00 (00:00)EZGP TeamEZGP Team
896 雷鸟Thunderbird Oct 9, 2022 $5.99N/A (N/A)0 .. 20,0000%00:00 (00:00)HyenaStudioHyenaStudio
897 Night Light Oct 9, 2022 $3.99N/A (N/A)0 .. 20,0000%00:00 (00:00)Dennis, Simonas, AliuSimDen Studio
898 Moorhuhn X - Crazy Chicken X Oct 8, 2022 $4.99N/A (N/A)0 .. 20,0000%00:00 (00:00)Higgs Games GmbH, GeekPit StudioHiggs Games GmbH
899 Nomad Survival Oct 8, 2022 $4.99N/A (N/A)200,000 .. 500,0000%00:00 (00:00)The Fox KnocksThe Fox Knocks
900 To The Top Oct 7, 2022 $3.99N/A (N/A)0 .. 20,0000%00:00 (00:00)Daniel Guachamin, Jake AltmannAnimec
901 STARR RINGER Oct 7, 2022 $9.99N/A (N/A)0 .. 20,0000%00:00 (00:00)Sterling McKaySterling McKay
902 Zad Maldan My Bloody Sacrifice Oct 7, 2022 $9.99N/A (N/A)0 .. 20,0000%00:00 (00:00)Tom Fegert LLCTonkan Veed Games
903 Chuhou Joutai 3: Three Nights of Scarlet Abscess Oct 6, 2022 $4.99N/A (N/A)50,000 .. 100,0000%00:00 (00:00)Drillimation SystemsDrillimation Systems
904 Vostok 2061 Oct 6, 2022 $9.99N/A (N/A)0 .. 20,0000%00:00 (00:00)DYV's GameDYV's Game
905 Vacant Kingdom Oct 6, 2022 $7.99N/A (N/A)0 .. 20,0000%00:00 (00:00)shrushru
906 Air defenders Oct 3, 2022 $9.99N/A (N/A)0 .. 20,0000%00:00 (00:00)Serhii Khramov, Dmytro Pohrebnyi, Illia UstenkoGeneral Script Studio
907 Beyond the Storm Oct 3, 2022 $11.99N/A (N/A)0 .. 20,0000%00:00 (00:00)LeandroGabriel.netLeandroGabriel.net
908 Emorrior Sep 30, 2022 $4.99N/A (N/A)0 .. 20,0000%00:00 (00:00)BerilyTeamBerilyTeam
909 Bad Chicken Sep 30, 2022 $9.99N/A (N/A)0 .. 20,0000%00:00 (00:00)Coquibyte GamesCoquibyte Games
910 AirRaid Sep 30, 2022 $0.99N/A (N/A)0 .. 20,0000%00:00 (00:00)Pilea Development LLCPilea Development LLC
911 Jack Big Chin: Alien Invasion Sep 29, 2022 $2.99N/A (N/A)0 .. 20,0000%00:00 (00:00)GoldaraitGoldarait
912 Doomsday Contact Sep 29, 2022 $3.99N/A (N/A)0 .. 20,0000%00:00 (00:00)Doomsday StudioDoomsday Studio
913 Zombies Sep 29, 2022 $1.99N/A (N/A)0 .. 20,0000%00:00 (00:00)Owen WalkerOwen Walker
914 Don't Shit On My #!$@& Roof Sep 27, 2022 N/AN/A (N/A)20,000 .. 50,0000%00:00 (00:00)The Moon PiratesThe Moon Pirates
915 cursor0x0 Sep 23, 2022 $9.99N/A (N/A)0 .. 20,0000%00:00 (00:00)error0x0error0x0
916 Bone Mayhem Sep 23, 2022 $6.47N/A (N/A)20,000 .. 50,0000%00:00 (00:00)HowtodrinkwaterHowtodrinkwater
917 Run and Gun Sep 23, 2022 $1.99N/A (N/A)0 .. 20,0000%00:00 (00:00)Inspiring GamesInspiring Games
918 Steel Saviour Reloaded Sep 22, 2022 $5.99N/A (N/A)0 .. 20,0000%00:00 (00:00)Commodore SinapsyCommodore Industries
919 Slayer Cat Sep 22, 2022 $9.99N/A (N/A)0 .. 20,0000%00:00 (00:00)Ducktail GamesDucktail Games
920 Novi Cube Sep 22, 2022 $1.99N/A (N/A)0 .. 20,0000%00:00 (00:00)Rand.Exe StudiosRand.Exe Studios
921 Squad 51 vs. the Flying Saucers Sep 21, 2022 $19.99N/A (N/A)20,000 .. 50,0000%00:00 (00:00)Loomiarts, Fehorama FilmesWhisperGames, Assemble Entertainment
922 Climb and Fight: Mafia Sep 21, 2022 $1.99N/A (N/A)0 .. 20,0000%00:00 (00:00)Shido Game StudioShido Game Studio
923 Lucky Pikinini - IMS Death Squad Sep 20, 2022 $1.99N/A (N/A)0 .. 20,0000%00:00 (00:00)Lucky PikininiLucky Pikinini
924 AST-Hero Sep 20, 2022 $4.99N/A (N/A)0 .. 20,0000%00:00 (00:00)Twisted BrainZ, Shaman77Twisted BrainZ
925 The Voices Games 2d Collection Sep 15, 2022 $0.99N/A (N/A)0 .. 20,0000%00:00 (00:00)The Voices GamesThe Voices Games
926 Soulbaby: Remastered Sep 14, 2022 $15.99N/A (N/A)0 .. 20,0000%00:00 (00:00)Lucid Egg, Darion McCoyLucid Egg
927 Runscore Sep 14, 2022 $9.99N/A (N/A)0 .. 20,0000%00:00 (00:00)LT GamesLT Games
928 Smash The Synth Sep 13, 2022 $6.99N/A (N/A)0 .. 20,0000%00:00 (00:00)Fabio CecchiniFabio Cecchini
929 Bubble Wars Sep 12, 2022 $1.99N/A (N/A)0 .. 20,0000%00:00 (00:00)André G.Zaints Roar Studios
930 Bullet Hell Monday Sep 11, 2022 $11.99N/A (N/A)0 .. 20,0000%00:00 (00:00)Masayuki ItoMasayuki Ito
931 Zaxterion: Space Frenzy! Sep 9, 2022 $9.99N/A (N/A)0 .. 20,0000%00:00 (00:00)ZaxtorGameSZaxtorGameS
932 Military Attack Sep 9, 2022 $2.99N/A (N/A)100,000 .. 200,0000%00:00 (00:00)GamesBrazGamesBraz
933 Distortion VR Sep 9, 2022 $19.99N/A (N/A)0 .. 20,0000%00:00 (00:00)OutSource StudiosFutureMental Games
934 Mirror War - Reincarnation of Holiness SA Sep 8, 2022 $29.99N/A (N/A)0 .. 20,0000%00:00 (00:00)L&K Co., Ltd.L&K Co., Ltd.
935 Microbes and Machines Sep 3, 2022 $0.99N/A (N/A)0 .. 20,0000%00:00 (00:00)AndyzziGamesAndyzziGames
936 Star Trust - 3D Shooter Game Sep 3, 2022 FreeN/A (N/A)0 .. 20,0000%00:00 (00:00)Leonardo Olivieri Carvalho, Everton "Pék", Keegan SlaterJudah Lion Games
937 Zannon Sep 3, 2022 $3.99N/A (N/A)0 .. 20,0000%00:00 (00:00)JimJams GamesJimJams Games
938 Moon Whalers Sep 2, 2022 $4.99N/A (N/A)0 .. 20,0000%00:00 (00:00)Yusuke "JuicyChicken" HasegawaJuicyChickenGames
939 Overdriven Evolution Sep 2, 2022 $14.99N/A (N/A)0 .. 20,0000%00:00 (00:00)TOMAGameStudioTOMAGameStudio
940 Rotten Apple - VR Arcade Version Sep 2, 2022 N/AN/A (N/A)20,000 .. 50,0000%00:00 (00:00)VRilliant StudiosVRilliant Studios
941 Swift Attack Sep 2, 2022 $5.99N/A (N/A)0 .. 20,0000%00:00 (00:00)M.gamesM.games
942 Alien Decimation Sep 1, 2022 $1.99N/A (N/A)0 .. 20,0000%00:00 (00:00)CelestisoftCelestisoft
943 Project Gunship Aug 31, 2022 $14.99N/A (N/A)0 .. 20,0000%00:00 (00:00)Sklorite Studios LLCSklorite Studios LLC
944 Unify Aug 31, 2022 $99.99N/A (N/A)0 .. 20,0000%00:00 (00:00)William Hancock, Oscar FinbowFHB Studios
945 SSS222: HyperSpace Aug 31, 2022 $2.99N/A (N/A)0 .. 20,0000%00:00 (00:00)HaipaDevHaipaStudios
946 SHPR Aug 27, 2022 $4.99N/A (N/A)0 .. 20,0000%00:00 (00:00)ZokerinoDevZokerinoDev
947 Armored Lab Force VULVEHICLES Aug 25, 2022 $5.99N/A (N/A)0 .. 20,0000%00:00 (00:00)ASTRO PORTHenteko Doujin
948 A.I.T.W Aug 25, 2022 $1.99N/A (N/A)0 .. 20,0000%00:00 (00:00)Percy Rogers, Kendra Rogers LlanesNostalgic Games
949 KILLRUN Aug 25, 2022 $4.99N/A (N/A)100,000 .. 200,0000%00:00 (00:00)BULKHEADBULKHEAD
950 Bounce your Bullets! Aug 24, 2022 $2.99N/A (N/A)0 .. 20,0000%00:00 (00:00)Quentin EdelQuentin Edel
951 Yars: Recharged Aug 23, 2022 $9.99N/A (N/A)50,000 .. 100,0000%00:00 (00:00)Adamvision Studios, SneakyBoxAtari
952 Madville+ Aug 23, 2022 $2.99N/A (N/A)0 .. 20,0000%00:00 (00:00)Mushy JukeboxMushy Jukebox
953 A Clumsy Flight Aug 22, 2022 $4.99N/A (N/A)0 .. 20,0000%00:00 (00:00)Douwe BroekemaDouwe Broekema
954 Super Weapon Master 超级武器大师 Aug 22, 2022 $3.99N/A (N/A)0 .. 20,0000%00:00 (00:00)Idea CatIdea Cat
955 Agent X Jan 15, 2021 $0.99N/A (N/A)0 .. 20,0000%00:00 (00:00)Seito GamesSeito Games
956 GALXAGAR Aug 19, 2022 $1.99N/A (N/A)20,000 .. 50,0000%00:00 (00:00)MoonMuse EntertainmentMoonMuse Entertainment
957 Spelldash Aug 19, 2022 $4.99N/A (N/A)0 .. 20,0000%00:00 (00:00)Gwyn DevGwyn Dev
958 Ember Crusade IV Aug 19, 2022 $7.99N/A (N/A)0 .. 20,0000%00:00 (00:00)Morne VenterMorne Venter
959 Dashverse Aug 18, 2022 $0.99N/A (N/A)0 .. 20,0000%00:00 (00:00)Gemo GamesGemo Games
960 Monsters Loot Swag Aug 18, 2022 $9.99N/A (N/A)0 .. 20,0000%00:00 (00:00)YorkshireRiflesYorkshireRifles
961 Space Crusaders Aug 18, 2022 $2.99N/A (N/A)0 .. 20,0000%00:00 (00:00)AbsurdPonchoAbsurdPoncho
962 Fragment Hunters Aug 18, 2022 FreeN/A (N/A)20,000 .. 50,0000%00:00 (00:00)CrynsystemsCrynsystems
963 Galaxy Survivors Aug 17, 2022 $2.99N/A (N/A)0 .. 20,0000%00:00 (00:00)Emily Grey & Eve GreyEmily Grey & Eve Grey
964 双线交锋:收获日 Aug 15, 2022 $1.99N/A (N/A)0 .. 20,0000%00:00 (00:00)孙神游戏开发, 独立游戏Sun_Official孙神游戏开发, 独立游戏Sun_Official
965 Nightmare Hunter Aug 15, 2022 $0.99N/A (N/A)0 .. 20,0000%00:00 (00:00)Ete SoftMagoojabee Studio
966 MYAOSOFTガラケーコレクション Aug 14, 2022 $9.99N/A (N/A)20,000 .. 50,0000%00:00 (00:00)MYAOSOFTMYAOSOFT
967 Black Market of Bulletphilia ~ 100th Black Market. Aug 14, 2022 $14.99N/A (N/A)50,000 .. 100,0000%00:00 (00:00)上海アリス幻樂団Mediascape Co., Ltd.
968 OrbiTank Aug 12, 2022 FreeN/A (N/A)0 .. 20,0000%00:00 (00:00)Harper Rhett, Voltaic StudiosVoltaic Studios
969 MonkeyPox: The Plague Aug 12, 2022 $1.99N/A (N/A)0 .. 20,0000%00:00 (00:00)Covid StudiosCovid Studios
970 Putinist Slayer Aug 12, 2022 $9.99N/A (N/A)0 .. 20,0000%00:00 (00:00)Bunker 22Bunker 22
971 Under Waves Aug 10, 2022 N/AN/A (N/A)0 .. 20,0000%00:00 (00:00)SynthCatSynthCat
972 Egglien Aug 5, 2022 $5.99N/A (N/A)0 .. 20,0000%00:00 (00:00)Spacespy GamesSpacespy Games
973 LUMbA: REDUX Aug 4, 2022 $4.99N/A (N/A)20,000 .. 50,0000%00:00 (00:00)Team LumbaLarsonsoft
974 Cosmic Cruiser Aug 4, 2022 $2.99N/A (N/A)0 .. 20,0000%00:00 (00:00)ImaginePixel Games UK
975 Prepare For Warp: Unlimited Edition: Beyond Insanji Aug 4, 2022 $7.99N/A (N/A)0 .. 20,0000%00:00 (00:00)Smiling Cat Entertainment, LTDSmiling Cat Entertainment, LTD
976 Mothercore Aug 1, 2022 $4.99N/A (N/A)0 .. 20,0000%00:00 (00:00)Joshua ChenaultJoshua Chenault
977 Urchins and Ink Jul 29, 2022 $9.99N/A (N/A)0 .. 20,0000%00:00 (00:00)Hiccup InteractiveHiccup Interactive
978 Frenzy VR Jul 29, 2022 $11.99N/A (N/A)0 .. 20,0000%00:00 (00:00)Innoverse LtdInnoverse Ltd
979 Humans Are Useless Jul 28, 2022 $1.99N/A (N/A)0 .. 20,0000%00:00 (00:00)BCL studioBCL studio
980 Maku Jul 28, 2022 $1.99N/A (N/A)0 .. 20,0000%00:00 (00:00)whelpwhelp
981 Kingdom Gun Jul 28, 2022 $9.99N/A (N/A)0 .. 20,0000%00:00 (00:00)Incredible Two Studios, LLCIncredible Two Studios, LLC
982 Cosmic Wartoad Jul 28, 2022 $2.99N/A (N/A)0 .. 20,0000%00:00 (00:00)Ocean SoftwarePixel Games UK
983 Hunkenstein Jul 27, 2022 $7.99N/A (N/A)0 .. 20,0000%00:00 (00:00)OublietteOubliette
984 Nectar Wars Jul 26, 2022 $7.99N/A (N/A)0 .. 20,0000%00:00 (00:00)Sinomod StudiosSinomod Studios
985 Keyboard Warrior: Dreamstate Jul 23, 2022 $7N/A (N/A)0 .. 20,0000%00:00 (00:00)CosmosCosmos
986 Like Dreamer Jul 21, 2022 $13.99N/A (N/A)20,000 .. 50,0000%00:00 (00:00)あうとさいどあうとさいど
987 Ex-Zodiac Jul 21, 2022 $5.99N/A (N/A)50,000 .. 100,0000%00:00 (00:00)MNKYPixeljam
988 Duck Paradox Jul 19, 2022 $14.99N/A (N/A)0 .. 20,0000%00:00 (00:00)Magic GamesMidwest Games
989 Ultra Mission Jul 19, 2022 $2.99N/A (N/A)20,000 .. 50,0000%00:00 (00:00)Gumbo Machine, Logical ExtremesGumbo Machine, LLC
990 Hidden Farm 2 Top-Down 3D Jul 18, 2022 $99.99N/A (N/A)0 .. 20,0000%00:00 (00:00)Top-Down GamesAzerbaijan Technology, Aztech
991 Yakuza Undisputed Jul 17, 2022 $15N/A (N/A)0 .. 20,0000%00:00 (00:00)Flint OkoyeFlint Okoye
992 System Critical: The Race Against Time Jul 15, 2022 $4.99N/A (N/A)0 .. 20,0000%00:00 (00:00)Old FormulasOld Formulas
993 Doctor Nanobot Jul 15, 2022 $2.99N/A (N/A)0 .. 20,0000%00:00 (00:00)Maika GamesMaika Games
994 John Brick Jul 15, 2022 $4.99N/A (N/A)0 .. 20,0000%00:00 (00:00)Apps BergmanApps Bergman
995 Spidersaurs Jul 14, 2022 $19.99N/A (N/A)0 .. 20,0000%00:00 (00:00)WayForwardWayForward
996 Nuts Protocol Jul 12, 2022 $3.99N/A (N/A)0 .. 20,0000%00:00 (00:00)Vincae EntretenimentoVincae Entretenimento
997 Esse Proxy Jul 11, 2022 $19.99N/A (N/A)0 .. 20,0000%00:00 (00:00)FromSouthGamesFromSouthGames
998 Legends from Lacoytas: The First Seeker Jul 11, 2022 $0.99N/A (N/A)0 .. 20,0000%00:00 (00:00)NEETNectarNEETNectar
999 Ark Defender Jul 11, 2022 $9.99N/A (N/A)0 .. 20,0000%00:00 (00:00)Mischief & Mayhem StudiosMischief & Mayhem Studios
1000 WAVECADE Jul 10, 2022 $9.99N/A (N/A)0 .. 20,0000%00:00 (00:00)Andrew Spalato, Lewis SpalatoSpalato Bros
1001 Deep Space Salvage Crew VR Jul 8, 2022 $18.99N/A (N/A)0 .. 20,0000%00:00 (00:00)Kitten FortressKitten Fortress
1002 Exodemic Jul 8, 2022 $4.99N/A (N/A)0 .. 20,0000%00:00 (00:00)ganashawganashaw
1003 Alien Gladiator Jul 7, 2022 $2.99N/A (N/A)0 .. 20,0000%00:00 (00:00)HeneGamesHeneGames
1004 Tombstone Jul 6, 2022 N/AN/A (N/A)20,000 .. 50,0000%00:00 (00:00)Noodle GamesNoodle Games
1005 Redneck Rift Jul 4, 2022 $1.99N/A (N/A)0 .. 20,0000%00:00 (00:00)Floor ChickenFloor Chicken
1006 Big Flying Asteroid Jul 1, 2022 $0.99N/A (N/A)0 .. 20,0000%00:00 (00:00)Fury Games Pty LtdFury Games Pty Ltd
1007 GunQuest Jul 1, 2022 $4.99N/A (N/A)0 .. 20,0000%00:00 (00:00)Restless GamedevRestless Gamedev
1008 Ultimate Starfighter Jun 30, 2022 $4.99N/A (N/A)0 .. 20,0000%00:00 (00:00)Michael Allen CooleyOrigin Software Development
1009 Apocalyptic Jun 30, 2022 $4.99N/A (N/A)0 .. 20,0000%00:00 (00:00)Darkvale Games, LiralyssDarkvale Games, Liralyss
1010 The Lord of the Parties Jun 29, 2022 $15.99N/A (N/A)0 .. 20,0000%00:00 (00:00)Magic Cube, DizconHIKE Inc.
1011 Ned Kelly: Armored Outlaw Jun 29, 2022 $1.99N/A (N/A)0 .. 20,0000%00:00 (00:00)Tobop ProductionsTobop Productions
1012 Bug Butcher Jun 25, 2022 $3.49N/A (N/A)0 .. 20,0000%00:00 (00:00)ChuvdjiPIXEL HINT
1013 Hell Green Blue Jun 25, 2022 $2.49N/A (N/A)20,000 .. 50,0000%00:00 (00:00)GrogovslyBonDOS
1014 Vortex Jun 22, 2022 $1.99N/A (N/A)50,000 .. 100,0000%00:00 (00:00)Endless Void StudiosEndless Void Studios
1015 Deathsmiles I・II Jun 22, 2022 $39.9N/A (N/A)0 .. 20,0000%00:00 (00:00)CITY CONNECTION, TAKE×0FFCITY CONNECTION
1016 Mago Jun 21, 2022 $14.99N/A (N/A)20,000 .. 50,0000%00:00 (00:00)Dream Potion GamesDream Potion Games
1017 Z-Warp Jun 21, 2022 $6.99N/A (N/A)0 .. 20,0000%00:00 (00:00)Panda Indie Studio, Eastasiasoft LimitedEastasiasoft Limited
1018 Atria Jun 21, 2022 N/AN/A (N/A)0 .. 20,0000%00:00 (00:00)Studio7Studio7
1019 HyperNova Jun 20, 2022 $3.99N/A (N/A)0 .. 20,0000%00:00 (00:00)KKGameJamKuriTaro, Komihorium
1020 Astro Ike Jun 18, 2022 $0.99N/A (N/A)0 .. 20,0000%00:00 (00:00)Cyberkite GamesCyberkite Games
1021 CubeShooter Jun 18, 2022 $1.99N/A (N/A)0 .. 20,0000%00:00 (00:00)OrangeCatGamesOrangeCatGames
1022 Pedro Land DX Jun 17, 2022 $3.99N/A (N/A)0 .. 20,0000%00:00 (00:00)FGMSFGMS
1023 Lux Ex - Legacy Jun 17, 2022 $1.99N/A (N/A)0 .. 20,0000%00:00 (00:00)Caio Ribeiro Chagas, Martelo NeroIlex Games
1024 OmegaBot Jun 16, 2022 $9.99N/A (N/A)0 .. 20,0000%00:00 (00:00)Bitmap Galaxy, Simon CarnyBitmap Galaxy, Simon Carny
1025 Space Maxwell: Arcade Jun 16, 2022 $2.99N/A (N/A)0 .. 20,0000%00:00 (00:00)Dreamland GamesDreamland Games
1026 BroodStar Oct 1, 2020 $10.99N/A (N/A)50,000 .. 100,0000%00:00 (00:00)David Schmidthoffer, Mae Livingstonself-published
1027 Neon Invaders Jun 15, 2022 $4.99N/A (N/A)0 .. 20,0000%00:00 (00:00)Paul ConnorPaul Connor
1028 Monsterlands Jun 14, 2022 $0.99N/A (N/A)0 .. 20,0000%00:00 (00:00)BLOK GamesBLOK Games
1029 ZEROCRON Jun 12, 2022 $4.99N/A (N/A)0 .. 20,0000%00:00 (00:00)T.R.S.T.R.S.
1030 Researchity | Open World Survival Game Jun 10, 2022 $34.99N/A (N/A)0 .. 20,0000%00:00 (00:00)TheGameMillTheGameMill
1031 Arsenal Shock Jun 9, 2022 $14.99N/A (N/A)0 .. 20,0000%00:00 (00:00)Arsenal Shock TeamDystopian Edge Publishing
1032 Chaotic Loop Jun 8, 2022 FreeN/A (N/A)0 .. 20,0000%00:00 (00:00)technologicalpixeltechnologicalpixel
1033 Spacewing War Jun 7, 2022 $6.99N/A (N/A)0 .. 20,0000%00:00 (00:00)Pneuma GamesEastasiasoft Limited
1034 ROB Jun 6, 2022 $1.99N/A (N/A)0 .. 20,0000%00:00 (00:00)BoomerGamesBoomerGames
1035 Run Build Pew! Jun 6, 2022 $2.99N/A (N/A)50,000 .. 100,0000%00:00 (00:00)Knight Owl GamesKnight Owl Games
1036 Hacker Man Jun 3, 2022 $2.99N/A (N/A)200,000 .. 500,0000%00:00 (00:00)GamesBrazGamesBraz
1037 Gravitar: Recharged Jun 2, 2022 $9.99N/A (N/A)0 .. 20,0000%00:00 (00:00)Adamvision Studios, SneakyBoxAtari
1038 Watercolor Hell May 26, 2022 FreeN/A (N/A)0 .. 20,0000%00:00 (00:00)Home Fire GamesHome Fire Games
1039 异界生存 May 26, 2022 $0.99N/A (N/A)0 .. 20,0000%00:00 (00:00)MZQMZQ
1040 The Flames May 25, 2022 $0.99N/A (N/A)20,000 .. 50,0000%00:00 (00:00)Pax Breslaw, SergeePax Breslaw, Sergee
1041 Soda Crisis May 23, 2022 $10.99N/A (N/A)200,000 .. 500,0000%00:00 (00:00)Team Sodabilibili
1042 TYPER GIRL May 23, 2022 $0.99N/A (N/A)0 .. 20,0000%00:00 (00:00)好色猫好色猫
1043 Toaster Defense May 23, 2022 $2.49N/A (N/A)20,000 .. 50,0000%00:00 (00:00)WooshidoWooshido
1044 Galacticon May 20, 2022 $4.99N/A (N/A)20,000 .. 50,0000%00:00 (00:00)Radin GamesFlynn's Arcade
1045 Linguist FPS - The Language Learning FPS May 20, 2022 $14.99N/A (N/A)0 .. 20,0000%00:00 (00:00)Rocket Boy GamesRocket Boy Games
1046 Loopback May 20, 2022 FreeN/A (N/A)0 .. 20,0000%00:00 (00:00)Cold Light GamesCold Light Games
1047 Cyber Bay May 20, 2022 $2.49N/A (N/A)0 .. 20,0000%00:00 (00:00)RienSoldovskykhukhrovr
1048 REPULSOR May 19, 2022 $5.99N/A (N/A)0 .. 20,0000%00:00 (00:00)TOITANTOITAN
1049 Meekanoid May 18, 2022 $1.99N/A (N/A)20,000 .. 50,0000%00:00 (00:00)GamesforgamesGamesforgames
1050 Penetrator May 17, 2022 $1.99N/A (N/A)0 .. 20,0000%00:00 (00:00)Beam SoftwarePixel Games UK
1051 Space Out May 13, 2022 $3.99N/A (N/A)0 .. 20,0000%00:00 (00:00)Vizabee Games LLCVizabee Games LLC
1052 Virtual Hunting Experience May 13, 2022 $9.99N/A (N/A)0 .. 20,0000%00:00 (00:00)Mikey DMikey D
1053 A Way To Die May 13, 2022 $6.31N/A (N/A)0 .. 20,0000%00:00 (00:00)Gael LuguernGael Luguern
1054 DELAY SIMULATOR / ゲーミングハード技能検定 May 13, 2022 $29.99N/A (N/A)0 .. 20,0000%00:00 (00:00)TRIANGLE SERVICETRIANGLE SERVICE
1055 Ukraine Defender May 12, 2022 $2.99N/A (N/A)0 .. 20,0000%00:00 (00:00)devrifterdevrifter
1056 REPLIKATOR May 11, 2022 $11.99N/A (N/A)20,000 .. 50,0000%00:00 (00:00)R_GamesMeridian4, R_Games
1057 Cute Invaders May 9, 2022 $3.99N/A (N/A)0 .. 20,0000%00:00 (00:00)Magic CubeMagic Cube
1058 Angry Putin Feb 19, 2021 $0.99N/A (N/A)0 .. 20,0000%00:00 (00:00)Seito GamesSeito Games
1059 Zom Tom May 7, 2022 $4.99N/A (N/A)20,000 .. 50,0000%00:00 (00:00)Jake OlsonImpartial Studios
1060 Defensive Measures May 6, 2022 $6.99N/A (N/A)0 .. 20,0000%00:00 (00:00)Nomadic EntertainmentNomadic Entertainment
1061 Shoot Trip Die May 5, 2022 $1.99N/A (N/A)0 .. 20,0000%00:00 (00:00)Levi RamirezLevi Ramirez
1062 The Orb of Darkness May 5, 2022 N/AN/A (N/A)0 .. 20,0000%00:00 (00:00)CK StudioCK Studio
1063 Corridor Sigma May 4, 2022 $9.99N/A (N/A)0 .. 20,0000%00:00 (00:00)Matt AufderheideMatt Aufderheide
1064 RGBY May 4, 2022 $4.99N/A (N/A)0 .. 20,0000%00:00 (00:00)HappyDaram Inc.HappyDaram Inc.
1065 Wildcat Gun Machine May 4, 2022 $14.99N/A (N/A)20,000 .. 50,0000%00:00 (00:00)Chunkybox GamesDaedalic Entertainment
1066 Super Nano Blaster May 3, 2022 $11.99N/A (N/A)0 .. 20,0000%00:00 (00:00)3.5 Inch TeamAnkama Games
1067 River Rush May 3, 2022 $2.99N/A (N/A)0 .. 20,0000%00:00 (00:00)2nd Best Games2nd Best Games
1068 Acquitted May 2, 2022 $3.97N/A (N/A)100,000 .. 200,0000%00:00 (00:00)Nordic Empire GamesNordic Empire Games
1069 Narcotics Ninja May 2, 2022 $1.99N/A (N/A)0 .. 20,0000%00:00 (00:00)Misfire StudiosMisfire Studios
1070 Arobynn: The First Adventure May 2, 2022 $4.99N/A (N/A)0 .. 20,0000%00:00 (00:00)Jace Of Shadows Gaming LLCJace Of Shadows Gaming LLC
1071 THE DREADFUL SPACE Apr 30, 2022 $0.99N/A (N/A)0 .. 20,0000%00:00 (00:00)Caztellary StudioCaztellary Studio
1072 Meteor Blasters Apr 29, 2022 $6.99N/A (N/A)0 .. 20,0000%00:00 (00:00)Paul ConnorPaul Connor
1073 Galactic Explorers Apr 29, 2022 $1.99N/A (N/A)20,000 .. 50,0000%00:00 (00:00)Caden KoehlKoehl Studios
1074 Tigey's Gift Apr 28, 2022 $0.99N/A (N/A)0 .. 20,0000%00:00 (00:00)Ten Ten-Ten cats' HouseTen Ten-Ten cats' House
1075 Ai-(Onic) Apr 27, 2022 $2.99N/A (N/A)0 .. 20,0000%00:00 (00:00)Striped Panda StudiosStriped Panda Studios
1076 Layer Section & Galactic Attack S-Tribute Apr 27, 2022 $29.99N/A (N/A)0 .. 20,0000%00:00 (00:00)CITY CONNECTIONCITY CONNECTION
1077 RESEARCH and DESTROY Apr 25, 2022 $19.99N/A (N/A)0 .. 20,0000%00:00 (00:00)Implausible IndustriesSpike Chunsoft Co., Ltd.
1078 Touhou Kaeizuka ~ Phantasmagoria of Flower View. Aug 14, 2005 $14.99N/A (N/A)20,000 .. 50,0000%00:00 (00:00)上海アリス幻樂団Mediascape Co., Ltd.
1079 Kuggs Apr 22, 2022 $4.99N/A (N/A)0 .. 20,0000%00:00 (00:00)Forrest PowellDeathWishGames
1080 Arena Brutal Apr 22, 2022 $9.99N/A (N/A)0 .. 20,0000%00:00 (00:00)Giant EagleGiant Eagle
1081 Galactic Wars EX Apr 21, 2022 $7.99N/A (N/A)0 .. 20,0000%00:00 (00:00)VolcanoBytesJanduSoft
1082 Signals of Chaos Apr 21, 2022 $3.99N/A (N/A)0 .. 20,0000%00:00 (00:00)Memory DeltaMemory Delta
1083 Super Mega Zero Apr 20, 2022 $9.99N/A (N/A)0 .. 20,0000%00:00 (00:00)SilkwormRogue Games, Inc.
1084 POSTAL 4: No Regerts Apr 20, 2022 $39.99N/A (N/A)200,000 .. 500,00011.11%01:26 (00:43)Running With ScissorsRunning With Scissors
1085 A Siren's Call VR: Death Comes At Night Apr 20, 2022 N/AN/A (N/A)0 .. 20,0000%00:00 (00:00)Siren Ember'sSiren Ember's
1086 Minarchy: Active Shooter Apr 20, 2022 $8.99N/A (N/A)50,000 .. 100,0000%00:00 (00:00)Cloud SproutCloud Sprout
1087 Swinging-Man Apr 18, 2022 $4.99N/A (N/A)0 .. 20,0000%00:00 (00:00)Napas TorteekaNapas Torteeka
1088 KILL YOUR FRIENDS Apr 18, 2022 $9.99N/A (N/A)0 .. 20,0000%00:00 (00:00)James RobinsonJames Robinson
1089 fox soldier Apr 15, 2022 $14.99N/A (N/A)0 .. 20,0000%00:00 (00:00)yousoi, sadboyYousoi
1090 Evil Reap Apr 15, 2022 $5.99N/A (N/A)0 .. 20,0000%00:00 (00:00)EzeyStudioBIM Expert LTD, Elysium Interactive
1091 ELEVATED Apr 14, 2022 $5.99N/A (N/A)0 .. 20,0000%00:00 (00:00)Kerim KumbasarKerim Kumbasar
1092 PopSlinger Apr 14, 2022 $14.99N/A (N/A)0 .. 20,0000%00:00 (00:00)Funky Can CreativeFunky Can Creative
1093 Lulu's Temple Apr 14, 2022 $4.99N/A (N/A)0 .. 20,0000%00:00 (00:00)AgelvikAgelvik
1094 BorderCollie Blaster Apr 13, 2022 $16.99N/A (N/A)0 .. 20,0000%00:00 (00:00)CanisGamesCanisGames
1095 B.I.O.T.A. Apr 12, 2022 $9.99N/A (N/A)0 .. 20,0000%00:00 (00:00)small brosRetrovibe
1096 The Ice Caves Jun 18, 2020 $2.99N/A (N/A)0 .. 20,0000%00:00 (00:00)Cinnamancer StudiosCinnamancer Studios
1097 BangBang PewPew Apr 8, 2022 $24.99N/A (N/A)20,000 .. 50,0000%00:00 (00:00)Molerat Digital Art Ltd.Molerat Digital Art Ltd.
1098 CYBERSTELLAR Apr 8, 2022 $1.99N/A (N/A)0 .. 20,0000%00:00 (00:00)Pixels-3DPixels-3D
1099 GAMEDOG Apr 8, 2022 $5N/A (N/A)0 .. 20,0000%00:00 (00:00)GHXYK2, bankbankWainstop James
1100 Apocalypse: Floodgates Apr 7, 2022 $0.99N/A (N/A)20,000 .. 50,0000%00:00 (00:00)RetroRave, LLCRetroRave, LLC
1101 Mokoko X Apr 6, 2022 $9.99N/A (N/A)0 .. 20,0000%00:00 (00:00)NAISUNAISU
1102 O.D.T.: Escape... Or Die Trying Apr 5, 2022 $12.99N/A (N/A)0 .. 20,0000%00:00 (00:00)Psygnosis FrancePiko Interactive LLC, Bleem!
1103 Lucky Pikinini - Zombie Rampage Apr 4, 2022 $1.99N/A (N/A)0 .. 20,0000%00:00 (00:00)Lucky PikininiLucky Pikinini
1104 Armored Firestorm Apr 4, 2022 $5.99N/A (N/A)0 .. 20,0000%00:00 (00:00)The Nextdoor DeveloperThe Nextdoor Developer
1105 Scorpion Overdrive Apr 1, 2022 $6.99N/A (N/A)0 .. 20,0000%00:00 (00:00)Outer Reef StudiosOuter Reef Studios
1106 Pirates of Gravitae Mar 31, 2022 $9.99N/A (N/A)0 .. 20,0000%00:00 (00:00)Innerverse GamesInnerverse Games
1107 VR Archery Mar 30, 2022 $2.99N/A (N/A)0 .. 20,0000%00:00 (00:00)Wes UnwinWes Unwin
1108 G-Darius HD Mar 30, 2022 $29.99N/A (N/A)0 .. 20,0000%00:00 (00:00)TAITO CORP., M2 Co.,LTDTAITO CORP.
1109 Dulce et Decorum Mar 29, 2022 $0.99N/A (N/A)0 .. 20,0000%00:00 (00:00)Zachary HilsmanZachary Hilsman
1110 Return Ace Mar 25, 2022 $4.99N/A (N/A)0 .. 20,0000%00:00 (00:00)NEROTANEROTA
1111 Andro Dunos II Mar 25, 2022 $17.99N/A (N/A)0 .. 20,0000%00:00 (00:00)Picorinne SoftMaximum Entertainment, PixelHeart
1112 Devastator Mar 25, 2022 $6.99N/A (N/A)20,000 .. 50,0000%00:00 (00:00)Radiangames2Awesome Studio
1113 The Last Sunshine: Rekindled Mar 22, 2022 $4.99N/A (N/A)0 .. 20,0000%00:00 (00:00)Four Eyes ProductionsFour Eyes Productions
1114 DuckHunt - Missouri Mar 21, 2022 $1.99N/A (N/A)0 .. 20,0000%00:00 (00:00)Predrag LazicMobileTVGames
1115 Pinzzo Mar 21, 2022 $0.99N/A (N/A)0 .. 20,0000%00:00 (00:00)WellingtonWellington
1116 Cavity Busters Mar 18, 2022 $14.99N/A (N/A)0 .. 20,0000%00:00 (00:00)SpaceMyFriend, Ben RidgeSpaceMyFriend
1117 KUR Mar 17, 2022 $19.99N/A (N/A)0 .. 20,0000%00:00 (00:00)Really RagdollThe Quantum Astrophysicists Guild
1118 The Reflection Mar 17, 2022 $1.99N/A (N/A)0 .. 20,0000%00:00 (00:00)BatYaggyBatYaggy
1119 Shooting Covid Mar 17, 2022 $4.99N/A (N/A)0 .. 20,0000%00:00 (00:00)RosenX StudiosRosenX Studios
1120 The Ultimate Shot Mar 15, 2022 $99.99N/A (N/A)0 .. 20,0000%00:00 (00:00)bike studioChatty Pillow
1121 Velocity Legends - Action Racing Game Mar 15, 2022 $4.99N/A (N/A)0 .. 20,0000%00:00 (00:00)UY StudiosUY Studios
1122 SHMUP Creator Mar 15, 2022 $69.99N/A (N/A)0 .. 20,0000%00:00 (00:00)bulo studiobulo studio
1123 Action Ball Mar 14, 2022 $6.99N/A (N/A)0 .. 20,0000%00:00 (00:00)RionixRionix
1124 Battle of Finland: Winter War Mar 14, 2022 $4.99N/A (N/A)0 .. 20,0000%00:00 (00:00)Team-KTeam-K
1125 Cosmoblaster Exodia Mar 14, 2022 $1.09N/A (N/A)0 .. 20,0000%00:00 (00:00)ViniVinikazakovstudios
1126 Frigore Mar 12, 2022 $1.99N/A (N/A)500,000 .. 1,000,0000%00:00 (00:00)Filios ChristouFilios Christou
1127 Hungry Zombies Mar 12, 2022 $4.99N/A (N/A)0 .. 20,0000%00:00 (00:00)CuberZCasGame
1128 Mandala Mar 11, 2022 $7.99N/A (N/A)0 .. 20,0000%00:00 (00:00)AlexoFalcoBee Games
1129 Shaped Beats Mar 11, 2022 $5.99N/A (N/A)0 .. 20,0000%00:00 (00:00)GameWorks Studio LatamGameWorks Studio Latam
1130 Combatant Mar 11, 2022 $4.99N/A (N/A)0 .. 20,0000%00:00 (00:00)GamesBrazGamesBraz
1131 MacShot Mar 10, 2022 FreeN/A (N/A)0 .. 20,0000%00:00 (00:00)MalysterSnurBuneGame
1132 Beat Invaders Mar 10, 2022 $9.99N/A (N/A)0 .. 20,0000%00:00 (00:00)Raffaele PiccaRaffaele Picca
1133 Dyflexion Mar 9, 2022 $4.99N/A (N/A)0 .. 20,0000%00:00 (00:00)Pisces StudiosPisces Studios
1134 Z-Rush Survival Mar 8, 2022 $9.99N/A (N/A)0 .. 20,0000%00:00 (00:00)Dicky HewageEFT Global
1135 Dr. Professor Scientist's Weapons Testing Facility Mar 8, 2022 $4.99N/A (N/A)20,000 .. 50,0000%00:00 (00:00)Cool Smithy GamesCool Smithy Games
1136 Blastocitos Mar 2, 2022 $1.09N/A (N/A)50,000 .. 100,0000%00:00 (00:00)REACTORJOYkovalevviktor
1137 Zombie Rollerz: Pinball Heroes Mar 2, 2022 $14.99N/A (N/A)20,000 .. 50,0000%00:00 (00:00)Zing Games Inc.Daedalic Entertainment
1138 Super Slinger Mar 1, 2022 $1.99N/A (N/A)0 .. 20,0000%00:00 (00:00)BabasheepBabasheep
1139 Squarena Mar 1, 2022 $4.99N/A (N/A)0 .. 20,0000%00:00 (00:00)Codeaclysm GamesCodeaclysm Games
1140 Gamma Space Feb 28, 2022 $3.99N/A (N/A)0 .. 20,0000%00:00 (00:00)QuickBobberQuickBobber
1141 Unnamed Arcade Engine Feb 28, 2022 $2.99N/A (N/A)0 .. 20,0000%00:00 (00:00)Pixent Interactive private limitedPixent interactive private limited
1142 Weapons Simulator Feb 27, 2022 $2.99N/A (N/A)0 .. 20,0000%00:00 (00:00)Maloke Games, Marcelo ContadorMaloke Games
1143 whale. Feb 27, 2022 $0.99N/A (N/A)0 .. 20,0000%00:00 (00:00)Rex K.Rex K.
1144 Space Dragons Feb 25, 2022 $6.99N/A (N/A)20,000 .. 50,0000%00:00 (00:00)TEAM Black Hat RobotTEAM Black Hat Robot
1145 IKUSAAAAAAAN! Feb 25, 2022 $14.99N/A (N/A)0 .. 20,0000%00:00 (00:00)幽々燦々(yuyusansan)幽々燦々(yuyusansan)
1146 Bloody Rampage City Feb 24, 2022 $2.49N/A (N/A)0 .. 20,0000%00:00 (00:00)Geaturesskazakovstudios
1147 Cops Kissing Each Other Feb 22, 2022 $13.99N/A (N/A)0 .. 20,0000%00:00 (00:00)Hello VikramHello Vikram
1148 Mechaguard Feb 21, 2022 $2.49N/A (N/A)0 .. 20,0000%00:00 (00:00)Fuliortakazakovstudios
1149 SOL CRESTA Feb 21, 2022 $17.99N/A (N/A)0 .. 20,0000%00:00 (00:00)PlatinumGames Inc.PlatinumGames Inc.
1150 Blinky Feb 21, 2022 $2.99N/A (N/A)0 .. 20,0000%00:00 (00:00)QuickBobberQuickBobber
1151 BULLET HEAT Feb 19, 2022 $14.99N/A (N/A)0 .. 20,0000%00:00 (00:00)BULLET HEAT TeamBULLET HEAT Team
1152 Collapsion Feb 19, 2022 $0.99N/A (N/A)0 .. 20,0000%00:00 (00:00)Chris CorkillChris Corkill
1153 Stop the Saturnians! Feb 18, 2022 $4.99N/A (N/A)0 .. 20,0000%00:00 (00:00)Jeff SinasacJeff Sinasac
1154 Sophstar Feb 18, 2022 $9.99N/A (N/A)0 .. 20,0000%00:00 (00:00)Banana BytesBanana Bytes
1155 Time Rift Feb 17, 2022 $9.99N/A (N/A)0 .. 20,0000%00:00 (00:00)Lightshards, Abiding BridgeAbiding Bridge, IndieArk
1156 Guntech 2 Feb 16, 2022 $14.99N/A (N/A)0 .. 20,0000%00:00 (00:00)Jani PenttinenUtopos Games
1157 I, W.O.M.A.N. Feb 14, 2022 $3.99N/A (N/A)0 .. 20,0000%00:00 (00:00)Occupational Hazard LLCOccupational Hazard LLC
1158 Last Space Guardian Feb 12, 2022 $1.99N/A (N/A)0 .. 20,0000%00:00 (00:00)Douglas Henrique LucianoDHDevStudio
1159 Mori Feb 11, 2022 $1.99N/A (N/A)0 .. 20,0000%00:00 (00:00)Alex KramerAlex Kramer
1160 RADical ROACH: Infinity Feb 11, 2022 $4.99N/A (N/A)20,000 .. 50,0000%00:00 (00:00)DL SoftworksDL Softworks
1161 Guardian Force - Saturn Tribute Feb 9, 2022 $17.99N/A (N/A)0 .. 20,0000%00:00 (00:00)CITY CONNECTIONCITY CONNECTION
1162 COTTOn 2 - Saturn Tribute Feb 9, 2022 $17.99N/A (N/A)0 .. 20,0000%00:00 (00:00)CITY CONNECTIONCITY CONNECTION
1163 Alien Space Bastards Feb 9, 2022 $6.99N/A (N/A)0 .. 20,0000%00:00 (00:00)Paul ConnorPaul Connor
1164 COTTOn Boomerang - Saturn Tribute Feb 9, 2022 $17.99N/A (N/A)0 .. 20,0000%00:00 (00:00)CITY CONNECTIONCITY CONNECTION
1165 Cosmic collapse Feb 9, 2022 $2.99N/A (N/A)200,000 .. 500,0000%00:00 (00:00)REX PEX GAMESREX PEX GAMES
1166 Zombie Shooter: Ares Virus Feb 9, 2022 $4.99N/A (N/A)20,000 .. 50,0000%00:00 (00:00)joynowjoynow
1167 STIX: Combat Devolved Feb 7, 2022 N/AN/A (N/A)0 .. 20,0000%00:00 (00:00)Terribly Delightful EntertainmentTerribly Delightful Entertainment
1168 Normal SHMUP Feb 7, 2022 $1.99N/A (N/A)20,000 .. 50,0000%00:00 (00:00)HyperBitGoreHyperBitGore
1169 Harvest Hero Origins Feb 7, 2022 $2.99N/A (N/A)0 .. 20,0000%00:00 (00:00)Gemdrop GamesGemdrop Games
1170 东方远空界 ~ Ultimate Vitality of Imagination Feb 7, 2022 $9.99N/A (N/A)0 .. 20,0000%00:00 (00:00)神心飘游堂神心飘游堂
1171 Enemy Remains Feb 6, 2022 $3.99N/A (N/A)20,000 .. 50,0000%00:00 (00:00)GameRealmMadnessGameRealmMadness
1172 B.U.G. Force Feb 5, 2022 $4.99N/A (N/A)0 .. 20,0000%00:00 (00:00)B.U.G. ITB.U.G. IT
1173 Birth Patrol Feb 3, 2022 $1.99N/A (N/A)0 .. 20,0000%00:00 (00:00)Christopher RodgersChristopher Rodgers
1174 AFTERLIFE: KILLING DEATH Feb 3, 2022 $9.99N/A (N/A)100,000 .. 200,0000%00:00 (00:00)Tuning ManiaTuning Mania
1175 Oplitak Feb 3, 2022 N/AN/A (N/A)0 .. 20,0000%00:00 (00:00)SkillNestSkillNest
1176 2076 - Midway Multiverse Feb 3, 2022 $19.99N/A (N/A)20,000 .. 50,0000%00:00 (00:00)Ivanovich GamesIvanovich Games
1177 Chromarena Feb 1, 2022 $2.99N/A (N/A)0 .. 20,0000%00:00 (00:00)Kingsnake GamesKingsnake Games
1178 Spaceship Hunters Jan 31, 2022 $5.99N/A (N/A)0 .. 20,0000%00:00 (00:00)PIerre NuryPierre Nury
1179 Marimo -VS- I.A.S Jan 31, 2022 $13.99N/A (N/A)0 .. 20,0000%00:00 (00:00)JoyPlotJoyPlot
1180 Hyper-5 Jan 28, 2022 $9.99N/A (N/A)0 .. 20,0000%00:00 (00:00)Hyper ProductionsHyper Productions
1181 Move Dodge and Kill Jan 27, 2022 $6.99N/A (N/A)0 .. 20,0000%00:00 (00:00)DjokaGamesDjokaGames
1182 Blaster Alert Jan 27, 2022 $0.99N/A (N/A)20,000 .. 50,0000%00:00 (00:00)Big Blaze GamesBig Blaze Games
1183 Monster Showdown Jan 26, 2022 $14.99N/A (N/A)20,000 .. 50,0000%00:00 (00:00)Virtual Uppercut Studios, Yahya DanboosVirtual Uppercut Studios
1184 Operation STEEL Jan 26, 2022 $9.99N/A (N/A)0 .. 20,0000%00:00 (00:00)Undermog GamesUndermog Games
1185 Brick Breaker Jan 25, 2022 $0.99N/A (N/A)0 .. 20,0000%00:00 (00:00)Zombie1111Zombie1111
1186 Mutant Jan 24, 2022 $1.24N/A (N/A)0 .. 20,0000%00:00 (00:00)Napoleon GamesStrategy First
1187 GRAND CROSS: ReNOVATION Jan 20, 2022 $8.99N/A (N/A)20,000 .. 50,0000%00:00 (00:00)ES4 / Eternal Sphere 4Henteko Doujin
1188 Dimension Tripper Neptune: TOP NEP Jan 20, 2022 $4.99N/A (N/A)50,000 .. 100,0000%00:00 (00:00)Idea Factory, Frontier Works, tiny cactus studio, WSS playgroundIdea Factory International
1189 G-MODEアーカイブス+ 弾幕検定死験-大往生編- Jan 19, 2022 $4.99N/A (N/A)0 .. 20,0000%00:00 (00:00)G-MODEG-MODE
1190 Dead No-Head Jan 19, 2022 $7.99N/A (N/A)20,000 .. 50,0000%00:00 (00:00)BT StudiosBT Studios
1191 Double Time Jan 18, 2022 $6.99N/A (N/A)0 .. 20,0000%00:00 (00:00)ASDstudioASDstudio
1192 Elementite Jan 18, 2022 $24.99N/A (N/A)20,000 .. 50,0000%00:00 (00:00)Danilo Solo DevMayflower Entertainment
1193 Spellcaster Jan 16, 2022 $2.99N/A (N/A)0 .. 20,0000%00:00 (00:00)Andrzej JozenkowAndrzej Jozenkow
1194 Planet Hotpot Jan 15, 2022 $2.99N/A (N/A)0 .. 20,0000%00:00 (00:00)Attyc GamesAttyc Games
1195 Moon Dancer Jan 14, 2022 $14.99N/A (N/A)0 .. 20,0000%00:00 (00:00)TERARIN GAMESTERARIN GAMES
1196 Vektor Z Jan 14, 2022 $6.99N/A (N/A)0 .. 20,0000%00:00 (00:00)ZaxtorGameSZaxtorGameS
1197 Ragnar Jan 14, 2022 $3.99N/A (N/A)0 .. 20,0000%00:00 (00:00)2 Bit Determine2 Bit Determine
1198 Reloader: test_subject Jan 14, 2022 $0.99N/A (N/A)50,000 .. 100,0000%00:00 (00:00)Nevertheless StudioPsychoFlux Entertainment
1199 Space Demon Combat Tactics III Jan 13, 2022 $0.99N/A (N/A)0 .. 20,0000%00:00 (00:00)Matt KuhnMatt Kuhn
1200 Shooty Jan 12, 2022 $0.99N/A (N/A)0 .. 20,0000%00:00 (00:00)RiceyCode StudiosRiceyCode Studios
1201 Asteroides Jan 11, 2022 FreeN/A (N/A)0 .. 20,0000%00:00 (00:00)Verrua Giuseppebit ManiaX
1202 MAFIA: Family's Secret Jan 8, 2022 $6.99N/A (N/A)20,000 .. 50,0000%00:00 (00:00)Tails GamesTails Games
1203 Blazend Jan 7, 2022 $7.99N/A (N/A)0 .. 20,0000%00:00 (00:00)RichterRichter
1204 Mercs Fully Loaded Jan 7, 2022 $19.99N/A (N/A)20,000 .. 50,0000%00:00 (00:00)ByteBomb StudiosByteBomb Studios
1205 Last Bastion Jan 7, 2022 $1.99N/A (N/A)0 .. 20,0000%00:00 (00:00)Sarper ŞoherSarper Şoher
1206 Virus at Home Jan 7, 2022 $2.99N/A (N/A)20,000 .. 50,0000%00:00 (00:00)Bogdan PadjenBogdan Padjen
1207 Netherspace 2 Jan 7, 2022 $7.99N/A (N/A)0 .. 20,0000%00:00 (00:00)Konstantinos KatsorisKonstantinos Katsoris
1208 Steph's Revenge Jan 4, 2022 $0.99N/A (N/A)0 .. 20,0000%00:00 (00:00)Denjor GamesDenjor Games
1209 PINK ELEPHANT Jan 3, 2022 $2.49N/A (N/A)0 .. 20,0000%00:00 (00:00)IOIGkazakovstudios
1210 Clownfield 2042 Dec 31, 2021 $0.49N/A (N/A)200,000 .. 500,0000%00:00 (00:00)RIVERSIDE SPORTSRIVERSIDE SPORTS
1211 Hen in the Foxhouse Dec 31, 2021 $4.99N/A (N/A)0 .. 20,0000%00:00 (00:00)Verily FineVerily Fine
1212 Hover Attack Dec 30, 2021 $17.99N/A (N/A)0 .. 20,0000%00:00 (00:00)Mindware Co.,Ltd.Mindware Co.,Ltd.
1213 Angry Rocketeer Frenzy Dec 27, 2021 $2.49N/A (N/A)0 .. 20,0000%00:00 (00:00)kazakovstudioskazakovstudios
1214 Toad On Fire Dec 25, 2021 $5.99N/A (N/A)0 .. 20,0000%00:00 (00:00)Joe KingDelta Code
1215 V-Fighter 2000 Dec 23, 2021 $2.99N/A (N/A)0 .. 20,0000%00:00 (00:00)kazakovstudioskazakovstudios
1216 TCSTRIKERS4 Dec 22, 2021 $4.99N/A (N/A)0 .. 20,0000%00:00 (00:00)Project AnthemProject Anthem
1217 Zovid-19 Remake Dec 22, 2021 $3.99N/A (N/A)0 .. 20,0000%00:00 (00:00)Anomaly StudioAnomaly Studio
1218 Twin Ruin Dec 22, 2021 $6.99N/A (N/A)0 .. 20,0000%00:00 (00:00)Front Room ArcadeFront Room Arcade
1219 Adventure Rush Dec 21, 2021 $9.99N/A (N/A)20,000 .. 50,0000%00:00 (00:00)MrBoscheinenMrBoscheinen
1220 Witch Explorer Dec 20, 2021 $5.59N/A (N/A)0 .. 20,0000%00:00 (00:00)Pico GamesPico Games
1221 Acid Trip Dec 17, 2021 $4.99N/A (N/A)0 .. 20,0000%00:00 (00:00)Ali HaniAli Hani
1222 Enraged Dec 16, 2021 $4.99N/A (N/A)0 .. 20,0000%00:00 (00:00)FictumLudosFictumLudos
1223 Ardein.Fall Dec 15, 2021 $4.99N/A (N/A)0 .. 20,0000%00:00 (00:00)Alex GradeAlex Grade
1224 Asteroids: Recharged Dec 14, 2021 $9.99N/A (N/A)0 .. 20,0000%00:00 (00:00)Adamvision Studios, SneakyBoxAtari
1225 LinearShooter Remixed Dec 14, 2021 $2.99N/A (N/A)0 .. 20,0000%00:00 (00:00)Annulus GamesAnnulus Games
1226 ESTEN Dec 14, 2021 $0.99N/A (N/A)0 .. 20,0000%00:00 (00:00)Discade ProjectDiscade Project
1227 Generations Of Destruction Dec 13, 2021 $1.99N/A (N/A)0 .. 20,0000%00:00 (00:00)Tim BorkertElectric Camel Studio
1228 Nebula Invasion Dec 12, 2021 $3.99N/A (N/A)20,000 .. 50,0000%00:00 (00:00)Nicholas Novella, Joshua NovellaRed Wolf Studios
1229 Mech Arena Dec 11, 2021 $4.99N/A (N/A)20,000 .. 50,0000%00:00 (00:00)Scarlet WhaleScarlet Whale
1230 Shootvaders: The Beginning Dec 11, 2021 $4.99N/A (N/A)0 .. 20,0000%00:00 (00:00)Went2Play LLCWent2Play LLC
1231 HOGuru Presents: The House With Too Many Zombies In It Dec 7, 2021 $3.99N/A (N/A)20,000 .. 50,0000%00:00 (00:00)StarSystemStudiosHOGuru Games!
1232 Castle of Shikigami 2 Dec 6, 2021 $19.99N/A (N/A)0 .. 20,0000%00:00 (00:00)Cosmo Machia, Alfa SystemKOMODO
1233 Crimzon Clover World EXplosion Dec 6, 2021 $19.99N/A (N/A)0 .. 20,0000%00:00 (00:00)YOTSUBANE, Adventure Planning ServiceKOMODO
1234 Gunner Deadly Expedition Dec 5, 2021 $1.29N/A (N/A)0 .. 20,0000%00:00 (00:00)Funkuisukovalevviktor
1235 Draginsanity Dec 5, 2021 $5.99N/A (N/A)0 .. 20,0000%00:00 (00:00)Gerd MömkenGerd Mömken
1236 BIRBOUT! Dec 4, 2021 $8.99N/A (N/A)0 .. 20,0000%00:00 (00:00)JazztacheLimeHex
1237 Tiny Tank:Dawn of Steel Dec 3, 2021 FreeN/A (N/A)0 .. 20,0000%00:00 (00:00)Disco EntertainmentDisco Entertainment
1238 UDONGEIN X Dec 3, 2021 $4.99N/A (N/A)0 .. 20,0000%00:00 (00:00)Bar Holographic OtakuBar Holographic Otaku, 东游鉴
1239 ionAXXIA Dec 3, 2021 $7.99N/A (N/A)0 .. 20,0000%00:00 (00:00)Software GeezersSoftware Geezers
1240 HOLY COW! Milking Simulator Dec 2, 2021 $0.99N/A (N/A)0 .. 20,0000%00:00 (00:00)Space Boat StudiosSpace Boat Studios
1241 Across the Galaxy: Stellar Dominator Dec 2, 2021 $9.99N/A (N/A)20,000 .. 50,0000%00:00 (00:00)GameTrail StudioGameTrail Studio
1242 Rakuten Dec 2, 2021 $9.99N/A (N/A)0 .. 20,0000%00:00 (00:00)TheRealDanTheRealDan
1243 They Сame From Above Dec 1, 2021 $24.99N/A (N/A)0 .. 20,0000%00:00 (00:00)Piece Of VoxelPiece Of Voxel
1244 NanoMachina Dec 1, 2021 $2.99N/A (N/A)0 .. 20,0000%00:00 (00:00)Lommi Games OyLommi Games Oy
1245 Bolt Action Nov 30, 2021 $0.99N/A (N/A)20,000 .. 50,0000%00:00 (00:00)James PriorBolt Action Labs
1246 // OVERDRIVE Nov 30, 2021 $2.99N/A (N/A)0 .. 20,0000%00:00 (00:00)Bastienre4Bastienre4
1247 ThrustLander Nov 29, 2021 $14.99N/A (N/A)0 .. 20,0000%00:00 (00:00)Improbable PixelImprobable Pixel
1248 The Expanse Jan 9, 2021 $5.99N/A (N/A)20,000 .. 50,0000%00:00 (00:00)Phoebus76Phoebus76
1249 Mido and Di Nov 23, 2021 $3.99N/A (N/A)100,000 .. 200,0000%00:00 (00:00)Alper Gonen, Dogan DipcinAlper Gonen
1250 Farlight Commanders Nov 19, 2021 $9.99N/A (N/A)0 .. 20,0000%00:00 (00:00)Farlight Games IndustryFarlight Games Industry
1251 Space Moth: Lunar Edition Nov 18, 2021 $7.99N/A (N/A)20,000 .. 50,0000%00:00 (00:00)1CC GamesChorus Worldwide Games
1252 Twinland Nov 18, 2021 $6.99N/A (N/A)0 .. 20,0000%00:00 (00:00)Kaiju SushiKaiju Sushi
1253 Brooke Vs. World Doom Nov 18, 2021 $9.99N/A (N/A)0 .. 20,0000%00:00 (00:00)SlyBaltoSlyBalto
1254 Hardwork Simulator Nov 17, 2021 $1.99N/A (N/A)0 .. 20,0000%00:00 (00:00)MandingaMandinga
1255 Chronicles of Deeps Nov 17, 2021 $9.99N/A (N/A)100,000 .. 200,0000%00:00 (00:00)GamelinerGameliner
1256 Darius Cozmic Collection Arcade Nov 17, 2021 $44.99N/A (N/A)20,000 .. 50,0000%00:00 (00:00)TAITO CORP., M2 Co.,LTDTAITO CORP.
1257 BLUE WISH DESIRE Nov 17, 2021 $9.99N/A (N/A)0 .. 20,0000%00:00 (00:00)xxgameroomxxgameroom
1258 Space Waves Nov 16, 2021 $6.99N/A (N/A)20,000 .. 50,0000%00:00 (00:00)Paul ConnorPaul Connor
1259 SUPER ICK Nov 16, 2021 $2.99N/A (N/A)20,000 .. 50,0000%00:00 (00:00)Ethan GoldreyerEthan Goldreyer
1260 G-MODEアーカイブス+ 怒首領蜂大往生DX Nov 15, 2021 $4.99N/A (N/A)0 .. 20,0000%00:00 (00:00)G-MODEG-MODE
1261 Gravitators Nov 12, 2021 $9.99N/A (N/A)0 .. 20,0000%00:00 (00:00)Insular GamesInsular Games
1262 Dungeon Explorer Nov 12, 2021 $0.99N/A (N/A)0 .. 20,0000%00:00 (00:00)KiokLIkazakovstudios
1263 Electronic Universe Nov 11, 2021 FreeN/A (N/A)20,000 .. 50,0000%00:00 (00:00)Midi CreationsMidi Creations
1264 Captain ToonHead vs the Punks from Outer Space Nov 11, 2021 $19.99N/A (N/A)0 .. 20,0000%00:00 (00:00)Teravision GamesTeravision Games
1265 Space Depression Nov 11, 2021 $1.99N/A (N/A)0 .. 20,0000%00:00 (00:00)TamashiiTamashii
1266 Hyper Echelon Nov 10, 2021 $19.99N/A (N/A)0 .. 20,0000%00:00 (00:00)GangoGames LLCGangoGames LLC
1267 COTTON REBOOT! Nov 10, 2021 $44.99N/A (N/A)0 .. 20,0000%00:00 (00:00)Rocket-Engine Co.,Ltd.BEEP
1268 Village defense Nov 10, 2021 $3.99N/A (N/A)0 .. 20,0000%00:00 (00:00)CuberZCasGame
1269 Airship Killer Nov 9, 2021 $1.09N/A (N/A)0 .. 20,0000%00:00 (00:00)DIP GAMEkazakovstudios
1270 Aeroplane Blaster Nov 9, 2021 $0.39N/A (N/A)0 .. 20,0000%00:00 (00:00)khukhrovrkhukhrovr
1271 Re.Surs Nov 8, 2021 $7.99N/A (N/A)0 .. 20,0000%00:00 (00:00)VidyGamesVidyGames
1272 Dextram Nov 8, 2021 $5.99N/A (N/A)0 .. 20,0000%00:00 (00:00)Lingon StudiosLingon Studios
1273 Dead Way Nov 5, 2021 $17.99N/A (N/A)0 .. 20,0000%00:00 (00:00)Prestige GamesPrestige Games
1274 Death Slayer V Nov 4, 2021 $4.99N/A (N/A)0 .. 20,0000%00:00 (00:00)MDK softwareMDK software
1275 Protect The Treasure Nov 4, 2021 FreeN/A (N/A)20,000 .. 50,0000%00:00 (00:00)12x1 Doze Por Um StudioRicardo Rodrigues Games
1276 Star Witch Nov 2, 2021 $4.99N/A (N/A)50,000 .. 100,0000%00:00 (00:00)Frozen DungeonFrozen Dungeon
1277 Touhou Endless Dream Nov 1, 2021 $7.99N/A (N/A)50,000 .. 100,0000%00:00 (00:00)a10a010, MyACG StudioMyACG Studio
1278 Spacey Vade Nov 1, 2021 $4.99N/A (N/A)0 .. 20,0000%00:00 (00:00)Brown BotBrown Bot
1279 Broken Betrayal Nov 2021 $10.99N/A (N/A)0 .. 20,0000%00:00 (00:00)SparkyAlphaOne Games
1280 Guns and Grapples Nov 1, 2021 $11.99N/A (N/A)0 .. 20,0000%00:00 (00:00)Bit ShiftersBit Shifters
1281 Insiders Oct 29, 2021 $13.99N/A (N/A)0 .. 20,0000%00:00 (00:00)ANG People s.r.o.ANG People s.r.o.
1282 Starlight: Eye of the Storm Oct 29, 2021 $7.99N/A (N/A)0 .. 20,0000%00:00 (00:00)Strides Interactive Game StudioStrides Interactive Game Studio
1283 Nuclear Assault Oct 29, 2021 $0.99N/A (N/A)20,000 .. 50,0000%00:00 (00:00)Verediana GamesVerediana Games
1284 Monster Bash HD Oct 29, 2021 $9.99N/A (N/A)0 .. 20,0000%00:00 (00:00)Emberheart GamesApogee Entertainment
1285 Finding Home Oct 28, 2021 $14.99N/A (N/A)0 .. 20,0000%00:00 (00:00)Dream Darker EntertainmentDream Darker Entertainment
1286 Marimoth Oct 28, 2021 $1.99N/A (N/A)20,000 .. 50,0000%00:00 (00:00)Nether LampNether Lamp
1287 Airplanes Dogfight Racer Oct 28, 2021 $3.99N/A (N/A)0 .. 20,0000%00:00 (00:00)Limitless Gamez, Limitless GamezLimitless Gamez
1288 Black Widow: Recharged Oct 28, 2021 $9.99N/A (N/A)0 .. 20,0000%00:00 (00:00)Adamvision Studios, SneakyBoxAtari
1289 暴れん坊天狗 & ZOMBIE NATION Oct 27, 2021 $11.99N/A (N/A)0 .. 20,0000%00:00 (00:00)CITY CONNECTIONCITY CONNECTION
1290 Super Gunfight Oct 27, 2021 $4.99N/A (N/A)0 .. 20,0000%00:00 (00:00)KedexaKedexa
1291 Touhou Multi Scroll Shooting 2 Oct 26, 2021 $11.99N/A (N/A)0 .. 20,0000%00:00 (00:00)Skydash studioSkydash studio
1292 Abda Redeemer: Space alien invasion Oct 26, 2021 $9.99N/A (N/A)0 .. 20,0000%00:00 (00:00)BulatHardBulatHard
1293 Flight of the Athena Oct 26, 2021 $7.99N/A (N/A)0 .. 20,0000%00:00 (00:00)A To Play LtdA To Play Ltd
1294 Too Many Zombies! Oct 26, 2021 $9.99N/A (N/A)0 .. 20,0000%00:00 (00:00)DerinDerin
1295 Flashlight Oct 25, 2021 $2.99N/A (N/A)0 .. 20,0000%00:00 (00:00)SouthWater GamesSouthWater Games
1296 Spermicide Oct 24, 2021 $0.99N/A (N/A)0 .. 20,0000%00:00 (00:00)Frank Bondietti IIIFrank Bondietti III
1297 Top Gang Oct 24, 2021 $1.99N/A (N/A)0 .. 20,0000%00:00 (00:00)lbdl GameStudiolbdl GameStudio
1298 Kate: Collateral Damage Oct 22, 2021 $7.99N/A (N/A)0 .. 20,0000%00:00 (00:00)Ludic StudiosLudic Studios
1299 Princess Maira: Initiation Oct 22, 2021 $0.99N/A (N/A)0 .. 20,0000%00:00 (00:00)Termeno, s.r.o.Termeno, s.r.o.
1300 Vulkan: Lost Planet Oct 21, 2021 $1.99N/A (N/A)0 .. 20,0000%00:00 (00:00)Old School VibesOld School Vibes
1301 Apocalyptic Adventure: Episode 1 Oct 21, 2021 $2.99N/A (N/A)0 .. 20,0000%00:00 (00:00)Ascenzio, LLCAscenzio, LLC
1302 Viro Move Oct 20, 2021 $24.99N/A (N/A)0 .. 20,0000%00:00 (00:00)FIT REALITYFIT REALITY
1303 Touhou Adventure Oct 20, 2021 $4.99N/A (N/A)0 .. 20,0000%00:00 (00:00)Crimson Games DevCrimson Games Dev
1304 Spectacular Sparky Oct 20, 2021 $14.99N/A (N/A)0 .. 20,0000%00:00 (00:00)FreakZone GamesNicalis, Inc.
1305 LTO Arcade Oct 19, 2021 FreeN/A (N/A)0 .. 20,0000%00:00 (00:00)LTO StudiosLTO Studios
1306 Dead Estate Oct 19, 2021 $14.99N/A (N/A)200,000 .. 500,0000%00:00 (00:00)Milkbar Lads2 Left Thumbs
1307 Tri-Star Oct 19, 2021 $9.99N/A (N/A)0 .. 20,0000%00:00 (00:00)Stardust SmithyStardust Smithy
1308 SPICESHIFTER Oct 19, 2021 $24.99N/A (N/A)0 .. 20,0000%00:00 (00:00)OPG KatanaPiece Of Voxel
1309 Starblast: Retro Wars Oct 18, 2021 $4.99N/A (N/A)0 .. 20,0000%00:00 (00:00)CrimsonBlackGames, JR 01, Ken RaileyCrimsonBlackGames
1310 N1L (No1Lives) Oct 16, 2021 FreeN/A (N/A)100,000 .. 200,0000%00:00 (00:00)Ken Henson, Tom MotzKen Henson, Tom Motz
1311 Unit Down Oct 15, 2021 $4.99N/A (N/A)0 .. 20,0000%00:00 (00:00)Randy BeckerProper Dev
1312 Typomancer in the Feather's Way Oct 15, 2021 $1.99N/A (N/A)0 .. 20,0000%00:00 (00:00)Sensen GamesSensen Games
1313 No Tyrant Oct 13, 2021 $5.99N/A (N/A)0 .. 20,0000%00:00 (00:00)ShadowDevourShadowDevour
1314 PolyClassic: Wild Oct 11, 2021 $9.99N/A (N/A)20,000 .. 50,0000%00:00 (00:00)Whale Rock GamesWhale Rock Games
1315 Crazy Invader ShootEm Down Oct 10, 2021 $2.99N/A (N/A)0 .. 20,0000%00:00 (00:00)Crazy Retro GamesCrazy Retro Games
1316 Hell Road VR Sep 30, 2020 $11.99N/A (N/A)0 .. 20,0000%00:00 (00:00)Travolab ReplayTravolab Replay
1317 In The Valley of Death -Prologue- Oct 8, 2021 $3.99N/A (N/A)0 .. 20,0000%00:00 (00:00)stdio.gypsystdio.gypsy
1318 Flappy Shooter Oct 8, 2021 $9.99N/A (N/A)0 .. 20,0000%00:00 (00:00)Vadd Games, Cow GameCow Game
1319 Hell Blasters Oct 7, 2021 $14.99N/A (N/A)0 .. 20,0000%00:00 (00:00)PlayShift GamesPlayShift Games
1320 GROUND-UNBOUND Oct 7, 2021 $4.99N/A (N/A)0 .. 20,0000%00:00 (00:00)FrinkyFrinky
1321 Short Hop Laser Oct 6, 2021 $0.99N/A (N/A)0 .. 20,0000%00:00 (00:00)The420FalcoThe420Falco
1322 The Adventures of Emoji 4 : Fly High Mouse Oct 6, 2021 $1.99N/A (N/A)0 .. 20,0000%00:00 (00:00)Moji4StudioMoji4Studio
1323 Netherspace Oct 5, 2021 FreeN/A (N/A)0 .. 20,0000%00:00 (00:00)Konstantinos KatsorisKonstantinos Katsoris
1324 Wings Of WW2 Oct 4, 2021 $6.99N/A (N/A)0 .. 20,0000%00:00 (00:00)Paul ConnorPaul Connor
1325 Mission 1985 Oct 4, 2021 $9.99N/A (N/A)0 .. 20,0000%00:00 (00:00)ConsulogConsulog
1326 Polybius Invaders Oct 3, 2021 $9.99N/A (N/A)0 .. 20,0000%00:00 (00:00)Jonni the Dodger, Peter WardJonni The Dodger
1327 Little Red Rocket Ship Oct 1, 2021 $1.99N/A (N/A)20,000 .. 50,0000%00:00 (00:00)RandomRandom
1328 Gearshifters Oct 1, 2021 $24.99N/A (N/A)0 .. 20,0000%00:00 (00:00)Red Phantom GamesNumskull Games
1329 ExZeus: The Complete Collection Sep 30, 2021 $12.99N/A (N/A)20,000 .. 50,0000%00:00 (00:00)HyperDevbox, Sickhead GamesZiggurat
1330 Project Scav Sep 30, 2021 $14.99N/A (N/A)0 .. 20,0000%00:00 (00:00)Cannabis, MetaSmokehoe Studios, Dead Pixel Labs
1331 One Pixel TWB Sep 30, 2021 $1.99N/A (N/A)0 .. 20,0000%00:00 (00:00)IreeroLineArt Games
1332 Centipede: Recharged Sep 29, 2021 $9.99N/A (N/A)0 .. 20,0000%00:00 (00:00)Adamvision Studios, SneakyBoxAtari
1333 NEOGEO POCKET COLOR SELECTION Vol. 1 Steam Edition Sep 29, 2021 $39.99N/A (N/A)0 .. 20,0000%00:00 (00:00)SNK CORPORATION, Code MysticsSNK CORPORATION
1334 Spinner Invaders Sep 28, 2021 $7.99N/A (N/A)0 .. 20,0000%00:00 (00:00)Wobi GamesWobi Games
1335 Core Alpha Sep 28, 2021 $2.99N/A (N/A)20,000 .. 50,0000%00:00 (00:00)Legion Infinity InteractiveLegion Infinity Interactive
1336 Solo Royale Sep 27, 2021 $4.99N/A (N/A)0 .. 20,0000%00:00 (00:00)Andrew CampiAndrew Campi
1337 League Space Sep 26, 2021 $11.99N/A (N/A)50,000 .. 100,0000%00:00 (00:00)EURO GAMES STUDIOEURO GAMES STUDIO (ESP)
1338 Lucky Tlhalerwa's Cybernetic Titan Sep 25, 2021 $1.99N/A (N/A)0 .. 20,0000%00:00 (00:00)Lucky PikininiLucky Pikinini
1339 FORTRESS DEFENDER Sep 22, 2021 $14.99N/A (N/A)0 .. 20,0000%00:00 (00:00)opmregistersopmregisters
1340 Mud River Sep 21, 2021 $5.99N/A (N/A)0 .. 20,0000%00:00 (00:00)Felipe MattarRocpainGames
1341 Protect the Earth Sep 20, 2021 $3.99N/A (N/A)0 .. 20,0000%00:00 (00:00)VictorVictor
1342 Street Dreams Sep 17, 2021 $6.99N/A (N/A)0 .. 20,0000%00:00 (00:00)Anthony SturdyAnthony Sturdy
1343 PalmRide Sep 16, 2021 $3.99N/A (N/A)0 .. 20,0000%00:00 (00:00)PixelboisPixelbois
1344 Starfighter Aces Sep 15, 2021 $4.99N/A (N/A)50,000 .. 100,0000%00:00 (00:00)Adlai GlassAdlai Glass
1345 ASTRO ACE Sep 14, 2021 $2.99N/A (N/A)0 .. 20,0000%00:00 (00:00)Irondales EntertainmentIrondales Entertainment
1346 Starship Sep 14, 2021 $0.99N/A (N/A)20,000 .. 50,0000%00:00 (00:00)Oceandeep NetworkOceandeep Network
1347 KooringVR Wonderland:Red Queen's Black Magic Sep 14, 2021 $29.99N/A (N/A)0 .. 20,0000%00:00 (00:00)VRANI inc.VRANI inc.
1348 TechBeat Heart Sep 13, 2021 $0.59N/A (N/A)0 .. 20,0000%00:00 (00:00)Lost Machine GamesLost Machine Games
1349 Cube Sep 12, 2021 $0.99N/A (N/A)0 .. 20,0000%00:00 (00:00)ycyclopycyclop
1350 Agent Roswell Sep 9, 2021 N/AN/A (N/A)50,000 .. 100,0000%00:00 (00:00)DeletedDeleted
1351 Danger Zombies Sep 9, 2021 $1.99N/A (N/A)0 .. 20,0000%00:00 (00:00)RedBlack gamesRedBlack games
1352 Robonauts Sep 9, 2021 $0.79N/A (N/A)50,000 .. 100,0000%00:00 (00:00)QubicGamesUntold Tales, QubicGames
1353 The Sand Dunes Sep 9, 2021 FreeN/A (N/A)0 .. 20,0000%00:00 (00:00)JonayneJonayne
1354 Splash King's Tournament Sep 8, 2021 N/AN/A (N/A)0 .. 20,0000%00:00 (00:00)Jesper PetersenSKT Gaming/Jesper Petersen
1355 Night Hunter Sep 8, 2021 $7.99N/A (N/A)0 .. 20,0000%00:00 (00:00)African Plains StudiosAfrican Plains Studios
1356 Don't Hate My Music Taste Sep 7, 2021 $1.99N/A (N/A)0 .. 20,0000%00:00 (00:00)ErtenErten Games
1357 Metal Swarm Infinity Sep 7, 2021 $4.99N/A (N/A)0 .. 20,0000%00:00 (00:00)Andrew Nutter666 Jaggar, George DuttonAndrew Nutter666 Jaggar
1358 Shattered Gardens Sep 1, 2021 N/AN/A (N/A)0 .. 20,0000%00:00 (00:00)Aerial-Knight StudiosAerial-Knight Studios
1359 Zombardment Aug 31, 2021 $3.99N/A (N/A)0 .. 20,0000%00:00 (00:00)SoulTraderSoulTrader
1360 Suit for Hire Aug 31, 2021 $14.99N/A (N/A)20,000 .. 50,0000%00:00 (00:00)Godmode InteractiveGodmode Interactive
1361 OLD SKOOL RACER Aug 30, 2021 $29.99N/A (N/A)0 .. 20,0000%00:00 (00:00)Karma Play LimitedKarma Play Limited
1362 False Dichotomy Aug 30, 2021 $2.99N/A (N/A)0 .. 20,0000%00:00 (00:00)Melchizedek ToddWeapon Press
1363 X-Force Genesis Aug 30, 2021 $3.99N/A (N/A)20,000 .. 50,0000%00:00 (00:00)Cube GamesCube Games
1364 Have a Blast Aug 26, 2021 $7.99N/A (N/A)0 .. 20,0000%00:00 (00:00)Bojan EndrovskiFirenut Games
1365 CUBE-e 2 Aug 26, 2021 $9.99N/A (N/A)100,000 .. 200,0000%00:00 (00:00)Piece Of VoxelPiece Of Voxel
1366 Cosmo 02 Aug 25, 2021 $2.99N/A (N/A)0 .. 20,0000%00:00 (00:00)FYGOUROGigantum Games
1367 Crime District Aug 25, 2021 $7.99N/A (N/A)0 .. 20,0000%00:00 (00:00)RPK-studio gameRPK-studio game
1368 REVO Aug 24, 2021 $14.99N/A (N/A)0 .. 20,0000%00:00 (00:00)Cosmic Misfit StudioCosmic Misfit Studio
1369 Metal Golem: First Contact Aug 23, 2021 $3.99N/A (N/A)50,000 .. 100,0000%00:00 (00:00)Divine Vision LLCDivine Vision LLC
1370 Brick People Aug 23, 2021 $1.99N/A (N/A)50,000 .. 100,0000%00:00 (00:00)soxczsoxcz
1371 Space Scavenger Aug 20, 2021 $12.99N/A (N/A)50,000 .. 100,0000%00:00 (00:00)Red Cabin GamesRed Cabin Games
1372 Street Striker Aug 19, 2021 $0.99N/A (N/A)0 .. 20,0000%00:00 (00:00)Boom GamesBoom Games
1373 Radioactive Dwarfs: Evil From The Sewers Aug 16, 2021 $4.99N/A (N/A)50,000 .. 100,0000%00:00 (00:00)Slay BuhermanAmino Acid Studios
1374 Apostle 3D Aug 13, 2021 $2.99N/A (N/A)0 .. 20,0000%00:00 (00:00)Brandon FerrentinoAnarky Games
1375 Monkey Tantrum Aug 13, 2021 $9.99N/A (N/A)0 .. 20,0000%00:00 (00:00)Adato GamesAdato Games
1376 Gospel of Abaddon Aug 12, 2021 $2.99N/A (N/A)0 .. 20,0000%00:00 (00:00)MutkraktMutkrakt
1377 On Scene - The Horror Stories of Fred & Karen Aug 12, 2021 $0.99N/A (N/A)0 .. 20,0000%00:00 (00:00)Intentionally Sad ProductsIntentionally Bad Products
1378 SpaceSeals Aug 11, 2021 $9.99N/A (N/A)20,000 .. 50,0000%00:00 (00:00)Andrey MikheevPiece Of Voxel
1379 Red Brick Hotel Aug 10, 2021 $2.99N/A (N/A)0 .. 20,0000%00:00 (00:00)Avis GamesAvis Games
1380 GUN&DUN Aug 9, 2021 FreeN/A (N/A)0 .. 20,0000%00:00 (00:00)Dev KidDev Kid
1381 Chromancy Aug 7, 2021 $4.99N/A (N/A)20,000 .. 50,0000%00:00 (00:00)Eugene Tan JianpengEugene Tan Jianpeng
1382 Evorales Aug 6, 2021 $5.99N/A (N/A)0 .. 20,0000%00:00 (00:00)HechelionHechelion
1383 Star Hunter DX Aug 5, 2021 $9.99N/A (N/A)0 .. 20,0000%00:00 (00:00)1CC GamesChorus Worldwide Games
1384 Space Ship Infinity Aug 4, 2021 $0.99N/A (N/A)0 .. 20,0000%00:00 (00:00)Lucas LimaMade In House
1385 BullyBall Aug 4, 2021 $1.99N/A (N/A)0 .. 20,0000%00:00 (00:00)gemRVgemRV
1386 Rick Henderson Aug 4, 2021 $3.99N/A (N/A)0 .. 20,0000%00:00 (00:00)Fat Pug StudioFat Pug Studio
1387 Customers From Hell - Game For Retail Workers (Zombie Survival Game) Aug 3, 2021 $7.99N/A (N/A)0 .. 20,0000%00:00 (00:00)Steelkrill StudioSteelkrill Studio
1388 Shwip Aug 3, 2021 $4.99N/A (N/A)0 .. 20,0000%00:00 (00:00)Jamhammer Games Inc.Jamhammer Games Inc.
1389 Duck Flight Simulator 2021 Aug 2, 2021 $3.99N/A (N/A)0 .. 20,0000%00:00 (00:00)Ritual InteractiveRitual Interactive
1390 Meteor Storm Aug 2, 2021 $4.99N/A (N/A)20,000 .. 50,0000%00:00 (00:00)Z Sculpt EntertainmentZ Sculpt Entertainment
1391 Welcome to the Polyverse Jul 31, 2021 $9.99N/A (N/A)0 .. 20,0000%00:00 (00:00)RevmatekRevmatek
1392 Operation Insanity Jul 30, 2021 $1.99N/A (N/A)0 .. 20,0000%00:00 (00:00)Hollow World Games llcHollow World Games llc
1393 B.ARK Jul 29, 2021 $9.99N/A (N/A)0 .. 20,0000%00:00 (00:00)Tic Toc GamesTic Toc Games
1394 Waifu Covered 2 : Censored Edition Jul 29, 2021 $4.99N/A (N/A)0 .. 20,0000%00:00 (00:00)One-Hand-Free StudiosOne-Hand-Free Studios
1395 RETROLD Jul 28, 2021 FreeN/A (N/A)0 .. 20,0000%00:00 (00:00)Bernardo Barreiros FialhoBernardo Barreiros Fialho
1396 Space Intervention Jul 27, 2021 $0.99N/A (N/A)0 .. 20,0000%00:00 (00:00)RandomSpinRandomSpin
1397 Action Commando 2 Jul 27, 2021 $4.99N/A (N/A)20,000 .. 50,0000%00:00 (00:00)BlueEagle ProductionsPaul Schneider
1398 Two by One Jul 26, 2021 $11.99N/A (N/A)0 .. 20,0000%00:00 (00:00)Javier OrtegaJavier Ortega
1399 Present Danger Jul 26, 2021 $1.99N/A (N/A)0 .. 20,0000%00:00 (00:00)A Winters NightA Winters Night
1400 Moon Defence Jul 26, 2021 $8.99N/A (N/A)50,000 .. 100,0000%00:00 (00:00)Ivan KulibinIvan Kulibin
1401 The Grass Jul 26, 2021 $9.99N/A (N/A)0 .. 20,0000%00:00 (00:00)PlayEmotionStudiosPlayEmotionStudios
1402 White Eyes Jul 26, 2021 $1.49N/A (N/A)0 .. 20,0000%00:00 (00:00)Chocolate Ship GamesChocolate Ship Games
1403 Cookie Space Jul 25, 2021 $2.99N/A (N/A)0 .. 20,0000%00:00 (00:00)SimoSimo
1404 SIK Space Invader Kreature Jul 24, 2021 $6.99N/A (N/A)20,000 .. 50,0000%00:00 (00:00)Ajal Game StudioBrisia Fabiola Aguirre Ponce de Leon, Javier León López, Ramón Alberto Campos Martir
1405 SAVE THE UNICORN Jul 23, 2021 $2.99N/A (N/A)0 .. 20,0000%00:00 (00:00)BLUE UNICORN GAMESBLUE UNICORN GAMES
1406 Star Tank Jul 21, 2021 $2.99N/A (N/A)0 .. 20,0000%00:00 (00:00)Ferulox StudiosFerulox Studios
1407 Unshaded Jul 21, 2021 $6.99N/A (N/A)20,000 .. 50,0000%00:00 (00:00)Ametist studioAmetist studio
1408 cherry blossom fleet Jul 20, 2021 $12.99N/A (N/A)0 .. 20,0000%00:00 (00:00)Far East military Co.Far East military Co.
1409 Cosmoscope Jul 20, 2021 N/AN/A (N/A)0 .. 20,0000%00:00 (00:00)Matero Games LtdMatero Games Ltd
1410 Stuck Together Jul 20, 2021 $3.99N/A (N/A)0 .. 20,0000%00:00 (00:00)Digital Pine StudiosDigital Pine Studios
1411 Tank Zombie Smasher Jul 20, 2021 $0.39N/A (N/A)0 .. 20,0000%00:00 (00:00)SimpleSoftkhukhrovr
1412 SPACE DANCE Jul 20, 2021 $4.99N/A (N/A)0 .. 20,0000%00:00 (00:00)PhoenixFire GamesPhoenixFire Games
1413 PEOPLEDOWN Jul 20, 2021 $4.99N/A (N/A)0 .. 20,0000%00:00 (00:00)YukinoshinYukinoshin
1414 AirFighter Jul 20, 2021 $0.39N/A (N/A)0 .. 20,0000%00:00 (00:00)LTRG corp.khukhrovr
1415 Kanamono Jul 19, 2021 $5.99N/A (N/A)0 .. 20,0000%00:00 (00:00)KaraiKarai
1416 Twinstick Arcade Jul 16, 2021 $3.99N/A (N/A)0 .. 20,0000%00:00 (00:00)Aquinas GamesAquinas Games
1417 Escape from Terror City Jul 14, 2021 $9.99N/A (N/A)20,000 .. 50,0000%00:00 (00:00)Renegade Sector GamesRenegade Sector Games
1418 Junebug vs. Evil Jul 13, 2021 $9.99N/A (N/A)0 .. 20,0000%00:00 (00:00)Eldritch Heart StudioEldritch Heart Studio
1419 Everlasting Guilt Jul 12, 2021 $14.99N/A (N/A)0 .. 20,0000%00:00 (00:00)Geeky MouseGeeky Mouse
1420 Death Upon Us Jul 12, 2021 $5N/A (N/A)0 .. 20,0000%00:00 (00:00)Julian LewisJulian Lewis
1421 Space Shooter Jul 11, 2021 $0.99N/A (N/A)0 .. 20,0000%00:00 (00:00)OuroborOs_OuroborOs_
1422 Elevated Jul 11, 2021 $2.99N/A (N/A)0 .. 20,0000%00:00 (00:00)Jake RovereJake Rovere
1423 Combots Jul 8, 2021 $7.99N/A (N/A)20,000 .. 50,0000%00:00 (00:00)HardEdge GamesHardEdge Games
1424 Manual Intervention VR Jul 5, 2021 $2.99N/A (N/A)0 .. 20,0000%00:00 (00:00)SpannerworxSpannerworx
1425 Ammo 666 Jul 2, 2021 $1.99N/A (N/A)0 .. 20,0000%00:00 (00:00)TamashiiTamashii
1426 Salt and Sails Jul 1, 2021 $9.99N/A (N/A)0 .. 20,0000%00:00 (00:00)DiaMMaxPiece Of Voxel
1427 Chuhou Joutai 2: Paraided! Jul 1, 2021 $4.99N/A (N/A)50,000 .. 100,0000%00:00 (00:00)Drillimation SystemsDrillimation Systems
1428 Super Glitter Rush Jun 30, 2021 $3.99N/A (N/A)0 .. 20,0000%00:00 (00:00)tiny cactus studio, Tsuyomitiny cactus studio
1429 Nekoba RocknRoll Jun 30, 2021 $5.99N/A (N/A)0 .. 20,0000%00:00 (00:00)leimonyaleimonya
1430 Curved Space Jun 29, 2021 $19.99N/A (N/A)0 .. 20,0000%00:00 (00:00)Only By Midnight Ltd.Maximum Games
1431 Super Space Towers Jun 29, 2021 $5.99N/A (N/A)0 .. 20,0000%00:00 (00:00)Happy Cactus Games LimitedHappy Cactus Games Limited
1432 Mini ship wars Jun 29, 2021 $9.99N/A (N/A)0 .. 20,0000%00:00 (00:00)Phoenixxx GamesPhoenixxx Games
1433 Gobot Jun 29, 2021 $1.99N/A (N/A)0 .. 20,0000%00:00 (00:00)HiNewShi Games
1434 Star Pixie Jun 29, 2021 $9.99N/A (N/A)0 .. 20,0000%00:00 (00:00)HEG GamesEndless Games
1435 Spirit Bounce Jun 28, 2021 $7.99N/A (N/A)20,000 .. 50,0000%00:00 (00:00)ChrisBSMChrisBSM
1436 Devileader Jun 25, 2021 FreeN/A (N/A)20,000 .. 50,0000%00:00 (00:00)Hijong ParkPsychoFlux Entertainment
1437 Zombie Apocalypse 2021 Jun 25, 2021 $1.99N/A (N/A)0 .. 20,0000%00:00 (00:00)CoolCraftGamesCoolCraftGames
1438 Touhou Blooming Chaos 2 Apr 17, 2020 $5.99N/A (N/A)100,000 .. 200,0000%00:00 (00:00)二色幽紫蝶, re零同人社二色幽紫蝶, 东游鉴
1439 Endocrisis Jun 24, 2021 $9.99N/A (N/A)0 .. 20,0000%00:00 (00:00)Arturo BuschmannArturo Buschmann
1440 Retro Classix: BreakThru Jun 24, 2021 N/AN/A (N/A)0 .. 20,0000%00:00 (00:00)Data EastZiggurat, 612 Games
1441 BattleDead Jun 24, 2021 N/AN/A (N/A)0 .. 20,0000%00:00 (00:00)Frobax GamesFrobax Games
1442 Cyberwinter Jun 23, 2021 $4.99N/A (N/A)0 .. 20,0000%00:00 (00:00)Panda Pasha GamesPanda Pasha Games
1443 Robobo TM Jun 23, 2021 $1.99N/A (N/A)20,000 .. 50,0000%00:00 (00:00)Diaz PepperDiaz Pepper
1444 Antiprism Jun 21, 2021 $17.99N/A (N/A)0 .. 20,0000%00:00 (00:00)Zero FunZero Fun
1445 Hard Driver 2 Jun 18, 2021 $0.99N/A (N/A)0 .. 20,0000%00:00 (00:00)PhoenixFire GamesPhoenixFire Games
1446 Dungeonite Jun 18, 2021 $9.99N/A (N/A)0 .. 20,0000%00:00 (00:00)Pants Robot LLCPants Robot LLC
1447 Touhou Bunkachou ~ Shoot the Bullet. Dec 30, 2005 $10.99N/A (N/A)50,000 .. 100,0000%00:00 (00:00)上海アリス幻樂団Mediascape Co., Ltd.
1448 Team-Z Jun 17, 2021 $1.99N/A (N/A)0 .. 20,0000%00:00 (00:00)ExtrapolatedExtrapolated
1449 Kestrel Jun 17, 2021 $4.99N/A (N/A)0 .. 20,0000%00:00 (00:00)NectarwareNectarware
1450 DemonPandemicVR Jun 17, 2021 $6.99N/A (N/A)0 .. 20,0000%00:00 (00:00)Alekcake IncorporatedAlekcake Incorporated
1451 Virtuous Western Jun 17, 2021 $1.99N/A (N/A)0 .. 20,0000%00:00 (00:00)Nibb GamesNibb Games
1452 Rangerdog Jun 17, 2021 $5.99N/A (N/A)0 .. 20,0000%00:00 (00:00)OOEGAMESHanaji Games
1453 Tank Fantastic Jun 16, 2021 $9.99N/A (N/A)0 .. 20,0000%00:00 (00:00)Neatan GamesPiece Of Voxel
1454 Dininho Space Adventure Jun 15, 2021 $1.99N/A (N/A)0 .. 20,0000%00:00 (00:00)DininhoDininho
1455 Die Rangliste Jun 15, 2021 FreeN/A (N/A)20,000 .. 50,0000%00:00 (00:00)Shane Strunkwilkins_micawber_games
1456 VIRTUAL SOLDIERS Dec 29, 2020 $0.99N/A (N/A)100,000 .. 200,0000%00:00 (00:00)Sean Adair EntertainmentSean Adair Entertainment
1457 MARK-I: Mission Pilot Jun 12, 2021 $1.99N/A (N/A)0 .. 20,0000%00:00 (00:00)Denis KazantsevDenis Kazantsev
1458 UNPLUGGED Jun 9, 2021 $9.99N/A (N/A)0 .. 20,0000%00:00 (00:00)omidjmomidjm
1459 Tybot Invasion: The Typing Runner Jun 9, 2021 $3.99N/A (N/A)20,000 .. 50,0000%00:00 (00:00)Sensen GamesSensen Games
1460 I.O.R.C Impact Orbital Rescue Crew Jun 7, 2021 $4.99N/A (N/A)0 .. 20,0000%00:00 (00:00)BWI GamesBWI Games
1461 DOOMBRINGER Jun 4, 2021 $14.99N/A (N/A)0 .. 20,0000%00:00 (00:00)Anomic GamesAnomic Games
1462 ASTRO AQUA KITTY Jun 4, 2021 $14.99N/A (N/A)0 .. 20,0000%00:00 (00:00)TIKIPODTIKIPOD
1463 Wing of Darkness Jun 2, 2021 $29.99N/A (N/A)0 .. 20,0000%00:00 (00:00)Production ExabilitiesClouded Leopard Entertainment
1464 Infiltration: Alone in Combat Jun 2, 2021 $1.99N/A (N/A)50,000 .. 100,0000%00:00 (00:00)Elvio LujánElvio Luján
1465 Galactic Refugees Jun 1, 2021 $3.99N/A (N/A)0 .. 20,0000%00:00 (00:00)Easy Peazy GamesEasy Peazy Games
1466 DRUM'N'BASS MASSACRE Jun 1, 2021 $0.99N/A (N/A)0 .. 20,0000%00:00 (00:00)illuminatiSA Industry
1467 Red Measures May 31, 2021 $1.99N/A (N/A)0 .. 20,0000%00:00 (00:00)Volt Force StudioVolt Force Studio
1468 Model Building Restoration May 31, 2021 $199.99N/A (N/A)0 .. 20,0000%00:00 (00:00)HedeHede
1469 The Great Pickle Adventure May 31, 2021 $9.99N/A (N/A)0 .. 20,0000%00:00 (00:00)techkitchensinktechkitchensink
1470 The Invasion May 27, 2021 $0.9N/A (N/A)0 .. 20,0000%00:00 (00:00)GeneGene
1471 Starsation May 25, 2021 $9.99N/A (N/A)20,000 .. 50,0000%00:00 (00:00)FactKys StudiosPiece Of Voxel
1472 Spacegirl 2038 May 25, 2021 $7.99N/A (N/A)0 .. 20,0000%00:00 (00:00)Borsuk SoftwareBorsuk Software
1473 Capcom Arcade Stadium May 24, 2021 $10N/A (N/A)2,000,000 .. 5,000,0000%00:00 (00:00)CAPCOM Co., Ltd.CAPCOM Co., Ltd.
1474 东方栖霞园 ~ Blue devil in the Belvedere. May 21, 2021 $9.99N/A (N/A)20,000 .. 50,0000%00:00 (00:00)东方祈华梦制作组东方祈华梦制作组, 东游鉴
1475 Saints Row: The Third Remastered May 21, 2021 $5.99N/A (N/A)50,000 .. 100,0000%00:00 (00:00)Deep Silver Volition, SperasoftDeep Silver
1476 THE FANGS HUNTRESS May 21, 2021 $4.99N/A (N/A)20,000 .. 50,0000%00:00 (00:00)Drop_Dead_FredSlippy Floor
1477 Alien Death Mob May 20, 2021 $1.99N/A (N/A)0 .. 20,0000%00:00 (00:00)Pug Fugly GamesThalamus Digital
1478 Squad Killer May 20, 2021 $4.99N/A (N/A)0 .. 20,0000%00:00 (00:00)WANZUNGDEVWANZUNGDEV
1479 Endless Furry Killer Infinity May 18, 2021 $1.99N/A (N/A)0 .. 20,0000%00:00 (00:00)Tegridy Made GamesTegridy Made Games
1480 Spacebase19 May 17, 2021 $1.99N/A (N/A)0 .. 20,0000%00:00 (00:00)MorgondagMorgondag
1481 SNKRX May 17, 2021 $2.99N/A (N/A)200,000 .. 500,0000%00:00 (00:00)a327exa327ex
1482 Sheriff Exam May 17, 2021 $7.99N/A (N/A)0 .. 20,0000%00:00 (00:00)ITC StudioITC Studio
1483 Lost Scale: Part One May 17, 2021 $24.99N/A (N/A)0 .. 20,0000%00:00 (00:00)DanicyPiece Of Voxel
1484 CosmoDrive:Infinity May 16, 2021 $4.99N/A (N/A)0 .. 20,0000%00:00 (00:00)Diamond Cats StudiotheNeko
1485 VAR: Exterminate May 16, 2021 $14.99N/A (N/A)0 .. 20,0000%00:00 (00:00)VAR LIVE International LtdVAR LIVE International Ltd
1486 Duty in the Forest May 14, 2021 $3.99N/A (N/A)0 .. 20,0000%00:00 (00:00)SoftwavesSoftwaves Dist.
1487 ASCENXION May 14, 2021 $9.99N/A (N/A)0 .. 20,0000%00:00 (00:00)IndigoBlue Game StudioPsychoFlux Entertainment
1488 Rebound Raver May 13, 2021 $0.99N/A (N/A)0 .. 20,0000%00:00 (00:00)Retro Twist GamesRetro Twist Games
1489 Broken Sky May 12, 2021 $7.99N/A (N/A)100,000 .. 200,0000%00:00 (00:00)Addictive 247 GamesAddictive 247 Games
1490 Mad Devils May 10, 2021 $14.99N/A (N/A)0 .. 20,0000%00:00 (00:00)Itzy Interactive Inc.Itzy Interactive Inc.
1491 Zahhak May 7, 2021 $1.99N/A (N/A)0 .. 20,0000%00:00 (00:00)Pedro Henrique BarettaPedro Henrique Baretta
1492 Alien Wall May 7, 2021 $3.99N/A (N/A)0 .. 20,0000%00:00 (00:00)Stefan PreussStefan Preuss
1493 Flowing Lights May 7, 2021 $9.99N/A (N/A)0 .. 20,0000%00:00 (00:00)gFaUmNegFaUmNe
1494 Slordax: The Unknown Enemy May 7, 2021 $6.99N/A (N/A)0 .. 20,0000%00:00 (00:00)SoftdiskZiggurat
1495 Carebotz May 7, 2021 $1.99N/A (N/A)0 .. 20,0000%00:00 (00:00)Glasscannon StudioGlasscannon Studio
1496 Cosmophage May 6, 2021 $0.99N/A (N/A)0 .. 20,0000%00:00 (00:00)Mad Kraken StudiosMad Kraken Studios
1497 Cyber Hunter: Awakening May 6, 2021 $1.09N/A (N/A)0 .. 20,0000%00:00 (00:00)FAMOUS PRODUCTIONkovalevviktor
1498 Russian Mailman Simulator May 5, 2021 FreeN/A (N/A)0 .. 20,0000%00:00 (00:00)Bruce ScottBruce Scott
1499 Cloud Cutter May 5, 2021 $7.99N/A (N/A)0 .. 20,0000%00:00 (00:00)Just Two ltd.Just Two ltd.
1500 King Bullseye: The Chess Strike May 5, 2021 $1.99N/A (N/A)0 .. 20,0000%00:00 (00:00)Sensen GamesSensen Games
1501 Touhou Kouryudou ~ Unconnected Marketeers. May 3, 2021 $14.99N/A (N/A)50,000 .. 100,0000%00:00 (00:00)上海アリス幻樂団Mediascape Co., Ltd.
1502 ZOMBIE MATHters May 2, 2021 $1.99N/A (N/A)0 .. 20,0000%00:00 (00:00)gameboxgamebox
1503 Jungle Rumble May 2, 2021 $1.09N/A (N/A)0 .. 20,0000%00:00 (00:00)FAMOUS PRODUCTIONkovalevviktor
1504 Rodent and Plank: Secret Origin Apr 30, 2021 $9.99N/A (N/A)0 .. 20,0000%00:00 (00:00)Lodder Digital MediaLodder Digital Media
1505 R-Type Final 2 Apr 30, 2021 $39.99N/A (N/A)100,000 .. 200,0000%00:00 (00:00)Granzella Inc.NIS America, Inc.
1506 The Bits That Saved the Galaxy Apr 30, 2021 $4.99N/A (N/A)0 .. 20,0000%00:00 (00:00)James C GrayJames C Gray
1507 Xeno Shooter Apr 30, 2021 $1.99N/A (N/A)50,000 .. 100,0000%00:00 (00:00)Crazy Dino Game Studio, Felipe Mauricio, Octavio Gomes, Victor Luccas FreyCupana Games
1508 Military Base War Apr 29, 2021 $4.99N/A (N/A)0 .. 20,0000%00:00 (00:00)Sarhan SoftSarhan Soft
1509 Asteroid Blasters Apr 25, 2021 $6.99N/A (N/A)0 .. 20,0000%00:00 (00:00)Paul ConnorPaul Connor
1510 ASTRO: The Beginning Apr 22, 2021 $9.99N/A (N/A)0 .. 20,0000%00:00 (00:00)BigGame StudioBigGame Publishing
1511 IronCommando/钢铁突击队 Apr 20, 2021 $0.99N/A (N/A)0 .. 20,0000%00:00 (00:00)xu junxu jun
1512 Space Haters Apr 19, 2021 $4.99N/A (N/A)0 .. 20,0000%00:00 (00:00)Beehive GamesBeehive Games
1513 Battle Guns Simulator Apr 16, 2021 $1.99N/A (N/A)0 .. 20,0000%00:00 (00:00)CoolCraftGamesCoolCraftGames
1514 Flying Flogger Apr 15, 2021 $3.99N/A (N/A)0 .. 20,0000%00:00 (00:00)KalashotKalashot
1515 Rogue Sentry Apr 15, 2021 $7.99N/A (N/A)0 .. 20,0000%00:00 (00:00)MapledevMapledev
1516 Survive the Rift Apr 15, 2021 $14.99N/A (N/A)0 .. 20,0000%00:00 (00:00)Monster Helix Inc.Monster Helix Inc.
1517 Cube Space Apr 15, 2021 $0.99N/A (N/A)0 .. 20,0000%00:00 (00:00)INFINITE BRIDGEINFINITE BRIDGE
1518 Laser Droplets Apr 15, 2021 $1.99N/A (N/A)0 .. 20,0000%00:00 (00:00)Kikashi OnlineKikashi Online
1519 Finders Reapers Apr 14, 2021 $14.99N/A (N/A)50,000 .. 100,0000%00:00 (00:00)MOSQUITO COCKTAIL LTDMOSQUITO COCKTAIL LTD
1520 Endless Furry Asteroids Apr 12, 2021 $0.99N/A (N/A)0 .. 20,0000%00:00 (00:00)Tegridy Made GamesTegridy Made Games
1521 Bomb Escape Apr 12, 2021 $0.99N/A (N/A)50,000 .. 100,0000%00:00 (00:00)Thiago FernandesTAG Games
1522 Super Retro Fighter Apr 11, 2021 $11.99N/A (N/A)0 .. 20,0000%00:00 (00:00)Syndrome interactive, Cat God StudioCat God Studio
1523 Freyr's Love Apr 9, 2021 $0.99N/A (N/A)20,000 .. 50,0000%00:00 (00:00)Quince GamesQuince Studios
1524 ALPHA CENTAURI SPACE FORCE Apr 8, 2021 $9.99N/A (N/A)0 .. 20,0000%00:00 (00:00)ocasocreationsocasocreations
1525 Astrodogs Apr 8, 2021 $12.99N/A (N/A)0 .. 20,0000%00:00 (00:00)Dynamic Media TriadDigital Tribe
1526 Space Fuel Apr 8, 2021 $4.99N/A (N/A)20,000 .. 50,0000%00:00 (00:00)MXT GamesMXT Games
1527 Cosmic Tank Apr 7, 2021 $4.99N/A (N/A)20,000 .. 50,0000%00:00 (00:00)Game MastermindsGame Masterminds
1528 Sea Battle: Annihilation Apr 5, 2021 $1.99N/A (N/A)0 .. 20,0000%00:00 (00:00)LaxieStudiosLaxieStudios
1529 FPS Tactics Apr 5, 2021 $199.99N/A (N/A)0 .. 20,0000%00:00 (00:00)HedeHede
1530 Sheriff Rage Apr 3, 2021 $0.39N/A (N/A)50,000 .. 100,0000%00:00 (00:00)AutPlaykovalevviktor
1531 Galaxy Arena Apr 3, 2021 $0.28N/A (N/A)0 .. 20,0000%00:00 (00:00)CICUNkovalevviktor
1532 Shoot 'm Up Apr 2, 2021 $5.99N/A (N/A)0 .. 20,0000%00:00 (00:00)DukeSoftDukeSoft
1533 Apolune 2 Apr 1, 2021 $4.99N/A (N/A)50,000 .. 100,0000%00:00 (00:00)Lost AstronautLost Astronaut Studios
1534 Destructo Mar 31, 2021 $0.99N/A (N/A)0 .. 20,0000%00:00 (00:00)KAIRA DeepwareKAIRA Deepware
1535 Motor Assailant Mar 30, 2021 $4.99N/A (N/A)0 .. 20,0000%00:00 (00:00)DSW GamesDSW Games
1536 Blind Shot Mar 30, 2021 $4.99N/A (N/A)20,000 .. 50,0000%00:00 (00:00)Pixel TrappsForestlight Games
1537 Things That Bounce and Explode Mar 30, 2021 $3.99N/A (N/A)20,000 .. 50,0000%00:00 (00:00)LNDFRRLNDFRR
1538 The Last From Mars Mar 31, 2021 $7.99N/A (N/A)0 .. 20,0000%00:00 (00:00)Cualit Eng. Ltda.Cualit Eng. Ltda.
1539 Guns N' Runs Mar 30, 2021 $9.99N/A (N/A)0 .. 20,0000%00:00 (00:00)Statera StudioStatera Studio
1540 Noah's Ark Mar 30, 2021 $8.99N/A (N/A)0 .. 20,0000%00:00 (00:00)Source Research and DevelopmentPiko Interactive LLC, Bleem!
1541 War Tank combat Mar 30, 2021 $0.99N/A (N/A)0 .. 20,0000%00:00 (00:00)FCgames15FCgames15
1542 Endline Mar 29, 2021 $4.99N/A (N/A)0 .. 20,0000%00:00 (00:00)MinicedMiniced
1543 R.T.O. Tales of the Dark Lands - Deluxe Edition Mar 29, 2021 $9.99N/A (N/A)0 .. 20,0000%00:00 (00:00)Animas GamesAnimas Games
1544 Brutal Dinosaur Mar 27, 2021 $14.99N/A (N/A)0 .. 20,0000%00:00 (00:00)Animas GamesAnimas Games
1545 pureya Mar 26, 2021 $5.99N/A (N/A)100,000 .. 200,0000%00:00 (00:00)MajorariattoMajorariatto
1546 Dragon Blast - Crazy Action Super Hero Game Mar 26, 2021 $0.99N/A (N/A)0 .. 20,0000%00:00 (00:00)Blazio StudiosUY Studios
1547 Dominating the skies Mar 26, 2021 $0.99N/A (N/A)20,000 .. 50,0000%00:00 (00:00)Swipe claw gamesSwipe claw games
1548 Sniper Ships: Shoot'em Up on Rails Mar 26, 2021 $1.99N/A (N/A)0 .. 20,0000%00:00 (00:00)Sensen GamesSensen Games
1549 Tank Brawl 2: Armor Fury Mar 26, 2021 FreeN/A (N/A)50,000 .. 100,0000%00:00 (00:00)Phung GamesPhung Games
1550 Ribby Rocket Mar 25, 2021 $0.99N/A (N/A)0 .. 20,0000%00:00 (00:00)Cyborg Syndicate, LLCCyborg Syndicate, LLC
1551 Kooring VR Wonderland : Heart Castle Crush Jul 14, 2020 $15.99N/A (N/A)0 .. 20,0000%00:00 (00:00)VRANI inc.VRANI inc.
1552 Barrage Fantasia Mar 24, 2021 $9.99N/A (N/A)0 .. 20,0000%00:00 (00:00)l3lHanaji Games
1553 Ground Zero Texas - Nuclear Edition Mar 23, 2021 $14.99N/A (N/A)0 .. 20,0000%00:00 (00:00)Screaming VillainsScreaming Villains
1554 Sleep Tight Mar 24, 2021 $9.99N/A (N/A)0 .. 20,0000%00:00 (00:00)BearfoxbearBearfoxbear
1555 FALCO AXE Mar 23, 2021 $0.49N/A (N/A)50,000 .. 100,0000%00:00 (00:00)FALCO Softwarekovalevviktor
1556 Battle Royale Craft Mar 23, 2021 $1.99N/A (N/A)0 .. 20,0000%00:00 (00:00)CoolCraftGamesCoolCraftGames
1557 Touhou Fan-made Virtual Autography Mar 20, 2021 $14.99N/A (N/A)0 .. 20,0000%00:00 (00:00)Northern MindNorthern Mind
1558 Sweep Mar 20, 2021 $0.99N/A (N/A)100,000 .. 200,0000%00:00 (00:00)TwoGen SoftwareTwoGen Software
1559 Space Mages: Dimension 33 Mar 19, 2021 $1.99N/A (N/A)0 .. 20,0000%00:00 (00:00)Euclides LopesEuclides Lopes
1560 ASSAULT SHELL Mar 19, 2021 $9.99N/A (N/A)0 .. 20,0000%00:00 (00:00)Team OverloadedTeam Overloaded
1561 Meteoroids 3D Mar 18, 2021 $4.99N/A (N/A)0 .. 20,0000%00:00 (00:00)Titan Deep Space CompanyTitan Deep Space Company
1562 Rangok Skies Mar 15, 2021 $9.99N/A (N/A)0 .. 20,0000%00:00 (00:00)Samurai GamesSamurai Games
1563 BATTLE ARENA: Robot Apocalypse Mar 15, 2021 $0.69N/A (N/A)0 .. 20,0000%00:00 (00:00)Maick PaimPequi studios
1564 Dangerous Chris Mar 15, 2021 $0.99N/A (N/A)20,000 .. 50,0000%00:00 (00:00)CGN StudiosCGN Studios
1565 Degradation(Alpha) Mar 14, 2021 $1.99N/A (N/A)20,000 .. 50,0000%00:00 (00:00)SRCS, EDGE-GAMESSRCS
1566 Cyclotronica Mar 14, 2021 $9.99N/A (N/A)0 .. 20,0000%00:00 (00:00)Randy Lee Blain, Jason BlainMonumental Arts Engineering, LLC
1567 Firescout Mar 12, 2021 N/AN/A (N/A)20,000 .. 50,0000%00:00 (00:00)FiveDead Interactive Inc.FiveDead Interactive Inc.
1568 Trap Arena Mar 12, 2021 $1.99N/A (N/A)0 .. 20,0000%00:00 (00:00)Laush Dmitriy SergeevichLaush Studio
1569 L.S.S II Mar 12, 2021 $2.99N/A (N/A)20,000 .. 50,0000%00:00 (00:00)FossettGamingFossettGaming
1570 Another Warfare Mar 11, 2021 $0.79N/A (N/A)0 .. 20,0000%00:00 (00:00)DuxomniaDuxomnia
1571 KARMA Mar 10, 2021 $5.99N/A (N/A)0 .. 20,0000%00:00 (00:00)Raytrace InteractiveRaytrace Interactive
1572 Knight Throde Mar 9, 2021 $0.99N/A (N/A)0 .. 20,0000%00:00 (00:00)LIU DaohuanLIU Daohuan
1573 Robot Robert Mar 9, 2021 $0.99N/A (N/A)0 .. 20,0000%00:00 (00:00)DnovelMy Way Games
1574 Planetary Defense Mar 6, 2021 $0.99N/A (N/A)20,000 .. 50,0000%00:00 (00:00)INFINITE BRIDGEINFINITE BRIDGE
1575 Neon Shooter Mar 5, 2021 $1.99N/A (N/A)20,000 .. 50,0000%00:00 (00:00)Busy B Studios LLCBusy B Studios LLC
1576 Rotten Tide Mar 3, 2021 $5.99N/A (N/A)0 .. 20,0000%00:00 (00:00)HYPER GATEHYPER GATE
1577 Run Ralph Run Mar 3, 2021 $0.99N/A (N/A)0 .. 20,0000%00:00 (00:00)DnovelMy Way Games
1578 Plasma Attack Mar 3, 2021 $0.39N/A (N/A)0 .. 20,0000%00:00 (00:00)RENFALCkhukhrovr
1579 Manic Archers Mar 3, 2021 $14.99N/A (N/A)0 .. 20,0000%00:00 (00:00)Ancient Most High GamesAncient Most High Games
1580 Retro Classix: Heavy Barrel Mar 2, 2021 N/AN/A (N/A)20,000 .. 50,0000%00:00 (00:00)Data EastZiggurat, 612 Games
1581 Retro Classix: SRD - Super Real Darwin Mar 2, 2021 N/AN/A (N/A)0 .. 20,0000%00:00 (00:00)Data EastZiggurat, 612 Games
1582 Pesky Humans Mar 1, 2021 $1.99N/A (N/A)0 .. 20,0000%00:00 (00:00)Serious TangentsSerious Tangents
1583 Tower of Doom Mar 1, 2021 $14.99N/A (N/A)0 .. 20,0000%00:00 (00:00)Finn LichtenbergFinn Lichtenberg
1584 One Pixel Feb 28, 2021 $0.99N/A (N/A)0 .. 20,0000%00:00 (00:00)IreeroLineArt Games
1585 Active Mummy Feb 27, 2021 $0.39N/A (N/A)0 .. 20,0000%00:00 (00:00)RENFALCkhukhrovr
1586 Airstrife: Assault of the Aviators Feb 26, 2021 $9.99N/A (N/A)20,000 .. 50,0000%00:00 (00:00)Kenisoft Game StudioKenisoft Game Studio
1587 Beyond The Waterfalls Feb 25, 2021 $11.99N/A (N/A)0 .. 20,0000%00:00 (00:00)dev_k5aadev_k5aa
1588 Rome 2077: Space Wars Feb 25, 2021 $0.99N/A (N/A)0 .. 20,0000%00:00 (00:00)YelaexYelaex
1589 Retro Wars Feb 25, 2021 $6.99N/A (N/A)0 .. 20,0000%00:00 (00:00)Paul ConnorPaul Connor
1590 PewPew! Feb 23, 2021 $0.99N/A (N/A)50,000 .. 100,0000%00:00 (00:00)INFINITE BRIDGEINFINITE BRIDGE
1591 Arnold Feb 23, 2021 $0.49N/A (N/A)0 .. 20,0000%00:00 (00:00)DnovelConglomerate 5
1592 Commandos Pro Simulator Feb 23, 2021 $1.99N/A (N/A)100,000 .. 200,0000%00:00 (00:00)CommandosProCommandosPro
1593 HyperShot Feb 22, 2021 $0.99N/A (N/A)0 .. 20,0000%00:00 (00:00)Pirate Dog GamesPirate Dog Games
1594 QUICAL Feb 22, 2021 $4.99N/A (N/A)0 .. 20,0000%00:00 (00:00)sakastudiosakastudio
1595 Bullet Time Feb 21, 2021 $1.99N/A (N/A)20,000 .. 50,0000%00:00 (00:00)WarriorsStudioWarriorsStudio
1596 Muffin Fight Feb 19, 2021 $4.99N/A (N/A)0 .. 20,0000%00:00 (00:00)Red Iron LabsRed Iron Labs
1597 Gravity Heroes Feb 19, 2021 $9.99N/A (N/A)0 .. 20,0000%00:00 (00:00)Studica Solution, Electric MonkeysPQube
1598 Natsuki Chronicles Feb 18, 2021 $19.99N/A (N/A)0 .. 20,0000%00:00 (00:00)QuteRising Star Games
1599 RoboBunnies In Space! Feb 18, 2021 $3.99N/A (N/A)0 .. 20,0000%00:00 (00:00)Giant Fox StudiosGiant Fox Studios
1600 Star Aegis Feb 17, 2021 $0.99N/A (N/A)0 .. 20,0000%00:00 (00:00)Felipe SilvaFelipe Silva
1601 Speed Limit Feb 17, 2021 $9.99N/A (N/A)0 .. 20,0000%00:00 (00:00)GamechuckGamechuck
1602 ShapeNeon Chaos Feb 16, 2021 $1.99N/A (N/A)0 .. 20,0000%00:00 (00:00)Beni GamesBeni Games
1603 Red Galaxy Feb 16, 2021 $0.99N/A (N/A)20,000 .. 50,0000%00:00 (00:00)CSZgamesCSZgames
1604 Mythic Zombies Feb 13, 2021 $4.99N/A (N/A)0 .. 20,0000%00:00 (00:00)Mythic GamingMythic Gaming
1605 FEVER: FIGHT THE FEVER Jul 4, 2020 $8.99N/A (N/A)0 .. 20,0000%00:00 (00:00)Zin Games LLCZin Games LLC
1606 Neon Ships: The Type'em Up Shooter Feb 11, 2021 $3.99N/A (N/A)20,000 .. 50,0000%00:00 (00:00)Sensen GamesSensen Games
1607 Martha Feb 8, 2021 $3.99N/A (N/A)50,000 .. 100,0000%00:00 (00:00)Affordable CatAffordable Cat
1608 Malicious Payload Feb 6, 2021 $4.99N/A (N/A)0 .. 20,0000%00:00 (00:00)Last HowlLast Howl
1609 Green world: Catharsis Feb 5, 2021 $2.79N/A (N/A)50,000 .. 100,0000%00:00 (00:00)Jaja CityJaja City
1610 BulletGarden Feb 5, 2021 $3.99N/A (N/A)0 .. 20,0000%00:00 (00:00)StudioTwilightStudioTwilight
1611 Assau!t Feb 5, 2021 $1.99N/A (N/A)20,000 .. 50,0000%00:00 (00:00)!CyberApex (SkagoGames)SkagoGames
1612 Binarystar Infinity Feb 4, 2021 $0.79N/A (N/A)0 .. 20,0000%00:00 (00:00)Ricci Cedric DesignForever Entertainment S. A.
1613 Rogue Star Rescue Feb 4, 2021 $14.99N/A (N/A)0 .. 20,0000%00:00 (00:00)Chute AppsChute Apps
1614 Gun-REViper Feb 3, 2021 $14.99N/A (N/A)0 .. 20,0000%00:00 (00:00)naga84gamesnaga84games
1615 Habroxia 2 Feb 3, 2021 $9.99N/A (N/A)0 .. 20,0000%00:00 (00:00)Lillymo GamesLillymo Games
1616 A Western Drama Feb 23, 2021 $19.99N/A (N/A)0 .. 20,0000%00:00 (00:00)TriBit StudioIV Productions, Audiogames APS
1617 Lonza the Bounty Hunter Feb 1, 2021 $1.99N/A (N/A)0 .. 20,0000%00:00 (00:00)Built In A Day GamesBuilt In A Day Games
1618 URG Feb 1, 2021 $19.99N/A (N/A)0 .. 20,0000%00:00 (00:00)Jani PenttinenUtopos Games
1619 Casual Commando Jan 30, 2021 $0.99N/A (N/A)0 .. 20,0000%00:00 (00:00)Enaayah Software Development and Services Private LimitedEnaayah Software Development and Services Private Limited
1620 Astrokicker Jan 29, 2021 $4.99N/A (N/A)20,000 .. 50,0000%00:00 (00:00)Quadrivo Software, LLCQuadrivo Software, LLC
1621 Warp Out Jan 28, 2021 $9.99N/A (N/A)0 .. 20,0000%00:00 (00:00)ID61ID61
1622 Cinders Of Hades Jan 26, 2021 $2.99N/A (N/A)0 .. 20,0000%00:00 (00:00)Holon Studios Inc.Holon Studios Inc.
1623 Endless Furry Killer 3D Jan 25, 2021 $1.99N/A (N/A)0 .. 20,0000%00:00 (00:00)Tegridy Made GamesTegridy Made Games
1624 Gun Bots Jan 25, 2021 $4.99N/A (N/A)20,000 .. 50,0000%00:00 (00:00)Protect the KingSelf Published
1625 NEKO ARENA Jan 25, 2021 $1.99N/A (N/A)20,000 .. 50,0000%00:00 (00:00)Neko CloudNeko Cloud
1626 Typing Fingers - Enemy Jan 24, 2021 $14.99N/A (N/A)0 .. 20,0000%00:00 (00:00)Foriero s.r.o.Foriero s.r.o.
1627 Aim Academy Jan 22, 2021 $3.99N/A (N/A)20,000 .. 50,0000%00:00 (00:00)Solo DevSolo Dev
1628 RagingBlasters Jan 22, 2021 $7.49N/A (N/A)20,000 .. 50,0000%00:00 (00:00)TERARIN GAMESTERARIN GAMES
1629 Cannon Lab 13 Jan 20, 2021 $0.99N/A (N/A)50,000 .. 100,0000%00:00 (00:00)AvvaNextGenAvvaNextGen
1630 NA.NO Jan 20, 2021 $4.99N/A (N/A)0 .. 20,0000%00:00 (00:00)Arcade EssenceArcade Essence
1631 A Million Conquests Jan 19, 2021 $7.99N/A (N/A)20,000 .. 50,0000%00:00 (00:00)Rainbirth SLRainbirth SL
1632 UfoPilot : The Phadt Menace - Steam Edition Jan 19, 2021 $4.99N/A (N/A)0 .. 20,0000%00:00 (00:00)nornware ABnornware AB
1633 Uphold The Realm Jan 15, 2021 $6.99N/A (N/A)0 .. 20,0000%00:00 (00:00)Alkaline Development LLCAlkaline Development LLC
1634 Dualism Jan 14, 2021 $9.99N/A (N/A)0 .. 20,0000%00:00 (00:00)Noah JudsonNoah Judson
1635 Blurple Food Wars Jan 12, 2021 $4.99N/A (N/A)0 .. 20,0000%00:00 (00:00)Patrick MilhollandPatrick Milholland
1636 Saturn Quest: Blast Effect Jan 11, 2021 $3.99N/A (N/A)0 .. 20,0000%00:00 (00:00)Arkhouse TelegraphArkhouse Telegnosis
1637 Lone Wolf: World War 2 Jan 11, 2021 $2.99N/A (N/A)0 .. 20,0000%00:00 (00:00)Redman GamesRedman Games
1638 Aircraft Sketch Shooter Jan 11, 2021 $2.99N/A (N/A)0 .. 20,0000%00:00 (00:00)Stusse GamesStusse Games
1639 Amusemos Jan 11, 2021 FreeN/A (N/A)0 .. 20,0000%00:00 (00:00)David DonarumoDavid Donarumo
1640 tanxy Jan 11, 2021 $7.99N/A (N/A)20,000 .. 50,0000%00:00 (00:00)IronRibIronRib
1641 Escape Planet 17 Jan 8, 2021 $2.99N/A (N/A)0 .. 20,0000%00:00 (00:00)BIG4 Game StudioBIG4 Game Studio
1642 Hell Pages Jan 7, 2021 $4.99N/A (N/A)0 .. 20,0000%00:00 (00:00)Medusa HeadMedusa Head
1643 Red Falcon Jan 6, 2021 $0.99N/A (N/A)20,000 .. 50,0000%00:00 (00:00)IJuniorIJunior
1644 Star Mine Jan 6, 2021 $5.58N/A (N/A)0 .. 20,0000%00:00 (00:00)Anthony Vaughan BartramAMCOG
1645 Days Of Purgatory Jan 6, 2021 $24.99N/A (N/A)0 .. 20,0000%00:00 (00:00)Gory GamingGory Gaming
1646 月之泪 ~ Tears of Luna Jan 5, 2021 $3.99N/A (N/A)20,000 .. 50,0000%00:00 (00:00)宇智波早苗宇智波早苗
1647 ARENIX Dec 30, 2020 $29.99N/A (N/A)0 .. 20,0000%00:00 (00:00)Volens GamesHandMade Games
1648 Teslapunk Dec 30, 2020 $2.99N/A (N/A)20,000 .. 50,0000%00:00 (00:00)klutzGames, FleischfilmklutzGames, Fleischfilm
1649 Phantast Dec 28, 2020 $1.99N/A (N/A)0 .. 20,0000%00:00 (00:00)Shoho GamesShoho Games
1650 Desert Mystery Dec 28, 2020 $0.99N/A (N/A)0 .. 20,0000%00:00 (00:00)GamesLtd.GamesLtd.
1651 Infernal Radiation Dec 28, 2020 $8.99N/A (N/A)0 .. 20,0000%00:00 (00:00)AsmodevUltimate Games
1652 Mutant Ops Dec 25, 2020 $4.99N/A (N/A)20,000 .. 50,0000%00:00 (00:00)Jacob NavarroWarhog Games
1653 Omega Blade Dec 24, 2020 FreeN/A (N/A)20,000 .. 50,0000%00:00 (00:00)Manuel Pasamontes RomeraManuel Pasamontes Romera
1654 cyan Dec 22, 2020 $1.99N/A (N/A)0 .. 20,0000%00:00 (00:00)Aged ImmortalsAged Immortals
1655 Round 99 Dec 22, 2020 $4.99N/A (N/A)20,000 .. 50,0000%00:00 (00:00)Boomz GamesBoomz Games
1656 GyroBlade Dec 21, 2020 $4.99N/A (N/A)0 .. 20,0000%00:00 (00:00)H.T.Project GamesH.T.Project Games
1657 Pray And Spray Dec 21, 2020 FreeN/A (N/A)0 .. 20,0000%00:00 (00:00)Big Bird GamesBig Bird Games
1658 ZERO GUNNER 2- Dec 20, 2020 $9.99N/A (N/A)100,000 .. 200,0000%00:00 (00:00)CITY CONNECTION, ZerodivCITY CONNECTION
1659 Dimensions Dec 17, 2020 $0.99N/A (N/A)0 .. 20,0000%00:00 (00:00)Equanox ProductionsEquanox Productions
1660 Defentron Dec 17, 2020 $9.99N/A (N/A)0 .. 20,0000%00:00 (00:00)Planetfall StudiosZerouno Games
1661 Solos Apr 14, 2020 $0.79N/A (N/A)0 .. 20,0000%00:00 (00:00)Create Something Interesting, Sixty6GamesCreate Something Interesting
1662 Ultimate Battle Dec 16, 2020 $2.99N/A (N/A)20,000 .. 50,0000%00:00 (00:00)Matt GamesMatt Games
1663 Chess Knights: High Noon Dec 15, 2020 $2.99N/A (N/A)100,000 .. 200,0000%00:00 (00:00)Minimol GamesMinimol Games
1664 Starship Turd Nugget: Too Cool For Stool Dec 14, 2020 $1.99N/A (N/A)50,000 .. 100,0000%00:00 (00:00)Glinkie Games Inc.Glinkie Games Inc.
1665 You Pilot A Piece Of S***: GAIDEN Dec 13, 2020 $1.99N/A (N/A)20,000 .. 50,0000%00:00 (00:00)Long NguyenLong Nguyen
1666 Awesome Mix Tape Dec 12, 2020 $3.99N/A (N/A)0 .. 20,0000%00:00 (00:00)Projector StudiosProjector Studios
1667 Wild Gun Dec 10, 2020 $5.99N/A (N/A)0 .. 20,0000%00:00 (00:00)KIMYS STUDIOSKIMYS STUDIOS
1668 kosmickop Dec 10, 2020 $0.99N/A (N/A)0 .. 20,0000%00:00 (00:00)megaeggzmegaeggz
1669 The King of the Oceans Dec 4, 2020 $4.99N/A (N/A)0 .. 20,0000%00:00 (00:00)Purple VoidPurple Void
1670 NOMAD Revisited Dec 10, 2020 $1.99N/A (N/A)0 .. 20,0000%00:00 (00:00)Pixel Games UKPixel Games UK
1671 1976 - Back to midway Dec 10, 2020 $14.99N/A (N/A)0 .. 20,0000%00:00 (00:00)Ivanovich GamesIvanovich Games
1672 Wholesome Slaughter Dec 10, 2020 $0.99N/A (N/A)200,000 .. 500,0000%00:00 (00:00)Eclipse Game LabsPatrick Simeon
1673 Veiled Basilisk Dec 8, 2020 $2.99N/A (N/A)0 .. 20,0000%00:00 (00:00)Sublimis GamesSublimis Games
1674 Rogue Wars Dec 8, 2020 N/AN/A (N/A)0 .. 20,0000%00:00 (00:00)Kai MeltonKai Melton
1675 Space Raiders in Space Dec 8, 2020 $9.99N/A (N/A)0 .. 20,0000%00:00 (00:00)2 Stupid DevsDestructive Creations
1676 Skycadia Dec 7, 2020 $9.99N/A (N/A)0 .. 20,0000%00:00 (00:00)Studio Nisse LLCStudio Nisse LLC
1677 Headbangers in Holiday Hell Dec 7, 2020 $6.99N/A (N/A)20,000 .. 50,0000%00:00 (00:00)Vikerlane, Hammer & RavensHammer&Ravens
1678 Matt's Project Zombies: Open World Dec 7, 2020 $9.99N/A (N/A)100,000 .. 200,0000%00:00 (00:00)Matt SowardsRavesta Games
1679 The Message Dec 6, 2020